Darstellungsparameter: Aktuell verwendete Einstellungen:
Skalierung der Graphiken ... ?
xyx+y,   Skalierungsfaktor:      Skalierung: Modus: x, Faktor: 1
Darstellungszeitraum ... ?
Vom - - bis: - -   Zeitraum: 02.11.2013 - 01.05.2014
Min/Max/Avg-Anzeige ... ?
Zeige MMA aktuell
Zeige MMA Monat
Zeige MMA alles
Zeige --A aktuell
Zeige --A Monat
Zeige --A alles
Keine MMA-Anzeige
MMA:
Keine MMA-Graphiken
MMA-Basis: 02.11.2013 - 01.05.2014
Quicknavigation für Darstellung... ?
Tage:      1T, 2T, 3T, 5T -1T -2T -3T -5T +1T +2T +3T +5T
Wochen: 1W, 2W, 3W -1W -2W -3W +1W +2W +3W
Monate: 1M, 3M, 6M -1M -3M -6M +1M +3M +6M
Jahre:    1J, 3J, 5J, 10J -1J -3J -5J -10J +1J +3J +5J +10J
Nutze für die Darstellung ... ?
Originaldaten oder Mittelwerte auf ...
Stundenbasis Tagesbasis Wochenbasis
Monatsbasis Jahresbasis      Datenbasis: Original-Daten
Darstellen als:
Statistik (Auto) Statistik J:M      Darstellung:
Zur Graphik,    zurück zur Übersicht aller Sensoren.
 
Tabellarische Datenbersicht: ?
 
Sensor: Nr:Datum:Temp:Abs-Feuchte:Windchill:Wind:
Aussen-T/F 1 02-11-2013 00:00:00 8.2 C 8.12 g/m*3 8.2 C 0 km/h
2 02-11-2013 00:05:00 8.2 C 8.12 g/m*3 8.2 C 0 km/h
3 02-11-2013 00:10:00 8.2 C 8.12 g/m*3 8.2 C 0 km/h
4 02-11-2013 00:15:00 8.2 C 8.12 g/m*3 8.2 C 0 km/h
5 02-11-2013 00:20:00 8.2 C 8.12 g/m*3 8.2 C 0 km/h
6 02-11-2013 00:25:00 8.3 C 8.18 g/m*3 8.3 C 0 km/h
7 02-11-2013 00:30:00 8.3 C 8.18 g/m*3 8.3 C 0 km/h
8 02-11-2013 00:35:00 8.3 C 8.18 g/m*3 8.3 C 0 km/h
9 02-11-2013 00:40:00 8.4 C 8.23 g/m*3 8.4 C 0 km/h
10 02-11-2013 00:45:00 8.4 C 8.23 g/m*3 8.4 C 0 km/h
11 02-11-2013 00:50:00 8.4 C 8.23 g/m*3 8.4 C 0 km/h
12 02-11-2013 00:55:00 8.4 C 8.23 g/m*3 8.4 C 0 km/h
13 02-11-2013 01:00:00 8.5 C 8.28 g/m*3 8.5 C 0 km/h
14 02-11-2013 01:05:00 8.5 C 8.28 g/m*3 8.5 C 0 km/h
15 02-11-2013 01:10:00 8.5 C 8.28 g/m*3 8.5 C 0 km/h
16 02-11-2013 01:15:00 8.5 C 8.28 g/m*3 8.5 C 0 km/h
17 02-11-2013 01:20:00 8.6 C 8.34 g/m*3 8.6 C 0 km/h
18 02-11-2013 01:25:00 8.6 C 8.34 g/m*3 8.6 C 0 km/h
19 02-11-2013 01:30:00 8.6 C 8.34 g/m*3 8.6 C 0 km/h
20 02-11-2013 01:35:00 8.6 C 8.34 g/m*3 8.6 C 0 km/h
21 02-11-2013 01:40:00 8.6 C 8.42 g/m*3 8.6 C 0 km/h
22 02-11-2013 01:45:00 8.6 C 8.42 g/m*3 8.6 C 0 km/h
23 02-11-2013 01:50:00 8.6 C 8.34 g/m*3 8.6 C 0 km/h
24 02-11-2013 01:55:00 8.6 C 8.42 g/m*3 8.6 C 0 km/h
25 02-11-2013 02:00:00 8.7 C 8.48 g/m*3 8.7 C 0 km/h
Sensor: Nr:Datum:Temp:Abs-Feuchte:Windchill:Wind:
Aussen-T/F 26 02-11-2013 02:05:00 8.7 C 8.48 g/m*3 8.7 C 0 km/h
27 02-11-2013 02:10:00 8.7 C 8.48 g/m*3 8.7 C 0 km/h
28 02-11-2013 02:15:00 8.7 C 8.39 g/m*3 8.7 C 0 km/h
29 02-11-2013 02:20:00 8.7 C 8.39 g/m*3 8.7 C 0 km/h
30 02-11-2013 02:25:00 8.7 C 8.39 g/m*3 8.7 C 0 km/h
31 02-11-2013 02:30:00 8.7 C 8.39 g/m*3 8.7 C 0 km/h
32 02-11-2013 02:35:00 8.7 C 8.39 g/m*3 8.7 C 0 km/h
33 02-11-2013 02:40:00 8.7 C 8.39 g/m*3 8.7 C 0 km/h
34 02-11-2013 02:45:00 8.7 C 8.39 g/m*3 8.7 C 0 km/h
35 02-11-2013 02:50:00 8.7 C 8.39 g/m*3 8.7 C 0 km/h
36 02-11-2013 02:55:00 8.7 C 8.39 g/m*3 8.7 C 0 km/h
37 02-11-2013 03:00:00 8.7 C 8.39 g/m*3 8.7 C 1.6 km/h
38 02-11-2013 03:05:00 8.8 C 8.53 g/m*3 8.8 C 3.2 km/h
39 02-11-2013 03:10:00 8.9 C 8.58 g/m*3 8.9 C 0 km/h
40 02-11-2013 03:15:00 9 C 8.64 g/m*3 9 C 0 km/h
41 02-11-2013 03:20:00 9.2 C 8.75 g/m*3 9.2 C 0 km/h
42 02-11-2013 03:25:00 9.2 C 8.75 g/m*3 9.2 C 0 km/h
43 02-11-2013 03:30:00 9.3 C 8.81 g/m*3 9.3 C 0 km/h
44 02-11-2013 03:35:00 9.3 C 8.81 g/m*3 9.3 C 0 km/h
45 02-11-2013 03:40:00 9.3 C 8.81 g/m*3 9.3 C 0 km/h
46 02-11-2013 03:45:00 9.3 C 8.81 g/m*3 9.3 C 1.6 km/h
47 02-11-2013 03:50:00 9.3 C 8.81 g/m*3 9.3 C 0 km/h
48 02-11-2013 03:55:00 9.4 C 8.86 g/m*3 9.4 C 0 km/h
49 02-11-2013 04:00:00 9.4 C 8.86 g/m*3 9.4 C 0 km/h
50 02-11-2013 04:05:00 9.4 C 8.86 g/m*3 9.4 C 0 km/h
Sensor: Nr:Datum:Temp:Abs-Feuchte:Windchill:Wind:
Aussen-T/F 51 02-11-2013 04:10:00 9.4 C 8.86 g/m*3 9.4 C 1.6 km/h
52 02-11-2013 04:15:00 9.4 C 8.86 g/m*3 9.4 C 0 km/h
53 02-11-2013 04:20:00 9.4 C 8.86 g/m*3 9.4 C 3.2 km/h
54 02-11-2013 04:25:00 9.4 C 8.86 g/m*3 9.4 C 0 km/h
55 02-11-2013 04:30:00 9.4 C 8.86 g/m*3 9.4 C 0 km/h
56 02-11-2013 04:35:00 9.4 C 8.86 g/m*3 9.4 C 3.2 km/h
57 02-11-2013 04:40:00 9.4 C 8.86 g/m*3 9.4 C 1.6 km/h
58 02-11-2013 04:45:00 9.4 C 8.86 g/m*3 9.4 C 0 km/h
59 02-11-2013 04:50:00 9.4 C 8.86 g/m*3 9.4 C 0 km/h
60 02-11-2013 04:55:00 9.4 C 8.86 g/m*3 9.4 C 0 km/h
61 02-11-2013 06:25:00 10 C 9.4 g/m*3 10 C 4.8 km/h
62 02-11-2013 06:30:00 10.1 C 9.27 g/m*3 10.1 C 0 km/h
63 02-11-2013 06:35:00 10.1 C 9.27 g/m*3 10.1 C 0 km/h
64 02-11-2013 06:40:00 10.1 C 9.27 g/m*3 10.1 C 0 km/h
65 02-11-2013 06:45:00 10 C 9.21 g/m*3 10 C 0 km/h
66 02-11-2013 06:50:00 10.1 C 9.27 g/m*3 10.1 C 3.2 km/h
67 02-11-2013 06:55:00 10.2 C 9.33 g/m*3 10.2 C 1.6 km/h
68 02-11-2013 07:00:00 10.2 C 9.33 g/m*3 10.2 C 1.6 km/h
69 02-11-2013 07:05:00 10.3 C 9.39 g/m*3 10.3 C 3.2 km/h
70 02-11-2013 07:10:00 10.4 C 9.44 g/m*3 10.4 C 0 km/h
71 02-11-2013 07:15:00 10.4 C 9.44 g/m*3 10.4 C 1.6 km/h
72 02-11-2013 07:20:00 10.5 C 9.5 g/m*3 9.95 C 6.4 km/h
73 02-11-2013 07:25:00 10.7 C 9.63 g/m*3 10.7 C 0 km/h
74 02-11-2013 07:30:00 10.7 C 9.63 g/m*3 10.7 C 3.2 km/h
75 02-11-2013 07:35:00 10.8 C 9.69 g/m*3 10.8 C 1.6 km/h
Sensor: Nr:Datum:Temp:Abs-Feuchte:Windchill:Wind:
Aussen-T/F 76 02-11-2013 07:40:00 10.8 C 9.69 g/m*3 10.8 C 4.8 km/h
77 02-11-2013 07:45:00 10.9 C 9.75 g/m*3 10.9 C 3.2 km/h
78 02-11-2013 07:50:00 11 C 9.81 g/m*3 11 C 1.6 km/h
79 02-11-2013 07:55:00 11.1 C 9.87 g/m*3 11.1 C 4.8 km/h
80 02-11-2013 08:00:00 11.1 C 9.87 g/m*3 11.1 C 4.8 km/h
81 02-11-2013 08:05:00 11.2 C 9.93 g/m*3 11.2 C 3.2 km/h
82 02-11-2013 08:10:00 11.3 C 10 g/m*3 11.3 C 6.4 km/h
83 02-11-2013 08:15:00 11.3 C 10 g/m*3 11.3 C 4.8 km/h
84 02-11-2013 08:20:00 11.4 C 10.06 g/m*3 11.4 C 1.6 km/h
85 02-11-2013 08:25:00 11.4 C 10.06 g/m*3 11.4 C 6.4 km/h
86 02-11-2013 08:30:00 11.5 C 10.12 g/m*3 11.5 C 1.6 km/h
87 02-11-2013 08:35:00 11.5 C 10.12 g/m*3 11.5 C 4.8 km/h
88 02-11-2013 08:40:00 11.6 C 10.19 g/m*3 11.6 C 3.2 km/h
89 02-11-2013 08:45:00 11.7 C 10.25 g/m*3 11.7 C 8.1 km/h
90 02-11-2013 08:50:00 11.9 C 10.38 g/m*3 11.9 C 6.4 km/h
91 02-11-2013 08:55:00 12 C 10.44 g/m*3 12 C 8.1 km/h
92 02-11-2013 09:00:00 12.1 C 10.51 g/m*3 12.1 C 8.1 km/h
93 02-11-2013 09:05:00 12.2 C 10.47 g/m*3 12.2 C 4.8 km/h
94 02-11-2013 09:10:00 12.3 C 10.53 g/m*3 12.3 C 4.8 km/h
95 02-11-2013 09:15:00 12.4 C 10.6 g/m*3 12.4 C 4.8 km/h
96 02-11-2013 09:20:00 12.4 C 10.6 g/m*3 12.4 C 8.1 km/h
97 02-11-2013 09:25:00 12.5 C 10.55 g/m*3 12.5 C 3.2 km/h
98 02-11-2013 09:30:00 12.6 C 10.62 g/m*3 12.6 C 3.2 km/h
99 02-11-2013 09:35:00 12.8 C 10.75 g/m*3 12.8 C 3.2 km/h
100 02-11-2013 09:40:00 12.9 C 10.71 g/m*3 12.9 C 11.3 km/h
Sensor: Nr:Datum:Temp:Abs-Feuchte:Windchill:Wind:
Aussen-T/F 101 02-11-2013 09:45:00 13.2 C 10.91 g/m*3 13.2 C 6.4 km/h
102 02-11-2013 09:50:00 13.3 C 10.98 g/m*3 13.3 C 3.2 km/h
103 02-11-2013 09:55:00 13.3 C 10.86 g/m*3 13.3 C 1.6 km/h
104 02-11-2013 10:00:00 13.3 C 10.86 g/m*3 13.3 C 3.2 km/h
105 02-11-2013 10:05:00 13.4 C 10.93 g/m*3 13.4 C 4.8 km/h
106 02-11-2013 10:10:00 13.6 C 11.06 g/m*3 13.6 C 14.5 km/h
107 02-11-2013 10:15:00 13.7 C 11.01 g/m*3 13.7 C 4.8 km/h
108 02-11-2013 10:20:00 13.8 C 11.08 g/m*3 13.8 C 4.8 km/h
109 02-11-2013 10:25:00 13.8 C 11.08 g/m*3 13.8 C 6.4 km/h
110 02-11-2013 10:30:00 13.9 C 11.03 g/m*3 13.9 C 11.3 km/h
111 02-11-2013 10:35:00 14.1 C 11.17 g/m*3 14.1 C 8.1 km/h
112 02-11-2013 10:40:00 14.1 C 11.04 g/m*3 14.1 C 6.4 km/h
113 02-11-2013 10:45:00 14.1 C 11.17 g/m*3 14.1 C 11.3 km/h
114 02-11-2013 10:50:00 14.2 C 11.23 g/m*3 14.2 C 11.3 km/h
115 02-11-2013 10:55:00 14.1 C 11.17 g/m*3 14.1 C 14.5 km/h
116 02-11-2013 11:00:00 14.2 C 11.23 g/m*3 14.2 C 14.5 km/h
117 02-11-2013 11:05:00 14.3 C 11.3 g/m*3 14.3 C 16.1 km/h
118 02-11-2013 11:10:00 14.4 C 11.37 g/m*3 14.4 C 11.3 km/h
119 02-11-2013 11:15:00 14.7 C 11.58 g/m*3 14.7 C 12.9 km/h
120 02-11-2013 11:20:00 14.8 C 11.4 g/m*3 14.8 C 14.5 km/h
121 02-11-2013 11:25:00 14.9 C 11.47 g/m*3 14.9 C 17.7 km/h
122 02-11-2013 11:30:00 14.9 C 11.47 g/m*3 14.9 C 14.5 km/h
123 02-11-2013 11:35:00 15 C 11.54 g/m*3 15 C 19.3 km/h
124 02-11-2013 11:40:00 15.1 C 11.48 g/m*3 15.1 C 25.7 km/h
125 02-11-2013 11:45:00 15.2 C 11.55 g/m*3 15.2 C 19.3 km/h
Sensor: Nr:Datum:Temp:Abs-Feuchte:Windchill:Wind:
Aussen-T/F 126 02-11-2013 11:50:00 15.3 C 11.49 g/m*3 15.3 C 17.7 km/h
127 02-11-2013 11:55:00 15.4 C 11.56 g/m*3 15.4 C 19.3 km/h
128 02-11-2013 12:00:00 15.4 C 11.56 g/m*3 15.4 C 19.3 km/h
129 02-11-2013 12:05:00 15.5 C 11.63 g/m*3 15.5 C 14.5 km/h
130 02-11-2013 12:10:00 15.6 C 11.7 g/m*3 15.6 C 17.7 km/h
131 02-11-2013 12:15:00 15.6 C 11.7 g/m*3 15.6 C 14.5 km/h
132 02-11-2013 12:20:00 15.6 C 11.7 g/m*3 15.6 C 11.3 km/h
133 02-11-2013 12:25:00 15.6 C 11.7 g/m*3 15.6 C 9.7 km/h
134 02-11-2013 12:30:00 15.6 C 11.84 g/m*3 15.6 C 14.5 km/h
135 02-11-2013 12:35:00 15.6 C 11.7 g/m*3 15.6 C 20.9 km/h
136 02-11-2013 12:40:00 15.4 C 11.69 g/m*3 15.4 C 16.1 km/h
137 02-11-2013 12:45:00 15.3 C 11.62 g/m*3 15.3 C 12.9 km/h
138 02-11-2013 12:50:00 15.3 C 11.75 g/m*3 15.3 C 17.7 km/h
139 02-11-2013 12:55:00 15.2 C 11.68 g/m*3 15.2 C 12.9 km/h
140 02-11-2013 13:00:00 15.3 C 11.88 g/m*3 15.3 C 14.5 km/h
141 02-11-2013 13:05:00 15.4 C 11.82 g/m*3 15.4 C 16.1 km/h
142 02-11-2013 13:10:00 15.6 C 11.84 g/m*3 15.6 C 14.5 km/h
143 02-11-2013 13:15:00 15.7 C 11.91 g/m*3 15.7 C 16.1 km/h
144 02-11-2013 13:20:00 15.7 C 11.77 g/m*3 15.7 C 16.1 km/h
145 02-11-2013 13:25:00 15.8 C 11.85 g/m*3 15.8 C 25.7 km/h
146 02-11-2013 13:30:00 15.8 C 11.85 g/m*3 15.8 C 17.7 km/h
147 02-11-2013 13:35:00 15.8 C 11.85 g/m*3 15.8 C 14.5 km/h
148 02-11-2013 13:40:00 15.9 C 11.92 g/m*3 15.9 C 22.5 km/h
149 02-11-2013 13:45:00 15.9 C 11.92 g/m*3 15.9 C 12.9 km/h
150 02-11-2013 13:50:00 16 C 11.99 g/m*3 16 C 14.5 km/h
Sensor: Nr:Datum:Temp:Abs-Feuchte:Windchill:Wind:
Aussen-T/F 151 02-11-2013 13:55:00 16.1 C 11.93 g/m*3 16.1 C 19.3 km/h
152 02-11-2013 14:00:00 16.1 C 11.93 g/m*3 16.1 C 19.3 km/h
153 02-11-2013 14:05:00 16.1 C 11.93 g/m*3 16.1 C 20.9 km/h
154 02-11-2013 14:10:00 16.1 C 11.93 g/m*3 16.1 C 16.1 km/h
155 02-11-2013 14:15:00 16.1 C 11.93 g/m*3 16.1 C 22.5 km/h
156 02-11-2013 14:20:00 16.1 C 11.93 g/m*3 16.1 C 20.9 km/h
157 02-11-2013 14:25:00 16.1 C 12.06 g/m*3 16.1 C 25.7 km/h
158 02-11-2013 14:30:00 16 C 11.99 g/m*3 16 C 19.3 km/h
159 02-11-2013 14:35:00 16 C 11.99 g/m*3 16 C 19.3 km/h
160 02-11-2013 14:40:00 16.1 C 11.93 g/m*3 16.1 C 24.1 km/h
161 02-11-2013 14:45:00 16.1 C 11.93 g/m*3 16.1 C 20.9 km/h
162 02-11-2013 14:50:00 16.2 C 12 g/m*3 16.2 C 22.5 km/h
163 02-11-2013 14:55:00 16.2 C 12 g/m*3 16.2 C 16.1 km/h
164 02-11-2013 15:00:00 16.3 C 11.93 g/m*3 16.3 C 14.5 km/h
165 02-11-2013 15:05:00 16.3 C 11.93 g/m*3 16.3 C 14.5 km/h
166 02-11-2013 15:10:00 16.3 C 11.79 g/m*3 16.3 C 14.5 km/h
167 02-11-2013 15:15:00 16.3 C 11.79 g/m*3 16.3 C 12.9 km/h
168 02-11-2013 15:20:00 16.3 C 11.79 g/m*3 16.3 C 12.9 km/h
169 02-11-2013 15:25:00 16.3 C 11.79 g/m*3 16.3 C 17.7 km/h
170 02-11-2013 15:30:00 16.3 C 11.79 g/m*3 16.3 C 14.5 km/h
171 02-11-2013 15:35:00 16.3 C 11.79 g/m*3 16.3 C 17.7 km/h
172 02-11-2013 15:40:00 16.3 C 11.93 g/m*3 16.3 C 19.3 km/h
173 02-11-2013 15:45:00 16.2 C 11.72 g/m*3 16.2 C 19.3 km/h
174 02-11-2013 15:50:00 16.3 C 11.79 g/m*3 16.3 C 20.9 km/h
175 02-11-2013 15:55:00 16.3 C 11.79 g/m*3 16.3 C 16.1 km/h
Sensor: Nr:Datum:Temp:Abs-Feuchte:Windchill:Wind:
Aussen-T/F 176 02-11-2013 16:00:00 16.3 C 11.65 g/m*3 16.3 C 12.9 km/h
177 02-11-2013 16:05:00 16.3 C 11.65 g/m*3 16.3 C 14.5 km/h
178 02-11-2013 16:10:00 16.2 C 11.45 g/m*3 16.2 C 29 km/h
179 02-11-2013 16:15:00 16.2 C 11.31 g/m*3 16.2 C 29 km/h
180 02-11-2013 16:20:00 16.2 C 11.31 g/m*3 16.2 C 12.9 km/h
181 02-11-2013 16:25:00 16.1 C 11.24 g/m*3 16.1 C 14.5 km/h
182 02-11-2013 16:30:00 16.1 C 11.1 g/m*3 16.1 C 17.7 km/h
183 02-11-2013 16:35:00 16 C 11.04 g/m*3 16 C 17.7 km/h
184 02-11-2013 16:40:00 15.9 C 10.83 g/m*3 15.9 C 16.1 km/h
185 02-11-2013 16:45:00 15.8 C 10.77 g/m*3 15.8 C 11.3 km/h
186 02-11-2013 16:50:00 15.7 C 10.7 g/m*3 15.7 C 11.3 km/h
187 02-11-2013 16:55:00 15.7 C 10.7 g/m*3 15.7 C 12.9 km/h
188 02-11-2013 17:00:00 15.6 C 10.77 g/m*3 15.6 C 8.1 km/h
189 02-11-2013 17:05:00 15.4 C 10.64 g/m*3 15.4 C 12.9 km/h
190 02-11-2013 17:10:00 15.4 C 10.64 g/m*3 15.4 C 11.3 km/h
191 02-11-2013 17:15:00 15.3 C 10.58 g/m*3 15.3 C 6.4 km/h
192 02-11-2013 17:20:00 15.3 C 10.58 g/m*3 15.3 C 12.9 km/h
193 02-11-2013 17:25:00 15.3 C 10.58 g/m*3 15.3 C 16.1 km/h
194 02-11-2013 17:30:00 15.3 C 10.58 g/m*3 15.3 C 11.3 km/h
195 02-11-2013 17:35:00 15.2 C 10.51 g/m*3 15.2 C 14.5 km/h
196 02-11-2013 17:40:00 15.1 C 10.45 g/m*3 15.1 C 8.1 km/h
197 02-11-2013 17:45:00 15.1 C 10.58 g/m*3 15.1 C 6.4 km/h
198 02-11-2013 17:50:00 15 C 10.39 g/m*3 15 C 14.5 km/h
199 02-11-2013 17:55:00 14.9 C 10.2 g/m*3 14.9 C 16.1 km/h
200 02-11-2013 18:00:00 14.9 C 10.32 g/m*3 14.9 C 12.9 km/h
Sensor: Nr:Datum:Temp:Abs-Feuchte:Windchill:Wind:
Aussen-T/F 201 02-11-2013 18:05:00 14.8 C 10.26 g/m*3 14.8 C 8.1 km/h
202 02-11-2013 18:10:00 14.8 C 10.13 g/m*3 14.8 C 12.9 km/h
203 02-11-2013 18:15:00 14.7 C 10.2 g/m*3 14.7 C 4.8 km/h
204 02-11-2013 18:20:00 14.6 C 10.14 g/m*3 14.6 C 11.3 km/h
205 02-11-2013 18:25:00 14.5 C 10.07 g/m*3 14.5 C 9.7 km/h
206 02-11-2013 18:30:00 14.4 C 9.89 g/m*3 14.4 C 12.9 km/h
207 02-11-2013 18:35:00 14.3 C 9.95 g/m*3 14.3 C 9.7 km/h
208 02-11-2013 18:40:00 14.2 C 9.89 g/m*3 14.2 C 8.1 km/h
209 02-11-2013 18:45:00 13.9 C 9.83 g/m*3 13.9 C 3.2 km/h
210 02-11-2013 18:50:00 13.8 C 9.89 g/m*3 13.8 C 6.4 km/h
211 02-11-2013 18:55:00 13.7 C 9.83 g/m*3 13.7 C 3.2 km/h
212 02-11-2013 19:00:00 13.6 C 9.89 g/m*3 13.6 C 4.8 km/h
213 02-11-2013 19:05:00 13.6 C 9.89 g/m*3 13.6 C 3.2 km/h
214 02-11-2013 19:10:00 13.4 C 9.88 g/m*3 13.4 C 3.2 km/h
215 02-11-2013 19:15:00 13.4 C 9.88 g/m*3 13.4 C 11.3 km/h
216 02-11-2013 19:20:00 13.5 C 9.83 g/m*3 13.5 C 11.3 km/h
217 02-11-2013 19:25:00 13.5 C 9.83 g/m*3 13.5 C 8.1 km/h
218 02-11-2013 19:30:00 13.4 C 9.88 g/m*3 13.4 C 3.2 km/h
219 02-11-2013 19:35:00 13.3 C 9.94 g/m*3 13.3 C 1.6 km/h
220 02-11-2013 19:40:00 13 C 9.87 g/m*3 13 C 0 km/h
221 02-11-2013 19:45:00 12.8 C 9.86 g/m*3 12.8 C 1.6 km/h
222 02-11-2013 19:50:00 12.6 C 9.74 g/m*3 12.6 C 3.2 km/h
223 02-11-2013 19:55:00 12.6 C 9.85 g/m*3 12.6 C 1.6 km/h
224 02-11-2013 20:00:00 12.6 C 9.85 g/m*3 12.6 C 1.6 km/h
225 02-11-2013 20:05:00 12.6 C 9.85 g/m*3 12.6 C 1.6 km/h
Sensor: Nr:Datum:Temp:Abs-Feuchte:Windchill:Wind:
Aussen-T/F 226 02-11-2013 20:10:00 12.4 C 9.83 g/m*3 12.4 C 0 km/h
227 02-11-2013 20:15:00 12.4 C 9.83 g/m*3 12.4 C 0 km/h
228 02-11-2013 20:20:00 12.3 C 9.77 g/m*3 12.3 C 0 km/h
229 02-11-2013 20:25:00 12.4 C 9.94 g/m*3 12.4 C 0 km/h
230 02-11-2013 20:30:00 12.4 C 9.94 g/m*3 12.4 C 0 km/h
231 02-11-2013 20:35:00 12.4 C 9.94 g/m*3 12.4 C 4.8 km/h
232 02-11-2013 20:40:00 12.8 C 9.97 g/m*3 12.8 C 8.1 km/h
233 02-11-2013 20:45:00 13.1 C 10.04 g/m*3 13.1 C 6.4 km/h
234 02-11-2013 20:50:00 13.3 C 9.94 g/m*3 13.3 C 6.4 km/h
235 02-11-2013 20:55:00 13.7 C 10.07 g/m*3 13.7 C 16.1 km/h
236 02-11-2013 21:00:00 13.9 C 9.95 g/m*3 13.9 C 11.3 km/h
237 02-11-2013 21:05:00 14.1 C 9.95 g/m*3 14.1 C 9.7 km/h
238 02-11-2013 21:10:00 14.2 C 10.01 g/m*3 14.2 C 9.7 km/h
239 02-11-2013 21:15:00 14.2 C 9.89 g/m*3 14.2 C 11.3 km/h
240 02-11-2013 21:20:00 14.2 C 9.89 g/m*3 14.2 C 19.3 km/h
241 02-11-2013 21:25:00 14.1 C 9.83 g/m*3 14.1 C 12.9 km/h
242 02-11-2013 21:30:00 14.1 C 9.83 g/m*3 14.1 C 4.8 km/h
243 02-11-2013 21:35:00 13.9 C 9.83 g/m*3 13.9 C 4.8 km/h
244 02-11-2013 21:40:00 13.8 C 9.77 g/m*3 13.8 C 8.1 km/h
245 02-11-2013 21:45:00 13.8 C 9.89 g/m*3 13.8 C 1.6 km/h
246 02-11-2013 21:50:00 13.6 C 9.77 g/m*3 13.6 C 4.8 km/h
247 02-11-2013 21:55:00 13.6 C 9.77 g/m*3 13.6 C 3.2 km/h
248 02-11-2013 22:00:00 13.5 C 9.71 g/m*3 13.5 C 11.3 km/h
249 02-11-2013 22:05:00 13.4 C 9.88 g/m*3 13.4 C 1.6 km/h
250 02-11-2013 22:10:00 13.4 C 9.88 g/m*3 13.4 C 1.6 km/h
Sensor: Nr:Datum:Temp:Abs-Feuchte:Windchill:Wind:
Aussen-T/F 251 02-11-2013 22:15:00 13.3 C 9.82 g/m*3 13.3 C 0 km/h
252 02-11-2013 22:20:00 13.3 C 9.82 g/m*3 13.3 C 6.4 km/h
253 02-11-2013 22:25:00 13.4 C 9.88 g/m*3 13.4 C 1.6 km/h
254 02-11-2013 22:30:00 13.3 C 9.94 g/m*3 13.3 C 3.2 km/h
255 02-11-2013 22:35:00 13.3 C 9.82 g/m*3 13.3 C 3.2 km/h
256 02-11-2013 22:40:00 13.3 C 9.82 g/m*3 13.3 C 4.8 km/h
257 02-11-2013 22:45:00 13.3 C 9.94 g/m*3 13.3 C 3.2 km/h
258 02-11-2013 22:50:00 13.2 C 9.87 g/m*3 13.2 C 1.6 km/h
259 02-11-2013 22:55:00 13.3 C 9.82 g/m*3 13.3 C 3.2 km/h
260 02-11-2013 23:00:00 13.4 C 9.76 g/m*3 13.4 C 4.8 km/h
261 02-11-2013 23:05:00 13.4 C 9.88 g/m*3 13.4 C 1.6 km/h
262 02-11-2013 23:10:00 13.3 C 9.94 g/m*3 13.3 C 0 km/h
263 02-11-2013 23:15:00 13.3 C 9.94 g/m*3 13.3 C 3.2 km/h
264 02-11-2013 23:20:00 13.2 C 9.99 g/m*3 13.2 C 0 km/h
265 02-11-2013 23:25:00 13 C 9.87 g/m*3 13 C 4.8 km/h
266 02-11-2013 23:30:00 13 C 9.87 g/m*3 13 C 3.2 km/h
267 02-11-2013 23:35:00 12.9 C 9.92 g/m*3 12.9 C 1.6 km/h
268 02-11-2013 23:40:00 12.9 C 10.03 g/m*3 12.9 C 0 km/h
269 02-11-2013 23:45:00 12.8 C 9.97 g/m*3 12.8 C 0 km/h
270 02-11-2013 23:50:00 12.8 C 10.08 g/m*3 12.8 C 0 km/h
271 02-11-2013 23:55:00 12.7 C 10.02 g/m*3 12.7 C 1.6 km/h
272 03-11-2013 00:00:00 12.7 C 9.91 g/m*3 12.7 C 0 km/h
273 03-11-2013 00:05:00 12.7 C 9.91 g/m*3 12.7 C 3.2 km/h
274 03-11-2013 00:10:00 12.7 C 9.91 g/m*3 12.7 C 3.2 km/h
275 03-11-2013 00:15:00 12.7 C 9.91 g/m*3 12.7 C 0 km/h
Sensor: Nr:Datum:Temp:Abs-Feuchte:Windchill:Wind:
Aussen-T/F 276 03-11-2013 00:20:00 12.7 C 9.91 g/m*3 12.7 C 1.6 km/h
277 03-11-2013 00:25:00 12.6 C 9.85 g/m*3 12.6 C 3.2 km/h
278 03-11-2013 00:30:00 12.6 C 9.96 g/m*3 12.6 C 0 km/h
279 03-11-2013 00:35:00 12.6 C 9.85 g/m*3 12.6 C 3.2 km/h
280 03-11-2013 00:40:00 12.6 C 9.85 g/m*3 12.6 C 0 km/h
281 03-11-2013 00:45:00 12.7 C 9.91 g/m*3 12.7 C 0 km/h
282 03-11-2013 00:50:00 12.7 C 9.91 g/m*3 12.7 C 1.6 km/h
283 03-11-2013 00:55:00 12.7 C 9.8 g/m*3 12.7 C 1.6 km/h
284 03-11-2013 01:00:00 12.8 C 9.74 g/m*3 12.8 C 3.2 km/h
285 03-11-2013 01:05:00 12.9 C 9.92 g/m*3 12.9 C 3.2 km/h
286 03-11-2013 01:10:00 13 C 9.64 g/m*3 13 C 1.6 km/h
287 03-11-2013 01:15:00 13.2 C 9.87 g/m*3 13.2 C 3.2 km/h
288 03-11-2013 01:20:00 13.2 C 9.87 g/m*3 13.2 C 0 km/h
289 03-11-2013 01:25:00 13.2 C 9.87 g/m*3 13.2 C 1.6 km/h
290 03-11-2013 01:30:00 13.1 C 9.93 g/m*3 13.1 C 0 km/h
291 03-11-2013 01:35:00 13.1 C 9.81 g/m*3 13.1 C 1.6 km/h
292 03-11-2013 01:40:00 13.1 C 9.93 g/m*3 13.1 C 1.6 km/h
293 03-11-2013 01:45:00 13 C 9.98 g/m*3 13 C 0 km/h
294 03-11-2013 01:50:00 12.9 C 10.03 g/m*3 12.9 C 3.2 km/h
295 03-11-2013 01:55:00 12.8 C 9.86 g/m*3 12.8 C 1.6 km/h
296 03-11-2013 02:00:00 12.8 C 9.86 g/m*3 12.8 C 1.6 km/h
297 03-11-2013 02:05:00 12.9 C 9.92 g/m*3 12.9 C 3.2 km/h
298 03-11-2013 02:10:00 13 C 9.87 g/m*3 13 C 1.6 km/h
299 03-11-2013 02:15:00 13.2 C 9.99 g/m*3 13.2 C 17.7 km/h
300 03-11-2013 02:20:00 13.5 C 10.18 g/m*3 13.5 C 17.7 km/h
Sensor: Nr:Datum:Temp:Abs-Feuchte:Windchill:Wind:
Aussen-T/F 301 03-11-2013 02:25:00 13.3 C 10.28 g/m*3 13.3 C 9.7 km/h
302 03-11-2013 02:30:00 13.1 C 10.16 g/m*3 13.1 C 12.9 km/h
303 03-11-2013 02:35:00 12.8 C 9.97 g/m*3 12.8 C 12.9 km/h
304 03-11-2013 02:40:00 12.4 C 9.51 g/m*3 12.4 C 11.3 km/h
305 03-11-2013 02:45:00 12.2 C 9.39 g/m*3 12.2 C 14.5 km/h
306 03-11-2013 02:50:00 11.8 C 9.26 g/m*3 11.8 C 6.4 km/h
307 03-11-2013 02:55:00 11.5 C 9.3 g/m*3 11.5 C 4.8 km/h
308 03-11-2013 03:00:00 11.3 C 9.08 g/m*3 11.3 C 6.4 km/h
309 03-11-2013 03:05:00 11.2 C 9.12 g/m*3 11.2 C 4.8 km/h
310 03-11-2013 03:10:00 11.1 C 9.17 g/m*3 11.1 C 8.1 km/h
311 03-11-2013 03:15:00 10.9 C 8.95 g/m*3 8.9 C 16.1 km/h
312 03-11-2013 03:20:00 10.8 C 8.9 g/m*3 10.8 C 3.2 km/h
313 03-11-2013 03:25:00 10.7 C 8.94 g/m*3 10.7 C 4.8 km/h
314 03-11-2013 03:30:00 10.6 C 8.78 g/m*3 10.6 C 4.8 km/h
315 03-11-2013 03:35:00 10.4 C 8.67 g/m*3 9.83 C 6.4 km/h
316 03-11-2013 03:40:00 10.3 C 8.62 g/m*3 10.3 C 3.2 km/h
317 03-11-2013 03:45:00 10.3 C 8.62 g/m*3 8.55 C 12.9 km/h
318 03-11-2013 03:50:00 10.2 C 8.56 g/m*3 9.6 C 6.4 km/h
319 03-11-2013 03:55:00 10.2 C 8.56 g/m*3 9.22 C 8.1 km/h
320 03-11-2013 04:00:00 10.1 C 8.51 g/m*3 10.1 C 3.2 km/h
321 03-11-2013 04:05:00 10 C 8.55 g/m*3 10 C 3.2 km/h
322 03-11-2013 04:10:00 10.1 C 8.61 g/m*3 10.1 C 3.2 km/h
323 03-11-2013 04:15:00 10.1 C 8.61 g/m*3 10.1 C 1.6 km/h
324 03-11-2013 04:20:00 10 C 8.64 g/m*3 8.68 C 9.7 km/h
325 03-11-2013 04:25:00 10 C 8.55 g/m*3 8.19 C 12.9 km/h
Sensor: Nr:Datum:Temp:Abs-Feuchte:Windchill:Wind:
Aussen-T/F 326 03-11-2013 04:30:00 10.1 C 8.51 g/m*3 9.48 C 6.4 km/h
327 03-11-2013 04:35:00 10.1 C 8.61 g/m*3 10.1 C 3.2 km/h
328 03-11-2013 04:40:00 10.1 C 8.61 g/m*3 10.1 C 1.6 km/h
329 03-11-2013 04:45:00 10 C 8.55 g/m*3 8.99 C 8.1 km/h
330 03-11-2013 04:50:00 10 C 8.46 g/m*3 10 C 3.2 km/h
331 03-11-2013 04:55:00 10 C 8.46 g/m*3 10 C 3.2 km/h
332 03-11-2013 05:00:00 9.9 C 8.5 g/m*3 9.9 C 3.2 km/h
333 03-11-2013 05:05:00 9.8 C 8.35 g/m*3 9.8 C 4.8 km/h
334 03-11-2013 05:10:00 9.8 C 8.35 g/m*3 8.75 C 8.1 km/h
335 03-11-2013 05:15:00 9.8 C 8.26 g/m*3 9.8 C 4.8 km/h
336 03-11-2013 05:20:00 9.8 C 8.26 g/m*3 9.14 C 6.4 km/h
337 03-11-2013 05:25:00 9.8 C 8.26 g/m*3 9.8 C 3.2 km/h
338 03-11-2013 05:30:00 9.8 C 8.35 g/m*3 9.8 C 4.8 km/h
339 03-11-2013 05:35:00 9.7 C 8.2 g/m*3 9.7 C 3.2 km/h
340 03-11-2013 05:40:00 9.7 C 8.2 g/m*3 9.02 C 6.4 km/h
341 03-11-2013 05:45:00 9.7 C 8.2 g/m*3 9.7 C 3.2 km/h
342 03-11-2013 05:50:00 9.8 C 8.16 g/m*3 8.18 C 11.3 km/h
343 03-11-2013 05:55:00 9.8 C 8.07 g/m*3 8.75 C 8.1 km/h
344 03-11-2013 06:00:00 9.9 C 8.12 g/m*3 8.3 C 11.3 km/h
345 03-11-2013 06:05:00 9.9 C 8.12 g/m*3 9.25 C 6.4 km/h
346 03-11-2013 06:10:00 9.9 C 8.12 g/m*3 9.9 C 3.2 km/h
347 03-11-2013 06:15:00 9.8 C 8.07 g/m*3 9.14 C 6.4 km/h
348 03-11-2013 06:20:00 9.8 C 8.07 g/m*3 8.75 C 8.1 km/h
349 03-11-2013 06:25:00 9.8 C 8.07 g/m*3 8.75 C 8.1 km/h
350 03-11-2013 06:30:00 9.8 C 8.07 g/m*3 9.14 C 6.4 km/h
Sensor: Nr:Datum:Temp:Abs-Feuchte:Windchill:Wind:
Aussen-T/F 351 03-11-2013 06:35:00 9.9 C 8.03 g/m*3 8.56 C 9.7 km/h
352 03-11-2013 06:40:00 9.9 C 8.03 g/m*3 8.56 C 9.7 km/h
353 03-11-2013 06:45:00 10 C 8.08 g/m*3 8.19 C 12.9 km/h
354 03-11-2013 06:50:00 9.9 C 8.12 g/m*3 9.25 C 6.4 km/h
355 03-11-2013 06:55:00 9.9 C 8.12 g/m*3 8.06 C 12.9 km/h
356 03-11-2013 07:00:00 10 C 8.08 g/m*3 8.42 C 11.3 km/h
357 03-11-2013 07:05:00 10 C 8.08 g/m*3 9.37 C 6.4 km/h
358 03-11-2013 07:10:00 10.1 C 8.04 g/m*3 9.48 C 6.4 km/h
359 03-11-2013 07:15:00 10.2 C 8.09 g/m*3 8.92 C 9.7 km/h
360 03-11-2013 07:20:00 10.2 C 7.99 g/m*3 7.86 C 17.7 km/h
361 03-11-2013 07:25:00 10.2 C 7.99 g/m*3 9.6 C 6.4 km/h
362 03-11-2013 07:30:00 10.2 C 8.09 g/m*3 9.22 C 8.1 km/h
363 03-11-2013 07:35:00 10.2 C 8.09 g/m*3 9.22 C 8.1 km/h
364 03-11-2013 07:40:00 10.1 C 8.13 g/m*3 10.1 C 4.8 km/h
365 03-11-2013 07:45:00 9.9 C 8.03 g/m*3 8.87 C 8.1 km/h
366 03-11-2013 07:50:00 9.9 C 8.03 g/m*3 9.9 C 1.6 km/h
367 03-11-2013 07:55:00 9.7 C 8.02 g/m*3 9.7 C 4.8 km/h
368 03-11-2013 08:00:00 9.7 C 8.02 g/m*3 9.7 C 4.8 km/h
369 03-11-2013 08:05:00 9.6 C 8.06 g/m*3 9.6 C 0 km/h
370 03-11-2013 08:10:00 9.6 C 8.06 g/m*3 9.6 C 1.6 km/h
371 03-11-2013 08:15:00 9.6 C 8.06 g/m*3 9.6 C 1.6 km/h
372 03-11-2013 08:20:00 9.7 C 7.93 g/m*3 8.33 C 9.7 km/h
373 03-11-2013 08:25:00 9.7 C 7.84 g/m*3 9.7 C 4.8 km/h
374 03-11-2013 08:30:00 9.7 C 7.74 g/m*3 9.02 C 6.4 km/h
375 03-11-2013 08:35:00 9.8 C 7.7 g/m*3 8.45 C 9.7 km/h
Sensor: Nr:Datum:Temp:Abs-Feuchte:Windchill:Wind:
Aussen-T/F 376 03-11-2013 08:40:00 9.8 C 7.7 g/m*3 8.75 C 8.1 km/h
377 03-11-2013 08:45:00 9.8 C 7.7 g/m*3 9.14 C 6.4 km/h
378 03-11-2013 08:50:00 9.8 C 7.7 g/m*3 8.45 C 9.7 km/h
379 03-11-2013 08:55:00 9.8 C 7.7 g/m*3 7.73 C 14.5 km/h
380 03-11-2013 09:00:00 9.8 C 7.7 g/m*3 7.36 C 17.7 km/h
381 03-11-2013 09:05:00 9.8 C 7.61 g/m*3 8.18 C 11.3 km/h
382 03-11-2013 09:10:00 9.8 C 7.7 g/m*3 8.45 C 9.7 km/h
383 03-11-2013 09:15:00 9.8 C 7.61 g/m*3 7.54 C 16.1 km/h
384 03-11-2013 09:20:00 9.8 C 7.61 g/m*3 8.18 C 11.3 km/h
385 03-11-2013 09:25:00 9.9 C 7.66 g/m*3 8.56 C 9.7 km/h
386 03-11-2013 09:30:00 9.8 C 7.79 g/m*3 8.75 C 8.1 km/h
387 03-11-2013 09:35:00 9.7 C 7.93 g/m*3 8.33 C 9.7 km/h
388 03-11-2013 09:40:00 9.5 C 7.92 g/m*3 9.5 C 4.8 km/h
389 03-11-2013 09:45:00 9.3 C 7.73 g/m*3 8.16 C 8.1 km/h
390 03-11-2013 09:50:00 9.2 C 7.59 g/m*3 8.05 C 8.1 km/h
391 03-11-2013 09:55:00 9.1 C 7.36 g/m*3 6.87 C 14.5 km/h
392 03-11-2013 10:00:00 9 C 7.32 g/m*3 6.97 C 12.9 km/h
393 03-11-2013 10:05:00 9.1 C 7.45 g/m*3 7.09 C 12.9 km/h
394 03-11-2013 10:10:00 9.2 C 7.41 g/m*3 7.73 C 9.7 km/h
395 03-11-2013 10:15:00 9.2 C 7.41 g/m*3 7.73 C 9.7 km/h
396 03-11-2013 10:20:00 9.3 C 7.46 g/m*3 7.85 C 9.7 km/h
397 03-11-2013 10:25:00 9.4 C 7.42 g/m*3 7.24 C 14.5 km/h
398 03-11-2013 10:30:00 9.4 C 7.42 g/m*3 7.7 C 11.3 km/h
399 03-11-2013 10:35:00 9.3 C 7.37 g/m*3 9.3 C 4.8 km/h
400 03-11-2013 10:40:00 9.3 C 7.37 g/m*3 8.16 C 8.1 km/h
Sensor: Nr:Datum:Temp:Abs-Feuchte:Windchill:Wind:
Aussen-T/F 401 03-11-2013 10:45:00 9.3 C 7.28 g/m*3 7.85 C 9.7 km/h
402 03-11-2013 10:50:00 9.4 C 7.33 g/m*3 7.24 C 14.5 km/h
403 03-11-2013 10:55:00 9.6 C 7.42 g/m*3 7.48 C 14.5 km/h
404 03-11-2013 11:00:00 9.8 C 7.61 g/m*3 7.54 C 16.1 km/h
405 03-11-2013 11:05:00 9.7 C 7.56 g/m*3 7.23 C 17.7 km/h
406 03-11-2013 11:10:00 9.3 C 7.46 g/m*3 6.73 C 17.7 km/h
407 03-11-2013 11:15:00 9 C 7.41 g/m*3 6.19 C 19.3 km/h
408 03-11-2013 11:20:00 8.8 C 7.31 g/m*3 6.3 C 16.1 km/h
409 03-11-2013 11:25:00 8.8 C 7.31 g/m*3 7.98 C 6.4 km/h
410 03-11-2013 11:30:00 8.9 C 7.27 g/m*3 7.09 C 11.3 km/h
411 03-11-2013 11:35:00 9.1 C 7.36 g/m*3 6.31 C 19.3 km/h
412 03-11-2013 11:40:00 9.3 C 7.37 g/m*3 7.33 C 12.9 km/h
413 03-11-2013 11:45:00 9.6 C 7.51 g/m*3 7.29 C 16.1 km/h
414 03-11-2013 11:50:00 9.8 C 7.61 g/m*3 7.94 C 12.9 km/h
415 03-11-2013 11:55:00 10.1 C 7.56 g/m*3 7.57 C 19.3 km/h
416 03-11-2013 12:00:00 10.2 C 7.71 g/m*3 8.03 C 16.1 km/h
417 03-11-2013 12:05:00 10.3 C 7.57 g/m*3 8.34 C 14.5 km/h
418 03-11-2013 12:10:00 10.5 C 7.47 g/m*3 8.07 C 19.3 km/h
419 03-11-2013 12:15:00 10.6 C 7.52 g/m*3 8.53 C 16.1 km/h
420 03-11-2013 12:20:00 10.7 C 7.37 g/m*3 8.48 C 17.7 km/h
421 03-11-2013 12:25:00 10.7 C 7.37 g/m*3 8.32 C 19.3 km/h
422 03-11-2013 12:30:00 10.8 C 7.41 g/m*3 8.78 C 16.1 km/h
423 03-11-2013 12:35:00 10.8 C 7.31 g/m*3 8.45 C 19.3 km/h
424 03-11-2013 12:40:00 10.8 C 7.22 g/m*3 8.61 C 17.7 km/h
425 03-11-2013 12:45:00 10.8 C 7.22 g/m*3 8.61 C 17.7 km/h
Sensor: Nr:Datum:Temp:Abs-Feuchte:Windchill:Wind:
Aussen-T/F 426 03-11-2013 12:50:00 10.6 C 7.22 g/m*3 8.2 C 19.3 km/h
427 03-11-2013 12:55:00 10.6 C 7.42 g/m*3 7.78 C 24.1 km/h
428 03-11-2013 13:00:00 10.5 C 7.37 g/m*3 8.07 C 19.3 km/h
429 03-11-2013 13:05:00 10.6 C 7.32 g/m*3 8.53 C 16.1 km/h
430 03-11-2013 13:10:00 10.5 C 7.37 g/m*3 7.92 C 20.9 km/h
431 03-11-2013 13:15:00 10.5 C 7.27 g/m*3 7.92 C 20.9 km/h
432 03-11-2013 13:20:00 10.5 C 7.37 g/m*3 8.59 C 14.5 km/h
433 03-11-2013 13:25:00 10.6 C 7.42 g/m*3 9.4 C 9.7 km/h
434 03-11-2013 13:30:00 10.7 C 7.37 g/m*3 8.65 C 16.1 km/h
435 03-11-2013 13:35:00 10.8 C 7.51 g/m*3 8.04 C 24.1 km/h
436 03-11-2013 13:40:00 10.7 C 7.27 g/m*3 8.48 C 17.7 km/h
437 03-11-2013 13:45:00 10.6 C 7.32 g/m*3 8.71 C 14.5 km/h
438 03-11-2013 13:50:00 10.5 C 7.27 g/m*3 8.23 C 17.7 km/h
439 03-11-2013 13:55:00 10.4 C 7.13 g/m*3 8.28 C 16.1 km/h
440 03-11-2013 14:00:00 10.4 C 7.23 g/m*3 8.9 C 11.3 km/h
441 03-11-2013 14:05:00 10.4 C 7.23 g/m*3 8.47 C 14.5 km/h
442 03-11-2013 14:10:00 10.4 C 7.23 g/m*3 8.28 C 16.1 km/h
443 03-11-2013 14:15:00 10.4 C 7.23 g/m*3 8.9 C 11.3 km/h
444 03-11-2013 14:20:00 10.4 C 7.23 g/m*3 8.47 C 14.5 km/h
445 03-11-2013 14:25:00 10.4 C 7.23 g/m*3 8.67 C 12.9 km/h
446 03-11-2013 14:30:00 10.4 C 7.23 g/m*3 8.28 C 16.1 km/h
447 03-11-2013 14:35:00 10.4 C 7.23 g/m*3 8.47 C 14.5 km/h
448 03-11-2013 14:40:00 10.4 C 7.32 g/m*3 8.9 C 11.3 km/h
449 03-11-2013 14:45:00 10.4 C 7.23 g/m*3 7.8 C 20.9 km/h
450 03-11-2013 14:50:00 10.4 C 7.23 g/m*3 7.95 C 19.3 km/h
Sensor: Nr:Datum:Temp:Abs-Feuchte:Windchill:Wind:
Aussen-T/F 451 03-11-2013 14:55:00 10.4 C 7.32 g/m*3 7.95 C 19.3 km/h
452 03-11-2013 15:00:00 10.4 C 7.23 g/m*3 8.47 C 14.5 km/h
453 03-11-2013 15:05:00 10.4 C 7.23 g/m*3 8.28 C 16.1 km/h
454 03-11-2013 15:10:00 10.4 C 7.32 g/m*3 8.67 C 12.9 km/h
455 03-11-2013 15:15:00 10.3 C 7.28 g/m*3 8.55 C 12.9 km/h
456 03-11-2013 15:20:00 10.3 C 7.18 g/m*3 8.78 C 11.3 km/h
457 03-11-2013 15:25:00 10.3 C 7.18 g/m*3 8.34 C 14.5 km/h
458 03-11-2013 15:30:00 10.4 C 7.13 g/m*3 8.11 C 17.7 km/h
459 03-11-2013 15:35:00 10.4 C 7.04 g/m*3 8.67 C 12.9 km/h
460 03-11-2013 15:40:00 10.4 C 7.04 g/m*3 9.16 C 9.7 km/h
461 03-11-2013 15:45:00 10.4 C 7.04 g/m*3 8.9 C 11.3 km/h
462 03-11-2013 15:50:00 10.3 C 6.99 g/m*3 8.34 C 14.5 km/h
463 03-11-2013 15:55:00 10.3 C 7.09 g/m*3 9.04 C 9.7 km/h
464 03-11-2013 16:00:00 10.3 C 7.18 g/m*3 7.82 C 19.3 km/h
465 03-11-2013 16:05:00 10.2 C 7.04 g/m*3 7.7 C 19.3 km/h
466 03-11-2013 16:10:00 10.1 C 7.09 g/m*3 8.54 C 11.3 km/h
467 03-11-2013 16:15:00 9.9 C 7 g/m*3 7.85 C 14.5 km/h
468 03-11-2013 16:20:00 9.9 C 7.1 g/m*3 7.66 C 16.1 km/h
469 03-11-2013 16:25:00 9.8 C 7.05 g/m*3 8.18 C 11.3 km/h
470 03-11-2013 16:30:00 9.8 C 7.05 g/m*3 7.94 C 12.9 km/h
471 03-11-2013 16:35:00 9.9 C 7.1 g/m*3 8.56 C 9.7 km/h
472 03-11-2013 16:40:00 9.8 C 7.05 g/m*3 8.18 C 11.3 km/h
473 03-11-2013 16:45:00 9.9 C 7.1 g/m*3 7.48 C 17.7 km/h
474 03-11-2013 16:50:00 9.9 C 7.1 g/m*3 7.66 C 16.1 km/h
475 03-11-2013 16:55:00 9.9 C 7.1 g/m*3 8.3 C 11.3 km/h
Sensor: Nr:Datum:Temp:Abs-Feuchte:Windchill:Wind:
Aussen-T/F 476 03-11-2013 17:00:00 9.9 C 7.1 g/m*3 8.3 C 11.3 km/h
477 03-11-2013 17:05:00 9.8 C 7.14 g/m*3 7.73 C 14.5 km/h
478 03-11-2013 17:10:00 9.8 C 7.14 g/m*3 8.18 C 11.3 km/h
479 03-11-2013 17:15:00 9.7 C 7.1 g/m*3 8.63 C 8.1 km/h
480 03-11-2013 17:20:00 9.7 C 7.1 g/m*3 7.07 C 19.3 km/h
481 03-11-2013 17:25:00 9.7 C 7.1 g/m*3 7.82 C 12.9 km/h
482 03-11-2013 17:30:00 9.7 C 7.1 g/m*3 7.23 C 17.7 km/h
483 03-11-2013 17:35:00 9.7 C 7.1 g/m*3 7.41 C 16.1 km/h
484 03-11-2013 17:40:00 9.7 C 7.01 g/m*3 7.23 C 17.7 km/h
485 03-11-2013 17:45:00 9.8 C 7.05 g/m*3 7.36 C 17.7 km/h
486 03-11-2013 17:50:00 9.7 C 7.1 g/m*3 7.61 C 14.5 km/h
487 03-11-2013 17:55:00 9.7 C 7.19 g/m*3 6.5 C 25.7 km/h
488 03-11-2013 18:00:00 9.5 C 7.37 g/m*3 5.99 C 29 km/h
489 03-11-2013 18:05:00 9.1 C 7.45 g/m*3 5.47 C 29 km/h
490 03-11-2013 18:10:00 8.7 C 7.35 g/m*3 5.07 C 27.4 km/h
491 03-11-2013 18:15:00 8.4 C 7.38 g/m*3 5.8 C 16.1 km/h
492 03-11-2013 18:20:00 8.3 C 7.33 g/m*3 5.31 C 19.3 km/h
493 03-11-2013 18:25:00 8.3 C 7.42 g/m*3 5.68 C 16.1 km/h
494 03-11-2013 18:30:00 8.3 C 7.42 g/m*3 5.68 C 16.1 km/h
495 03-11-2013 18:35:00 8.3 C 7.33 g/m*3 6.37 C 11.3 km/h
496 03-11-2013 18:40:00 8.4 C 7.47 g/m*3 5.8 C 16.1 km/h
497 03-11-2013 18:45:00 8.3 C 7.42 g/m*3 5.48 C 17.7 km/h
498 03-11-2013 18:50:00 8.3 C 7.42 g/m*3 6.37 C 11.3 km/h
499 03-11-2013 18:55:00 8.3 C 7.42 g/m*3 5.68 C 16.1 km/h
500 03-11-2013 19:00:00 8.3 C 7.42 g/m*3 6.66 C 9.7 km/h
Sensor: Nr:Datum:Temp:Abs-Feuchte:Windchill:Wind:
Aussen-T/F 501 03-11-2013 19:05:00 8.2 C 7.54 g/m*3 7.29 C 6.4 km/h
502 03-11-2013 19:10:00 8.1 C 7.57 g/m*3 8.1 C 3.2 km/h
503 03-11-2013 19:15:00 8 C 7.61 g/m*3 8 C 3.2 km/h
504 03-11-2013 19:20:00 7.9 C 7.56 g/m*3 7.9 C 4.8 km/h
505 03-11-2013 19:25:00 7.8 C 7.51 g/m*3 6.4 C 8.1 km/h
506 03-11-2013 19:30:00 7.8 C 7.51 g/m*3 7.8 C 1.6 km/h
507 03-11-2013 19:35:00 7.7 C 7.54 g/m*3 7.7 C 1.6 km/h
508 03-11-2013 19:40:00 7.7 C 7.54 g/m*3 7.7 C 1.6 km/h
509 03-11-2013 19:45:00 7.6 C 7.57 g/m*3 7.6 C 4.8 km/h
510 03-11-2013 19:50:00 7.7 C 7.54 g/m*3 4.55 C 19.3 km/h
511 03-11-2013 19:55:00 7.9 C 7.56 g/m*3 6.52 C 8.1 km/h
512 03-11-2013 20:00:00 8.1 C 7.49 g/m*3 6.42 C 9.7 km/h
513 03-11-2013 20:05:00 8.1 C 7.49 g/m*3 5.43 C 16.1 km/h
514 03-11-2013 20:10:00 8 C 7.36 g/m*3 5.52 C 14.5 km/h
515 03-11-2013 20:15:00 8 C 7.36 g/m*3 6.64 C 8.1 km/h
516 03-11-2013 20:20:00 7.9 C 7.31 g/m*3 6.52 C 8.1 km/h
517 03-11-2013 20:25:00 7.9 C 7.31 g/m*3 5.89 C 11.3 km/h
518 03-11-2013 20:30:00 7.9 C 7.31 g/m*3 5.39 C 14.5 km/h
519 03-11-2013 20:35:00 8 C 7.28 g/m*3 6.3 C 9.7 km/h
520 03-11-2013 20:40:00 8 C 7.28 g/m*3 6.01 C 11.3 km/h
521 03-11-2013 20:45:00 8.1 C 7.32 g/m*3 6.13 C 11.3 km/h
522 03-11-2013 20:50:00 7.9 C 7.23 g/m*3 6.18 C 9.7 km/h
523 03-11-2013 20:55:00 7.9 C 7.23 g/m*3 6.94 C 6.4 km/h
524 03-11-2013 21:00:00 7.9 C 7.23 g/m*3 5.89 C 11.3 km/h
525 03-11-2013 21:05:00 7.9 C 7.15 g/m*3 6.18 C 9.7 km/h
Sensor: Nr:Datum:Temp:Abs-Feuchte:Windchill:Wind:
Aussen-T/F 526 03-11-2013 21:10:00 8.1 C 7.24 g/m*3 5.87 C 12.9 km/h
527 03-11-2013 21:15:00 8.1 C 7.16 g/m*3 5.64 C 14.5 km/h
528 03-11-2013 21:20:00 8.2 C 7.12 g/m*3 5.99 C 12.9 km/h
529 03-11-2013 21:25:00 8.3 C 7.16 g/m*3 6.37 C 11.3 km/h
530 03-11-2013 21:30:00 8.4 C 7.21 g/m*3 6.24 C 12.9 km/h
531 03-11-2013 21:35:00 8.4 C 7.13 g/m*3 5.8 C 16.1 km/h
532 03-11-2013 21:40:00 8.6 C 7.22 g/m*3 6.05 C 16.1 km/h
533 03-11-2013 21:45:00 8.7 C 7.18 g/m*3 5.49 C 22.5 km/h
534 03-11-2013 21:50:00 8.8 C 7.14 g/m*3 5.93 C 19.3 km/h
535 03-11-2013 21:55:00 8.8 C 7.14 g/m*3 6.97 C 11.3 km/h
536 03-11-2013 22:00:00 8.8 C 7.14 g/m*3 5.93 C 19.3 km/h
537 03-11-2013 22:05:00 8.8 C 7.05 g/m*3 5.62 C 22.5 km/h
538 03-11-2013 22:10:00 8.9 C 7.1 g/m*3 6.23 C 17.7 km/h
539 03-11-2013 22:15:00 9 C 7.05 g/m*3 6.03 C 20.9 km/h
540 03-11-2013 22:20:00 9.1 C 7.1 g/m*3 6 C 22.5 km/h
541 03-11-2013 22:25:00 9.1 C 7.1 g/m*3 6.67 C 16.1 km/h
542 03-11-2013 22:30:00 9.1 C 7.19 g/m*3 7.09 C 12.9 km/h
543 03-11-2013 22:35:00 9.1 C 7.19 g/m*3 6.48 C 17.7 km/h
544 03-11-2013 22:40:00 9.1 C 7.1 g/m*3 7.33 C 11.3 km/h
545 03-11-2013 22:45:00 9.1 C 7.01 g/m*3 6.48 C 17.7 km/h
546 03-11-2013 22:50:00 9.1 C 7.01 g/m*3 7.33 C 11.3 km/h
547 03-11-2013 22:55:00 9 C 7.05 g/m*3 7.21 C 11.3 km/h
548 03-11-2013 23:00:00 8.8 C 6.96 g/m*3 6.3 C 16.1 km/h
549 03-11-2013 23:05:00 8.8 C 6.96 g/m*3 5.77 C 20.9 km/h
550 03-11-2013 23:10:00 8.8 C 6.96 g/m*3 7.25 C 9.7 km/h
Sensor: Nr:Datum:Temp:Abs-Feuchte:Windchill:Wind:
Aussen-T/F 551 03-11-2013 23:15:00 8.8 C 7.05 g/m*3 8.8 C 4.8 km/h
552 03-11-2013 23:20:00 8.6 C 6.96 g/m*3 7.34 C 8.1 km/h
553 03-11-2013 23:25:00 8.4 C 6.87 g/m*3 8.4 C 0 km/h
554 03-11-2013 23:30:00 8.2 C 7.03 g/m*3 8.2 C 0 km/h
555 03-11-2013 23:35:00 8 C 6.94 g/m*3 8 C 4.8 km/h
556 03-11-2013 23:40:00 7.9 C 6.98 g/m*3 7.9 C 3.2 km/h
557 03-11-2013 23:45:00 7.7 C 6.97 g/m*3 7.7 C 3.2 km/h
558 03-11-2013 23:50:00 7.6 C 7.01 g/m*3 7.6 C 1.6 km/h
559 03-11-2013 23:55:00 7.4 C 7 g/m*3 7.4 C 1.6 km/h
560 04-11-2013 00:00:00 7.2 C 6.91 g/m*3 7.2 C 3.2 km/h
561 04-11-2013 00:05:00 7.1 C 6.86 g/m*3 7.1 C 3.2 km/h
562 04-11-2013 00:10:00 7 C 6.9 g/m*3 7 C 3.2 km/h
563 04-11-2013 00:15:00 6.9 C 6.93 g/m*3 6.9 C 4.8 km/h
564 04-11-2013 00:20:00 6.9 C 7.01 g/m*3 6.9 C 1.6 km/h
565 04-11-2013 00:25:00 6.8 C 6.96 g/m*3 6.8 C 1.6 km/h
566 04-11-2013 00:30:00 6.8 C 6.96 g/m*3 6.8 C 1.6 km/h
567 04-11-2013 00:35:00 6.9 C 7.08 g/m*3 6.9 C 1.6 km/h
568 04-11-2013 00:40:00 7 C 7.13 g/m*3 7 C 0 km/h
569 04-11-2013 00:45:00 7.2 C 7.14 g/m*3 7.2 C 4.8 km/h
570 04-11-2013 00:50:00 7.4 C 7.16 g/m*3 7.4 C 1.6 km/h
571 04-11-2013 00:55:00 7.6 C 7.17 g/m*3 7.6 C 1.6 km/h
572 04-11-2013 01:00:00 7.6 C 7.17 g/m*3 7.6 C 4.8 km/h
573 04-11-2013 01:05:00 7.7 C 7.05 g/m*3 5.94 C 9.7 km/h
574 04-11-2013 01:10:00 7.9 C 7.15 g/m*3 6.94 C 6.4 km/h
575 04-11-2013 01:15:00 7.9 C 7.23 g/m*3 7.9 C 4.8 km/h
Sensor: Nr:Datum:Temp:Abs-Feuchte:Windchill:Wind:
Aussen-T/F 576 04-11-2013 01:20:00 7.9 C 7.15 g/m*3 6.52 C 8.1 km/h
577 04-11-2013 01:25:00 8.1 C 7.32 g/m*3 8.1 C 4.8 km/h
578 04-11-2013 01:30:00 8.1 C 7.24 g/m*3 8.1 C 3.2 km/h
579 04-11-2013 01:35:00 8.2 C 7.29 g/m*3 8.2 C 3.2 km/h
580 04-11-2013 01:40:00 8.2 C 7.37 g/m*3 8.2 C 3.2 km/h
581 04-11-2013 01:45:00 8.2 C 7.29 g/m*3 8.2 C 3.2 km/h
582 04-11-2013 01:50:00 8.2 C 7.37 g/m*3 8.2 C 1.6 km/h
583 04-11-2013 01:55:00 8.3 C 7.25 g/m*3 8.3 C 3.2 km/h
584 04-11-2013 02:00:00 8.3 C 7.25 g/m*3 8.3 C 1.6 km/h
585 04-11-2013 02:05:00 8.4 C 7.38 g/m*3 8.4 C 3.2 km/h
586 04-11-2013 02:10:00 8.4 C 7.3 g/m*3 6.24 C 12.9 km/h
587 04-11-2013 02:15:00 8.6 C 7.3 g/m*3 6.48 C 12.9 km/h
588 04-11-2013 02:20:00 8.7 C 7.35 g/m*3 7.87 C 6.4 km/h
589 04-11-2013 02:25:00 8.7 C 7.35 g/m*3 8.7 C 4.8 km/h
590 04-11-2013 02:30:00 8.7 C 7.35 g/m*3 8.7 C 4.8 km/h
591 04-11-2013 02:35:00 8.7 C 7.35 g/m*3 7.13 C 9.7 km/h
592 04-11-2013 02:40:00 8.7 C 7.35 g/m*3 8.7 C 1.6 km/h
593 04-11-2013 02:45:00 8.8 C 7.31 g/m*3 8.8 C 4.8 km/h
594 04-11-2013 02:50:00 8.8 C 7.49 g/m*3 8.8 C 4.8 km/h
595 04-11-2013 02:55:00 8.7 C 7.52 g/m*3 8.7 C 4.8 km/h
596 04-11-2013 03:00:00 8.6 C 7.39 g/m*3 7.01 C 9.7 km/h
597 04-11-2013 03:05:00 8.7 C 7.52 g/m*3 7.87 C 6.4 km/h
598 04-11-2013 03:10:00 8.6 C 7.56 g/m*3 7.34 C 8.1 km/h
599 04-11-2013 03:15:00 8.5 C 7.34 g/m*3 8.5 C 3.2 km/h
600 04-11-2013 03:20:00 8.6 C 7.39 g/m*3 7.75 C 6.4 km/h
Sensor: Nr:Datum:Temp:Abs-Feuchte:Windchill:Wind:
Aussen-T/F 601 04-11-2013 03:25:00 8.6 C 7.48 g/m*3 7.75 C 6.4 km/h
602 04-11-2013 03:30:00 8.6 C 7.48 g/m*3 8.6 C 4.8 km/h
603 04-11-2013 03:35:00 8.6 C 7.56 g/m*3 7.34 C 8.1 km/h
604 04-11-2013 03:40:00 8.7 C 7.52 g/m*3 7.46 C 8.1 km/h
605 04-11-2013 03:45:00 8.7 C 7.52 g/m*3 6.6 C 12.9 km/h
606 04-11-2013 03:50:00 8.8 C 7.66 g/m*3 8.8 C 4.8 km/h
607 04-11-2013 03:55:00 8.8 C 7.66 g/m*3 8.8 C 3.2 km/h
608 04-11-2013 04:00:00 8.7 C 7.7 g/m*3 8.7 C 3.2 km/h
609 04-11-2013 04:05:00 8.6 C 7.73 g/m*3 8.6 C 3.2 km/h
610 04-11-2013 04:10:00 8.5 C 7.68 g/m*3 7.64 C 6.4 km/h
611 04-11-2013 04:15:00 8.5 C 7.68 g/m*3 8.5 C 3.2 km/h
612 04-11-2013 04:20:00 8.5 C 7.68 g/m*3 6.61 C 11.3 km/h
613 04-11-2013 04:25:00 8.5 C 7.68 g/m*3 8.5 C 4.8 km/h
614 04-11-2013 04:30:00 8.5 C 7.77 g/m*3 8.5 C 3.2 km/h
615 04-11-2013 04:35:00 8.4 C 7.72 g/m*3 7.11 C 8.1 km/h
616 04-11-2013 04:40:00 8.5 C 7.68 g/m*3 6.9 C 9.7 km/h
617 04-11-2013 04:45:00 8.6 C 7.82 g/m*3 7.34 C 8.1 km/h
618 04-11-2013 04:50:00 8.6 C 7.73 g/m*3 7.01 C 9.7 km/h
619 04-11-2013 04:55:00 8.7 C 7.78 g/m*3 7.87 C 6.4 km/h
620 04-11-2013 05:00:00 8.8 C 7.83 g/m*3 6.97 C 11.3 km/h
621 04-11-2013 05:05:00 8.8 C 7.83 g/m*3 8.8 C 4.8 km/h
622 04-11-2013 05:10:00 8.9 C 7.88 g/m*3 8.9 C 3.2 km/h
623 04-11-2013 05:15:00 8.9 C 7.88 g/m*3 7.37 C 9.7 km/h
624 04-11-2013 05:20:00 9.1 C 7.99 g/m*3 7.93 C 8.1 km/h
625 04-11-2013 05:25:00 9.2 C 8.04 g/m*3 9.2 C 3.2 km/h
Sensor: Nr:Datum:Temp:Abs-Feuchte:Windchill:Wind:
Aussen-T/F 626 04-11-2013 05:30:00 9.2 C 7.95 g/m*3 7.46 C 11.3 km/h
627 04-11-2013 05:35:00 9.3 C 8.09 g/m*3 9.3 C 1.6 km/h
628 04-11-2013 05:40:00 9.3 C 8 g/m*3 7.58 C 11.3 km/h
629 04-11-2013 05:45:00 9.4 C 8.05 g/m*3 7.97 C 9.7 km/h
630 04-11-2013 05:50:00 9.5 C 8.1 g/m*3 8.09 C 9.7 km/h
631 04-11-2013 05:55:00 9.6 C 8.15 g/m*3 8.52 C 8.1 km/h
632 04-11-2013 06:00:00 9.6 C 8.06 g/m*3 9.6 C 1.6 km/h
633 04-11-2013 06:05:00 9.7 C 8.11 g/m*3 9.02 C 6.4 km/h
634 04-11-2013 06:10:00 9.7 C 8.11 g/m*3 9.7 C 4.8 km/h
635 04-11-2013 06:15:00 9.8 C 8.16 g/m*3 8.45 C 9.7 km/h
636 04-11-2013 06:20:00 9.9 C 8.22 g/m*3 8.06 C 12.9 km/h
637 04-11-2013 06:25:00 10 C 8.17 g/m*3 10 C 4.8 km/h
638 04-11-2013 06:30:00 10.1 C 8.23 g/m*3 10.1 C 4.8 km/h
639 04-11-2013 06:35:00 10.2 C 8.28 g/m*3 8.92 C 9.7 km/h
640 04-11-2013 06:40:00 10.2 C 8.28 g/m*3 9.6 C 6.4 km/h
641 04-11-2013 06:45:00 10.3 C 8.33 g/m*3 10.3 C 3.2 km/h
642 04-11-2013 06:50:00 10.3 C 8.33 g/m*3 10.3 C 4.8 km/h
643 04-11-2013 06:55:00 10.4 C 8.29 g/m*3 8.9 C 11.3 km/h
644 04-11-2013 07:00:00 10.6 C 8.39 g/m*3 9.69 C 8.1 km/h
645 04-11-2013 07:05:00 10.7 C 8.45 g/m*3 10.7 C 4.8 km/h
646 04-11-2013 07:10:00 10.7 C 8.55 g/m*3 10.7 C 3.2 km/h
647 04-11-2013 07:15:00 10.8 C 8.5 g/m*3 9.38 C 11.3 km/h
648 04-11-2013 07:20:00 10.9 C 8.55 g/m*3 9.51 C 11.3 km/h
649 04-11-2013 07:25:00 10.9 C 8.55 g/m*3 9.76 C 9.7 km/h
650 04-11-2013 07:30:00 10.9 C 8.55 g/m*3 10.9 C 4.8 km/h
Sensor: Nr:Datum:Temp:Abs-Feuchte:Windchill:Wind:
Aussen-T/F 651 04-11-2013 07:35:00 10.9 C 8.65 g/m*3 10.9 C 4.8 km/h
652 04-11-2013 07:40:00 10.8 C 8.6 g/m*3 9.64 C 9.7 km/h
653 04-11-2013 07:45:00 10.9 C 8.55 g/m*3 9.28 C 12.9 km/h
654 04-11-2013 07:50:00 11.1 C 8.56 g/m*3 11.1 C 11.3 km/h
655 04-11-2013 07:55:00 11.2 C 8.62 g/m*3 11.2 C 4.8 km/h
656 04-11-2013 08:00:00 11.3 C 8.67 g/m*3 11.3 C 6.4 km/h
657 04-11-2013 08:05:00 11.3 C 8.57 g/m*3 11.3 C 9.7 km/h
658 04-11-2013 08:10:00 11.4 C 8.62 g/m*3 11.4 C 6.4 km/h
659 04-11-2013 08:15:00 11.4 C 8.62 g/m*3 11.4 C 8.1 km/h
660 04-11-2013 08:20:00 11.4 C 8.62 g/m*3 11.4 C 11.3 km/h
661 04-11-2013 08:40:00 11.8 C 10.52 g/m*3 11.8 C 19.3 km/h
662 04-11-2013 08:45:00 11.9 C 8.68 g/m*3 11.9 C 12.9 km/h
663 04-11-2013 08:50:00 11.9 C 8.68 g/m*3 11.9 C 22.5 km/h
664 04-11-2013 08:55:00 11.9 C 8.68 g/m*3 11.9 C 14.5 km/h
665 04-11-2013 09:00:00 11.9 C 8.68 g/m*3 11.9 C 12.9 km/h
666 04-11-2013 09:05:00 11.9 C 8.68 g/m*3 11.9 C 17.7 km/h
667 04-11-2013 09:10:00 11.9 C 8.68 g/m*3 11.9 C 12.9 km/h
668 04-11-2013 09:15:00 11.9 C 8.79 g/m*3 11.9 C 11.3 km/h
669 04-11-2013 09:20:00 12 C 8.85 g/m*3 12 C 22.5 km/h
670 04-11-2013 09:25:00 12 C 8.85 g/m*3 12 C 14.5 km/h
671 04-11-2013 09:30:00 12.1 C 8.9 g/m*3 12.1 C 20.9 km/h
672 04-11-2013 09:35:00 12.1 C 8.79 g/m*3 12.1 C 8.1 km/h
673 04-11-2013 09:40:00 12.1 C 8.79 g/m*3 12.1 C 14.5 km/h
674 04-11-2013 09:45:00 12.2 C 8.85 g/m*3 12.2 C 14.5 km/h
675 04-11-2013 09:50:00 12.2 C 8.85 g/m*3 12.2 C 20.9 km/h
Sensor: Nr:Datum:Temp:Abs-Feuchte:Windchill:Wind:
Aussen-T/F 676 04-11-2013 09:55:00 12.2 C 8.85 g/m*3 12.2 C 22.5 km/h
677 04-11-2013 10:00:00 12.3 C 8.9 g/m*3 12.3 C 8.1 km/h
678 04-11-2013 10:05:00 12.3 C 8.9 g/m*3 12.3 C 17.7 km/h
679 04-11-2013 10:10:00 12.3 C 8.9 g/m*3 12.3 C 12.9 km/h
680 04-11-2013 10:15:00 12.3 C 8.9 g/m*3 12.3 C 6.4 km/h
681 04-11-2013 10:20:00 12.3 C 8.8 g/m*3 12.3 C 12.9 km/h
682 04-11-2013 10:25:00 12.4 C 8.85 g/m*3 12.4 C 11.3 km/h
683 04-11-2013 10:30:00 12.5 C 8.91 g/m*3 12.5 C 22.5 km/h
684 04-11-2013 10:35:00 12.6 C 8.96 g/m*3 12.6 C 17.7 km/h
685 04-11-2013 10:40:00 12.7 C 9.02 g/m*3 12.7 C 14.5 km/h
686 04-11-2013 10:45:00 12.7 C 9.02 g/m*3 12.7 C 16.1 km/h
687 04-11-2013 10:50:00 12.7 C 9.13 g/m*3 12.7 C 12.9 km/h
688 04-11-2013 10:55:00 12.7 C 9.13 g/m*3 12.7 C 16.1 km/h
689 04-11-2013 11:00:00 12.7 C 9.13 g/m*3 12.7 C 14.5 km/h
690 04-11-2013 11:05:00 12.7 C 9.13 g/m*3 12.7 C 16.1 km/h
691 04-11-2013 11:10:00 12.7 C 9.24 g/m*3 12.7 C 20.9 km/h
692 04-11-2013 11:15:00 12.7 C 9.13 g/m*3 12.7 C 19.3 km/h
693 04-11-2013 11:20:00 12.7 C 9.13 g/m*3 12.7 C 24.1 km/h
694 04-11-2013 11:25:00 12.7 C 9.13 g/m*3 12.7 C 16.1 km/h
695 04-11-2013 11:30:00 12.8 C 9.07 g/m*3 12.8 C 19.3 km/h
696 04-11-2013 11:35:00 12.9 C 9.13 g/m*3 12.9 C 24.1 km/h
697 04-11-2013 11:40:00 12.9 C 9.02 g/m*3 12.9 C 29 km/h
698 04-11-2013 11:45:00 12.9 C 9.02 g/m*3 12.9 C 25.7 km/h
699 04-11-2013 11:50:00 12.9 C 9.13 g/m*3 12.9 C 17.7 km/h
700 04-11-2013 11:55:00 13 C 9.07 g/m*3 13 C 20.9 km/h
Sensor: Nr:Datum:Temp:Abs-Feuchte:Windchill:Wind:
Aussen-T/F 701 04-11-2013 12:00:00 13.1 C 9.13 g/m*3 13.1 C 20.9 km/h
702 04-11-2013 12:05:00 13.2 C 9.19 g/m*3 13.2 C 14.5 km/h
703 04-11-2013 12:10:00 13.2 C 9.07 g/m*3 13.2 C 17.7 km/h
704 04-11-2013 12:15:00 13.1 C 9.13 g/m*3 13.1 C 24.1 km/h
705 04-11-2013 12:20:00 13.1 C 9.13 g/m*3 13.1 C 14.5 km/h
706 04-11-2013 12:25:00 13 C 9.07 g/m*3 13 C 20.9 km/h
707 04-11-2013 12:30:00 13 C 9.07 g/m*3 13 C 22.5 km/h
708 04-11-2013 12:35:00 13.1 C 9.13 g/m*3 13.1 C 22.5 km/h
709 04-11-2013 12:40:00 13.1 C 9.13 g/m*3 13.1 C 25.7 km/h
710 04-11-2013 12:45:00 13.2 C 9.19 g/m*3 13.2 C 16.1 km/h
711 04-11-2013 12:50:00 13.2 C 9.19 g/m*3 13.2 C 17.7 km/h
712 04-11-2013 12:55:00 13.2 C 9.07 g/m*3 13.2 C 16.1 km/h
713 04-11-2013 13:00:00 13.2 C 9.19 g/m*3 13.2 C 17.7 km/h
714 04-11-2013 13:05:00 13.3 C 9.24 g/m*3 13.3 C 19.3 km/h
715 04-11-2013 13:10:00 13.3 C 9.13 g/m*3 13.3 C 17.7 km/h
716 04-11-2013 13:15:00 13.4 C 9.18 g/m*3 13.4 C 14.5 km/h
717 04-11-2013 13:20:00 13.4 C 9.18 g/m*3 13.4 C 20.9 km/h
718 04-11-2013 13:25:00 13.3 C 9.36 g/m*3 13.3 C 17.7 km/h
719 04-11-2013 13:30:00 13.3 C 9.36 g/m*3 13.3 C 16.1 km/h
720 04-11-2013 13:35:00 12.7 C 9.02 g/m*3 12.7 C 12.9 km/h
721 04-11-2013 13:40:00 12.4 C 9.62 g/m*3 12.4 C 4.8 km/h
722 04-11-2013 13:45:00 12.2 C 9.6 g/m*3 12.2 C 4.8 km/h
723 04-11-2013 13:50:00 12.1 C 9.65 g/m*3 12.1 C 3.2 km/h
724 04-11-2013 13:55:00 11.9 C 9.64 g/m*3 11.9 C 1.6 km/h
725 04-11-2013 14:00:00 11.9 C 9.64 g/m*3 11.9 C 4.8 km/h
Sensor: Nr:Datum:Temp:Abs-Feuchte:Windchill:Wind:
Aussen-T/F 726 04-11-2013 14:05:00 11.9 C 9.64 g/m*3 11.9 C 8.1 km/h
727 04-11-2013 14:10:00 12 C 9.59 g/m*3 12 C 14.5 km/h
728 04-11-2013 14:15:00 12.2 C 9.71 g/m*3 12.2 C 14.5 km/h
729 04-11-2013 14:20:00 12.3 C 9.66 g/m*3 12.3 C 11.3 km/h
730 04-11-2013 14:25:00 12.3 C 9.66 g/m*3 12.3 C 19.3 km/h
731 04-11-2013 14:30:00 12.3 C 9.66 g/m*3 12.3 C 17.7 km/h
732 04-11-2013 14:35:00 12.4 C 9.62 g/m*3 12.4 C 12.9 km/h
733 04-11-2013 14:40:00 12.4 C 9.72 g/m*3 12.4 C 8.1 km/h
734 04-11-2013 14:45:00 12.6 C 9.96 g/m*3 12.6 C 4.8 km/h
735 04-11-2013 14:50:00 12.6 C 9.96 g/m*3 12.6 C 9.7 km/h
736 04-11-2013 14:55:00 12.7 C 9.8 g/m*3 12.7 C 12.9 km/h
737 04-11-2013 15:00:00 12.7 C 9.8 g/m*3 12.7 C 9.7 km/h
738 04-11-2013 15:05:00 12.7 C 9.91 g/m*3 12.7 C 4.8 km/h
739 04-11-2013 15:10:00 12.6 C 9.62 g/m*3 12.6 C 6.4 km/h
740 04-11-2013 15:15:00 12.6 C 9.62 g/m*3 12.6 C 9.7 km/h
741 04-11-2013 15:20:00 12.6 C 9.62 g/m*3 12.6 C 6.4 km/h
742 04-11-2013 15:25:00 12.5 C 9.46 g/m*3 12.5 C 8.1 km/h
743 04-11-2013 15:30:00 12.5 C 9.57 g/m*3 12.5 C 8.1 km/h
744 04-11-2013 15:35:00 12.5 C 9.57 g/m*3 12.5 C 6.4 km/h
745 04-11-2013 15:40:00 12.5 C 9.57 g/m*3 12.5 C 11.3 km/h
746 04-11-2013 15:45:00 12.5 C 9.46 g/m*3 12.5 C 4.8 km/h
747 04-11-2013 15:50:00 12.6 C 9.4 g/m*3 12.6 C 11.3 km/h
748 04-11-2013 15:55:00 12.6 C 9.4 g/m*3 12.6 C 14.5 km/h
749 04-11-2013 16:00:00 12.6 C 9.4 g/m*3 12.6 C 8.1 km/h
750 04-11-2013 16:05:00 12.6 C 9.4 g/m*3 12.6 C 4.8 km/h
Sensor: Nr:Datum:Temp:Abs-Feuchte:Windchill:Wind:
Aussen-T/F 751 04-11-2013 16:10:00 12.6 C 9.4 g/m*3 12.6 C 8.1 km/h
752 04-11-2013 16:15:00 12.6 C 9.4 g/m*3 12.6 C 8.1 km/h
753 04-11-2013 16:20:00 12.6 C 9.51 g/m*3 12.6 C 6.4 km/h
754 04-11-2013 16:25:00 12.4 C 9.4 g/m*3 12.4 C 8.1 km/h
755 04-11-2013 16:30:00 12.3 C 9.45 g/m*3 12.3 C 8.1 km/h
756 04-11-2013 16:35:00 12.3 C 9.45 g/m*3 12.3 C 16.1 km/h
757 04-11-2013 16:40:00 12.1 C 9.54 g/m*3 12.1 C 16.1 km/h
758 04-11-2013 16:45:00 11.9 C 9.53 g/m*3 11.9 C 14.5 km/h
759 04-11-2013 16:50:00 11.8 C 9.58 g/m*3 11.8 C 4.8 km/h
760 04-11-2013 16:55:00 11.7 C 9.62 g/m*3 11.7 C 6.4 km/h
761 04-11-2013 17:00:00 11.6 C 9.56 g/m*3 11.6 C 22.5 km/h
762 04-11-2013 17:05:00 11.6 C 9.56 g/m*3 11.6 C 8.1 km/h
763 04-11-2013 17:10:00 11.5 C 9.5 g/m*3 11.5 C 9.7 km/h
764 04-11-2013 17:15:00 11.4 C 9.55 g/m*3 11.4 C 12.9 km/h
765 04-11-2013 17:20:00 11.4 C 9.44 g/m*3 11.4 C 22.5 km/h
766 04-11-2013 17:25:00 10.4 C 8.48 g/m*3 7.95 C 19.3 km/h
767 04-11-2013 17:30:00 9.7 C 8.11 g/m*3 7.41 C 16.1 km/h
768 04-11-2013 17:35:00 9.3 C 8.09 g/m*3 6.41 C 20.9 km/h
769 04-11-2013 17:40:00 9.2 C 8.13 g/m*3 6.99 C 14.5 km/h
770 04-11-2013 17:45:00 8.9 C 7.88 g/m*3 6.85 C 12.9 km/h
771 04-11-2013 17:50:00 8.8 C 7.92 g/m*3 6.72 C 12.9 km/h
772 04-11-2013 17:55:00 8.6 C 7.82 g/m*3 5.37 C 22.5 km/h
773 04-11-2013 18:00:00 8.4 C 7.72 g/m*3 7.11 C 8.1 km/h
774 04-11-2013 18:05:00 8.3 C 7.67 g/m*3 6.12 C 12.9 km/h
775 04-11-2013 18:10:00 8.3 C 7.75 g/m*3 8.3 C 4.8 km/h
Sensor: Nr:Datum:Temp:Abs-Feuchte:Windchill:Wind:
Aussen-T/F 776 04-11-2013 18:15:00 8.2 C 7.7 g/m*3 6.25 C 11.3 km/h
777 04-11-2013 18:20:00 8.2 C 7.7 g/m*3 6.87 C 8.1 km/h
778 04-11-2013 18:25:00 8.1 C 7.57 g/m*3 5.87 C 12.9 km/h
779 04-11-2013 18:30:00 8.1 C 7.57 g/m*3 6.13 C 11.3 km/h
780 04-11-2013 18:35:00 8.1 C 7.57 g/m*3 6.75 C 8.1 km/h
781 04-11-2013 18:40:00 8 C 7.52 g/m*3 6.3 C 9.7 km/h
782 04-11-2013 18:45:00 8 C 7.44 g/m*3 6.3 C 9.7 km/h
783 04-11-2013 18:50:00 7.9 C 7.39 g/m*3 5.89 C 11.3 km/h
784 04-11-2013 18:55:00 7.9 C 7.39 g/m*3 5.63 C 12.9 km/h
785 04-11-2013 19:00:00 7.9 C 7.31 g/m*3 5.63 C 12.9 km/h
786 04-11-2013 19:05:00 7.9 C 7.31 g/m*3 5.39 C 14.5 km/h
787 04-11-2013 19:10:00 7.9 C 7.31 g/m*3 5.18 C 16.1 km/h
788 04-11-2013 19:15:00 7.9 C 7.39 g/m*3 5.63 C 12.9 km/h
789 04-11-2013 19:20:00 7.8 C 7.35 g/m*3 6.83 C 6.4 km/h
790 04-11-2013 19:25:00 7.8 C 7.35 g/m*3 6.83 C 6.4 km/h
791 04-11-2013 19:30:00 7.8 C 7.35 g/m*3 7.8 C 4.8 km/h
792 04-11-2013 19:35:00 7.8 C 7.35 g/m*3 6.4 C 8.1 km/h
793 04-11-2013 19:40:00 7.7 C 7.3 g/m*3 5.38 C 12.9 km/h
794 04-11-2013 19:45:00 7.6 C 7.17 g/m*3 5.53 C 11.3 km/h
795 04-11-2013 19:50:00 7.6 C 7.17 g/m*3 6.6 C 6.4 km/h
796 04-11-2013 19:55:00 7.6 C 7.25 g/m*3 6.6 C 6.4 km/h
797 04-11-2013 20:00:00 7.6 C 7.17 g/m*3 6.16 C 8.1 km/h
798 04-11-2013 20:05:00 7.7 C 7.22 g/m*3 7.7 C 3.2 km/h
799 04-11-2013 20:10:00 7.6 C 7.17 g/m*3 7.6 C 3.2 km/h
800 04-11-2013 20:15:00 7.7 C 7.14 g/m*3 5.94 C 9.7 km/h
Sensor: Nr:Datum:Temp:Abs-Feuchte:Windchill:Wind:
Aussen-T/F 801 04-11-2013 20:20:00 7.7 C 7.05 g/m*3 5.94 C 9.7 km/h
802 04-11-2013 20:25:00 7.7 C 7.14 g/m*3 7.7 C 4.8 km/h
803 04-11-2013 20:30:00 7.7 C 7.05 g/m*3 5.65 C 11.3 km/h
804 04-11-2013 20:35:00 7.7 C 7.05 g/m*3 5.94 C 9.7 km/h
805 04-11-2013 20:40:00 7.7 C 6.97 g/m*3 5.94 C 9.7 km/h
806 04-11-2013 20:45:00 7.7 C 6.97 g/m*3 6.28 C 8.1 km/h
807 04-11-2013 20:50:00 7.7 C 6.89 g/m*3 5.65 C 11.3 km/h
808 04-11-2013 20:55:00 7.8 C 6.94 g/m*3 7.8 C 4.8 km/h
809 04-11-2013 21:00:00 7.6 C 6.93 g/m*3 5.82 C 9.7 km/h
810 04-11-2013 21:05:00 7.5 C 6.88 g/m*3 6.48 C 6.4 km/h
811 04-11-2013 21:10:00 7.4 C 6.84 g/m*3 5.93 C 8.1 km/h
812 04-11-2013 21:15:00 7.3 C 6.87 g/m*3 7.3 C 1.6 km/h
813 04-11-2013 21:20:00 7.1 C 6.86 g/m*3 7.1 C 1.6 km/h
814 04-11-2013 21:25:00 7 C 6.82 g/m*3 7 C 1.6 km/h
815 04-11-2013 21:30:00 6.8 C 6.88 g/m*3 6.8 C 1.6 km/h
816 04-11-2013 21:35:00 6.6 C 6.79 g/m*3 6.6 C 3.2 km/h
817 04-11-2013 21:40:00 6.6 C 6.87 g/m*3 6.6 C 1.6 km/h
818 04-11-2013 21:45:00 6.4 C 6.78 g/m*3 6.4 C 3.2 km/h
819 04-11-2013 21:50:00 6.4 C 6.78 g/m*3 6.4 C 3.2 km/h
820 04-11-2013 21:55:00 6.3 C 6.74 g/m*3 6.3 C 3.2 km/h
821 04-11-2013 22:00:00 6.3 C 6.74 g/m*3 6.3 C 1.6 km/h
822 04-11-2013 22:05:00 6.3 C 6.74 g/m*3 6.3 C 3.2 km/h
823 04-11-2013 22:10:00 6.2 C 6.77 g/m*3 6.2 C 3.2 km/h
824 04-11-2013 22:15:00 6.2 C 6.69 g/m*3 6.2 C 3.2 km/h
825 04-11-2013 22:20:00 6.2 C 6.69 g/m*3 6.2 C 3.2 km/h
Sensor: Nr:Datum:Temp:Abs-Feuchte:Windchill:Wind:
Aussen-T/F 826 04-11-2013 22:25:00 6.1 C 6.72 g/m*3 6.1 C 1.6 km/h
827 04-11-2013 22:30:00 6.1 C 6.65 g/m*3 6.1 C 3.2 km/h
828 04-11-2013 22:35:00 6.2 C 6.69 g/m*3 6.2 C 4.8 km/h
829 04-11-2013 22:40:00 6.1 C 6.65 g/m*3 6.1 C 3.2 km/h
830 04-11-2013 22:45:00 6.1 C 6.65 g/m*3 6.1 C 3.2 km/h
831 04-11-2013 22:50:00 6 C 6.6 g/m*3 6 C 1.6 km/h
832 04-11-2013 22:55:00 5.9 C 6.63 g/m*3 5.9 C 1.6 km/h
833 04-11-2013 23:00:00 5.9 C 6.63 g/m*3 5.9 C 3.2 km/h
834 04-11-2013 23:05:00 6.1 C 6.58 g/m*3 6.1 C 4.8 km/h
835 04-11-2013 23:10:00 6.1 C 6.58 g/m*3 6.1 C 3.2 km/h
836 04-11-2013 23:15:00 6.1 C 6.58 g/m*3 6.1 C 3.2 km/h
837 04-11-2013 23:20:00 6.2 C 6.55 g/m*3 6.2 C 4.8 km/h
838 04-11-2013 23:25:00 6.2 C 6.62 g/m*3 6.2 C 0 km/h
839 04-11-2013 23:30:00 5.9 C 6.56 g/m*3 5.9 C 1.6 km/h
840 04-11-2013 23:35:00 5.8 C 6.52 g/m*3 5.8 C 1.6 km/h
841 04-11-2013 23:40:00 5.6 C 6.43 g/m*3 5.6 C 4.8 km/h
842 04-11-2013 23:45:00 5.6 C 6.5 g/m*3 5.6 C 3.2 km/h
843 04-11-2013 23:50:00 5.5 C 6.46 g/m*3 5.5 C 4.8 km/h
844 04-11-2013 23:55:00 5.5 C 6.46 g/m*3 5.5 C 4.8 km/h
845 05-11-2013 00:00:00 5.4 C 6.42 g/m*3 5.4 C 3.2 km/h
846 05-11-2013 00:05:00 5.4 C 6.42 g/m*3 5.4 C 1.6 km/h
847 05-11-2013 00:10:00 5.3 C 6.38 g/m*3 5.3 C 1.6 km/h
848 05-11-2013 00:15:00 5.3 C 6.38 g/m*3 5.3 C 3.2 km/h
849 05-11-2013 00:20:00 5.2 C 6.4 g/m*3 5.2 C 1.6 km/h
850 05-11-2013 00:25:00 5.1 C 6.36 g/m*3 5.1 C 1.6 km/h
Sensor: Nr:Datum:Temp:Abs-Feuchte:Windchill:Wind:
Aussen-T/F 851 05-11-2013 00:30:00 5.1 C 6.36 g/m*3 5.1 C 1.6 km/h
852 05-11-2013 00:35:00 5 C 6.32 g/m*3 5 C 1.6 km/h
853 05-11-2013 00:40:00 5 C 6.32 g/m*3 5 C 3.2 km/h
854 05-11-2013 00:45:00 5 C 6.32 g/m*3 5 C 3.2 km/h
855 05-11-2013 00:50:00 5.1 C 6.36 g/m*3 5.1 C 4.8 km/h
856 05-11-2013 00:55:00 5.2 C 6.4 g/m*3 2.63 C 11.3 km/h
857 05-11-2013 01:00:00 5.4 C 6.42 g/m*3 2.87 C 11.3 km/h
858 05-11-2013 01:05:00 5.6 C 6.43 g/m*3 4.29 C 6.4 km/h
859 05-11-2013 01:10:00 5.8 C 6.45 g/m*3 5.8 C 4.8 km/h
860 05-11-2013 01:15:00 5.8 C 6.45 g/m*3 3.68 C 9.7 km/h
861 05-11-2013 01:20:00 5.8 C 6.45 g/m*3 3.68 C 9.7 km/h
862 05-11-2013 01:25:00 5.8 C 6.45 g/m*3 5.8 C 4.8 km/h
863 05-11-2013 01:30:00 5.9 C 6.42 g/m*3 4.17 C 8.1 km/h
864 05-11-2013 01:35:00 6.1 C 6.5 g/m*3 3.72 C 11.3 km/h
865 05-11-2013 01:40:00 6.3 C 6.51 g/m*3 5.1 C 6.4 km/h
866 05-11-2013 01:45:00 6.3 C 6.51 g/m*3 5.1 C 6.4 km/h
867 05-11-2013 01:50:00 6.3 C 6.51 g/m*3 4.27 C 9.7 km/h
868 05-11-2013 01:55:00 6.2 C 6.55 g/m*3 4.15 C 9.7 km/h
869 05-11-2013 02:00:00 6.1 C 6.5 g/m*3 4.4 C 8.1 km/h
870 05-11-2013 02:05:00 6.1 C 6.5 g/m*3 4.04 C 9.7 km/h
871 05-11-2013 02:10:00 6.1 C 6.5 g/m*3 4.4 C 8.1 km/h
872 05-11-2013 02:15:00 6.2 C 6.55 g/m*3 4.98 C 6.4 km/h
873 05-11-2013 02:20:00 6.2 C 6.47 g/m*3 4.52 C 8.1 km/h
874 05-11-2013 02:25:00 6.3 C 6.51 g/m*3 5.1 C 6.4 km/h
875 05-11-2013 02:30:00 6.3 C 6.51 g/m*3 4.27 C 9.7 km/h
Sensor: Nr:Datum:Temp:Abs-Feuchte:Windchill:Wind:
Aussen-T/F 876 05-11-2013 02:35:00 6.3 C 6.51 g/m*3 6.3 C 4.8 km/h
877 05-11-2013 02:40:00 6.3 C 6.44 g/m*3 4.27 C 9.7 km/h
878 05-11-2013 02:45:00 6.4 C 6.56 g/m*3 6.4 C 3.2 km/h
879 05-11-2013 02:50:00 6.4 C 6.48 g/m*3 4.39 C 9.7 km/h
880 05-11-2013 02:55:00 6.4 C 6.48 g/m*3 4.75 C 8.1 km/h
881 05-11-2013 03:00:00 6.4 C 6.48 g/m*3 5.21 C 6.4 km/h
882 05-11-2013 03:05:00 6.4 C 6.48 g/m*3 6.4 C 4.8 km/h
883 05-11-2013 03:10:00 6.4 C 6.48 g/m*3 5.21 C 6.4 km/h
884 05-11-2013 03:15:00 6.4 C 6.48 g/m*3 5.21 C 6.4 km/h
885 05-11-2013 03:20:00 6.3 C 6.51 g/m*3 5.1 C 6.4 km/h
886 05-11-2013 03:25:00 6.3 C 6.44 g/m*3 4.64 C 8.1 km/h
887 05-11-2013 03:30:00 6.3 C 6.51 g/m*3 4.27 C 9.7 km/h
888 05-11-2013 03:35:00 6.4 C 6.48 g/m*3 3.8 C 12.9 km/h
889 05-11-2013 03:40:00 6.5 C 6.52 g/m*3 5.33 C 6.4 km/h
890 05-11-2013 03:45:00 6.6 C 6.49 g/m*3 6.6 C 4.8 km/h
891 05-11-2013 03:50:00 6.6 C 6.49 g/m*3 4.63 C 9.7 km/h
892 05-11-2013 03:55:00 6.6 C 6.49 g/m*3 5.44 C 6.4 km/h
893 05-11-2013 04:00:00 6.6 C 6.49 g/m*3 6.6 C 4.8 km/h
894 05-11-2013 04:05:00 6.6 C 6.49 g/m*3 5.44 C 6.4 km/h
895 05-11-2013 04:10:00 6.6 C 6.49 g/m*3 3.79 C 14.5 km/h
896 05-11-2013 04:15:00 6.6 C 6.49 g/m*3 3.79 C 14.5 km/h
897 05-11-2013 04:20:00 6.6 C 6.49 g/m*3 4.32 C 11.3 km/h
898 05-11-2013 04:25:00 6.6 C 6.57 g/m*3 4.99 C 8.1 km/h
899 05-11-2013 04:30:00 6.5 C 6.6 g/m*3 5.33 C 6.4 km/h
900 05-11-2013 04:35:00 6.4 C 6.56 g/m*3 4.08 C 11.3 km/h
Sensor: Nr:Datum:Temp:Abs-Feuchte:Windchill:Wind:
Aussen-T/F 901 05-11-2013 04:40:00 6.3 C 6.51 g/m*3 4.64 C 8.1 km/h
902 05-11-2013 04:45:00 6.3 C 6.59 g/m*3 4.27 C 9.7 km/h
903 05-11-2013 04:50:00 6.2 C 6.55 g/m*3 4.98 C 6.4 km/h
904 05-11-2013 04:55:00 6.2 C 6.47 g/m*3 4.52 C 8.1 km/h
905 05-11-2013 05:00:00 6.3 C 6.44 g/m*3 2.98 C 17.7 km/h
906 05-11-2013 05:05:00 6.4 C 6.48 g/m*3 3.11 C 17.7 km/h
907 05-11-2013 05:10:00 6.4 C 6.41 g/m*3 4.08 C 11.3 km/h
908 05-11-2013 05:15:00 6.5 C 6.45 g/m*3 4.87 C 8.1 km/h
909 05-11-2013 05:20:00 6.4 C 6.41 g/m*3 5.21 C 6.4 km/h
910 05-11-2013 05:25:00 6.4 C 6.41 g/m*3 4.39 C 9.7 km/h
911 05-11-2013 05:30:00 6.5 C 6.45 g/m*3 3.23 C 17.7 km/h
912 05-11-2013 05:35:00 6.5 C 6.45 g/m*3 4.2 C 11.3 km/h
913 05-11-2013 05:40:00 6.5 C 6.52 g/m*3 4.87 C 8.1 km/h
914 05-11-2013 05:45:00 6.5 C 6.45 g/m*3 3.04 C 19.3 km/h
915 05-11-2013 05:50:00 6.6 C 6.42 g/m*3 4.32 C 11.3 km/h
916 05-11-2013 05:55:00 6.6 C 6.42 g/m*3 5.44 C 6.4 km/h
917 05-11-2013 06:00:00 6.6 C 6.42 g/m*3 4.63 C 9.7 km/h
918 05-11-2013 06:05:00 6.5 C 6.37 g/m*3 6.5 C 4.8 km/h
919 05-11-2013 06:10:00 6.4 C 6.41 g/m*3 5.21 C 6.4 km/h
920 05-11-2013 06:15:00 6.3 C 6.37 g/m*3 5.1 C 6.4 km/h
921 05-11-2013 06:20:00 6.3 C 6.37 g/m*3 4.64 C 8.1 km/h
922 05-11-2013 06:25:00 6.2 C 6.32 g/m*3 6.2 C 4.8 km/h
923 05-11-2013 06:30:00 6.2 C 6.32 g/m*3 4.15 C 9.7 km/h
924 05-11-2013 06:35:00 6.2 C 6.32 g/m*3 4.98 C 6.4 km/h
925 05-11-2013 06:40:00 6.2 C 6.32 g/m*3 4.98 C 6.4 km/h
Sensor: Nr:Datum:Temp:Abs-Feuchte:Windchill:Wind:
Aussen-T/F 926 05-11-2013 06:45:00 6.2 C 6.32 g/m*3 4.98 C 6.4 km/h
927 05-11-2013 06:50:00 6.2 C 6.32 g/m*3 4.52 C 8.1 km/h
928 05-11-2013 06:55:00 6.2 C 6.32 g/m*3 4.15 C 9.7 km/h
929 05-11-2013 07:00:00 6.1 C 6.28 g/m*3 4.04 C 9.7 km/h
930 05-11-2013 07:05:00 6.1 C 6.36 g/m*3 6.1 C 4.8 km/h
931 05-11-2013 07:10:00 6.1 C 6.36 g/m*3 4.86 C 6.4 km/h
932 05-11-2013 07:15:00 6.1 C 6.36 g/m*3 4.4 C 8.1 km/h
933 05-11-2013 07:20:00 6.1 C 6.28 g/m*3 4.4 C 8.1 km/h
934 05-11-2013 07:25:00 6.1 C 6.28 g/m*3 4.04 C 9.7 km/h
935 05-11-2013 07:30:00 6.1 C 6.36 g/m*3 6.1 C 3.2 km/h
936 05-11-2013 07:35:00 6 C 6.31 g/m*3 4.28 C 8.1 km/h
937 05-11-2013 07:40:00 6 C 6.31 g/m*3 6 C 4.8 km/h
938 05-11-2013 07:45:00 5.9 C 6.27 g/m*3 4.63 C 6.4 km/h
939 05-11-2013 07:50:00 5.9 C 6.27 g/m*3 3.48 C 11.3 km/h
940 05-11-2013 07:55:00 5.8 C 6.23 g/m*3 4.05 C 8.1 km/h
941 05-11-2013 08:00:00 5.7 C 6.26 g/m*3 4.4 C 6.4 km/h
942 05-11-2013 08:05:00 5.6 C 6.15 g/m*3 5.6 C 4.8 km/h
943 05-11-2013 08:10:00 5.5 C 6.11 g/m*3 4.17 C 6.4 km/h
944 05-11-2013 08:15:00 5.4 C 6.07 g/m*3 3.58 C 8.1 km/h
945 05-11-2013 08:20:00 5.3 C 6.1 g/m*3 3.08 C 9.7 km/h
946 05-11-2013 08:25:00 5.2 C 6.06 g/m*3 3.34 C 8.1 km/h
947 05-11-2013 08:30:00 5.2 C 6.13 g/m*3 3.82 C 6.4 km/h
948 05-11-2013 08:35:00 5.1 C 6.09 g/m*3 5.1 C 4.8 km/h
949 05-11-2013 08:40:00 5.1 C 6.09 g/m*3 3.23 C 8.1 km/h
950 05-11-2013 08:45:00 5.1 C 6.09 g/m*3 5.1 C 3.2 km/h
Sensor: Nr:Datum:Temp:Abs-Feuchte:Windchill:Wind:
Aussen-T/F 951 05-11-2013 08:50:00 5.1 C 6.09 g/m*3 5.1 C 4.8 km/h
952 05-11-2013 08:55:00 5.2 C 6.13 g/m*3 3.34 C 8.1 km/h
953 05-11-2013 09:00:00 5.3 C 6.17 g/m*3 2.46 C 12.9 km/h
954 05-11-2013 09:05:00 5.4 C 6.14 g/m*3 2.87 C 11.3 km/h
955 05-11-2013 09:10:00 5.6 C 6.22 g/m*3 2.83 C 12.9 km/h
956 05-11-2013 09:15:00 5.6 C 6.22 g/m*3 3.11 C 11.3 km/h
957 05-11-2013 09:20:00 5.7 C 6.19 g/m*3 5.7 C 3.2 km/h
958 05-11-2013 09:25:00 5.8 C 6.23 g/m*3 5.8 C 4.8 km/h
959 05-11-2013 09:30:00 5.8 C 6.23 g/m*3 4.05 C 8.1 km/h
960 05-11-2013 09:35:00 5.8 C 6.23 g/m*3 3.68 C 9.7 km/h
961 05-11-2013 09:40:00 5.9 C 6.27 g/m*3 3.48 C 11.3 km/h
962 05-11-2013 09:45:00 6 C 6.31 g/m*3 4.28 C 8.1 km/h
963 05-11-2013 09:50:00 6 C 6.24 g/m*3 2.82 C 16.1 km/h
964 05-11-2013 09:55:00 5.9 C 6.27 g/m*3 2.93 C 14.5 km/h
965 05-11-2013 10:00:00 5.9 C 6.2 g/m*3 3.48 C 11.3 km/h
966 05-11-2013 10:05:00 5.9 C 6.2 g/m*3 3.19 C 12.9 km/h
967 05-11-2013 10:10:00 5.8 C 6.16 g/m*3 2.81 C 14.5 km/h
968 05-11-2013 10:15:00 5.8 C 6.16 g/m*3 3.36 C 11.3 km/h
969 05-11-2013 10:20:00 5.8 C 6.16 g/m*3 3.36 C 11.3 km/h
970 05-11-2013 10:25:00 5.8 C 6.23 g/m*3 4.52 C 6.4 km/h
971 05-11-2013 10:30:00 5.8 C 6.16 g/m*3 4.05 C 8.1 km/h
972 05-11-2013 10:35:00 5.8 C 6.16 g/m*3 4.05 C 8.1 km/h
973 05-11-2013 10:40:00 5.8 C 6.09 g/m*3 3.36 C 11.3 km/h
974 05-11-2013 10:45:00 5.7 C 6.05 g/m*3 2.45 C 16.1 km/h
975 05-11-2013 10:50:00 5.7 C 6.12 g/m*3 4.4 C 6.4 km/h
Sensor: Nr:Datum:Temp:Abs-Feuchte:Windchill:Wind:
Aussen-T/F 976 05-11-2013 10:55:00 5.8 C 6.16 g/m*3 3.68 C 9.7 km/h
977 05-11-2013 11:00:00 5.8 C 6.09 g/m*3 3.07 C 12.9 km/h
978 05-11-2013 11:05:00 5.9 C 6.13 g/m*3 3.19 C 12.9 km/h
979 05-11-2013 11:10:00 6.1 C 6.21 g/m*3 4.4 C 8.1 km/h
980 05-11-2013 11:15:00 6.2 C 6.25 g/m*3 4.15 C 9.7 km/h
981 05-11-2013 11:20:00 6.3 C 6.29 g/m*3 4.27 C 9.7 km/h
982 05-11-2013 11:25:00 6.4 C 6.33 g/m*3 3.55 C 14.5 km/h
983 05-11-2013 11:30:00 6.6 C 6.34 g/m*3 4.32 C 11.3 km/h
984 05-11-2013 11:35:00 6.7 C 6.38 g/m*3 4.75 C 9.7 km/h
985 05-11-2013 11:40:00 6.7 C 6.31 g/m*3 3.92 C 14.5 km/h
986 05-11-2013 11:45:00 6.7 C 6.38 g/m*3 5.11 C 8.1 km/h
987 05-11-2013 11:50:00 6.8 C 6.35 g/m*3 4.29 C 12.9 km/h
988 05-11-2013 11:55:00 6.9 C 6.39 g/m*3 5.34 C 8.1 km/h
989 05-11-2013 12:00:00 7.1 C 6.47 g/m*3 6.02 C 6.4 km/h
990 05-11-2013 12:05:00 7.2 C 6.52 g/m*3 6.13 C 6.4 km/h
991 05-11-2013 12:10:00 7.3 C 6.56 g/m*3 6.25 C 6.4 km/h
992 05-11-2013 12:15:00 7.4 C 6.52 g/m*3 5.58 C 9.7 km/h
993 05-11-2013 12:20:00 7.6 C 6.61 g/m*3 6.16 C 8.1 km/h
994 05-11-2013 12:25:00 7.7 C 6.73 g/m*3 6.71 C 6.4 km/h
995 05-11-2013 12:30:00 7.8 C 6.69 g/m*3 6.06 C 9.7 km/h
996 05-11-2013 12:35:00 7.8 C 6.69 g/m*3 6.06 C 9.7 km/h
997 05-11-2013 12:40:00 7.8 C 6.69 g/m*3 6.4 C 8.1 km/h
998 05-11-2013 12:45:00 7.8 C 6.61 g/m*3 6.4 C 8.1 km/h
999 05-11-2013 12:50:00 7.9 C 6.74 g/m*3 6.52 C 8.1 km/h
1000 05-11-2013 12:55:00 7.9 C 6.74 g/m*3 7.9 C 4.8 km/h
Sensor: Nr:Datum:Temp:Abs-Feuchte:Windchill:Wind:
Aussen-T/F 1001 05-11-2013 13:00:00 8.1 C 6.82 g/m*3 7.17 C 6.4 km/h
1002 05-11-2013 13:05:00 8.2 C 6.78 g/m*3 6.87 C 8.1 km/h
1003 05-11-2013 13:10:00 8.2 C 6.78 g/m*3 6.87 C 8.1 km/h
1004 05-11-2013 13:15:00 8.2 C 6.78 g/m*3 6.87 C 8.1 km/h
1005 05-11-2013 13:20:00 8.3 C 6.66 g/m*3 6.37 C 11.3 km/h
1006 05-11-2013 13:25:00 8.2 C 6.53 g/m*3 5.76 C 14.5 km/h
1007 05-11-2013 13:30:00 8.3 C 6.57 g/m*3 6.37 C 11.3 km/h
1008 05-11-2013 13:35:00 8.2 C 6.53 g/m*3 6.54 C 9.7 km/h
1009 05-11-2013 13:40:00 8.3 C 6.66 g/m*3 8.3 C 4.8 km/h
1010 05-11-2013 13:45:00 8.3 C 6.57 g/m*3 6.99 C 8.1 km/h
1011 05-11-2013 13:50:00 8.3 C 6.57 g/m*3 7.41 C 6.4 km/h
1012 05-11-2013 13:55:00 8.3 C 6.49 g/m*3 6.37 C 11.3 km/h
1013 05-11-2013 14:00:00 8.2 C 6.53 g/m*3 6.87 C 8.1 km/h
1014 05-11-2013 14:05:00 8.1 C 6.57 g/m*3 6.75 C 8.1 km/h
1015 05-11-2013 14:10:00 8.1 C 6.57 g/m*3 8.1 C 3.2 km/h
1016 05-11-2013 14:15:00 8.1 C 6.57 g/m*3 6.42 C 9.7 km/h
1017 05-11-2013 14:20:00 8 C 6.61 g/m*3 8 C 4.8 km/h
1018 05-11-2013 14:25:00 7.9 C 6.57 g/m*3 6.94 C 6.4 km/h
1019 05-11-2013 14:30:00 7.9 C 6.49 g/m*3 7.9 C 4.8 km/h
1020 05-11-2013 14:35:00 7.8 C 6.37 g/m*3 7.8 C 3.2 km/h
1021 05-11-2013 14:40:00 7.7 C 6.41 g/m*3 5.94 C 9.7 km/h
1022 05-11-2013 14:45:00 7.7 C 6.32 g/m*3 7.7 C 4.8 km/h
1023 05-11-2013 14:50:00 7.7 C 6.41 g/m*3 7.7 C 4.8 km/h
1024 05-11-2013 14:55:00 7.6 C 6.28 g/m*3 7.6 C 4.8 km/h
1025 05-11-2013 15:00:00 7.6 C 6.36 g/m*3 7.6 C 1.6 km/h
Sensor: Nr:Datum:Temp:Abs-Feuchte:Windchill:Wind:
Aussen-T/F 1026 05-11-2013 15:05:00 7.5 C 6.32 g/m*3 6.48 C 6.4 km/h
1027 05-11-2013 15:10:00 7.5 C 6.24 g/m*3 7.5 C 4.8 km/h
1028 05-11-2013 15:15:00 7.5 C 6.24 g/m*3 7.5 C 4.8 km/h
1029 05-11-2013 15:20:00 7.4 C 6.2 g/m*3 7.4 C 3.2 km/h
1030 05-11-2013 15:25:00 7.4 C 6.36 g/m*3 7.4 C 3.2 km/h
1031 05-11-2013 15:30:00 7.4 C 6.12 g/m*3 5.02 C 12.9 km/h
1032 05-11-2013 15:35:00 7.4 C 6.2 g/m*3 7.4 C 1.6 km/h
1033 05-11-2013 15:40:00 7.4 C 6.2 g/m*3 7.4 C 1.6 km/h
1034 05-11-2013 15:45:00 7.4 C 6.2 g/m*3 7.4 C 1.6 km/h
1035 05-11-2013 15:50:00 7.3 C 6.24 g/m*3 6.25 C 6.4 km/h
1036 05-11-2013 15:55:00 7.3 C 6.24 g/m*3 7.3 C 4.8 km/h
1037 05-11-2013 16:00:00 7.3 C 6.4 g/m*3 7.3 C 1.6 km/h
1038 05-11-2013 16:05:00 7.3 C 6.56 g/m*3 7.3 C 0 km/h
1039 05-11-2013 16:10:00 7.2 C 6.44 g/m*3 7.2 C 3.2 km/h
1040 05-11-2013 16:15:00 7.2 C 6.52 g/m*3 7.2 C 3.2 km/h
1041 05-11-2013 16:20:00 7.1 C 6.47 g/m*3 7.1 C 4.8 km/h
1042 05-11-2013 16:25:00 7.1 C 6.55 g/m*3 4.92 C 11.3 km/h
1043 05-11-2013 16:30:00 7 C 6.43 g/m*3 7 C 3.2 km/h
1044 05-11-2013 16:35:00 7 C 6.43 g/m*3 7 C 4.8 km/h
1045 05-11-2013 16:40:00 7 C 6.51 g/m*3 5.9 C 6.4 km/h
1046 05-11-2013 16:45:00 7 C 6.43 g/m*3 7 C 4.8 km/h
1047 05-11-2013 16:50:00 7 C 6.59 g/m*3 7 C 0 km/h
1048 05-11-2013 16:55:00 6.9 C 6.62 g/m*3 6.9 C 3.2 km/h
1049 05-11-2013 17:00:00 6.9 C 6.62 g/m*3 6.9 C 3.2 km/h
1050 05-11-2013 17:05:00 6.9 C 6.62 g/m*3 6.9 C 3.2 km/h
Sensor: Nr:Datum:Temp:Abs-Feuchte:Windchill:Wind:
Aussen-T/F 1051 05-11-2013 17:10:00 6.9 C 6.62 g/m*3 6.9 C 3.2 km/h
1052 05-11-2013 17:15:00 6.8 C 6.58 g/m*3 6.8 C 4.8 km/h
1053 05-11-2013 17:20:00 6.8 C 6.65 g/m*3 5.22 C 8.1 km/h
1054 05-11-2013 17:25:00 6.8 C 6.65 g/m*3 6.8 C 3.2 km/h
1055 05-11-2013 17:30:00 6.8 C 6.65 g/m*3 6.8 C 3.2 km/h
1056 05-11-2013 17:35:00 6.8 C 6.65 g/m*3 5.67 C 6.4 km/h
1057 05-11-2013 17:40:00 6.8 C 6.73 g/m*3 6.8 C 4.8 km/h
1058 05-11-2013 17:45:00 6.8 C 6.73 g/m*3 6.8 C 1.6 km/h
1059 05-11-2013 17:50:00 6.8 C 6.81 g/m*3 6.8 C 0 km/h
1060 05-11-2013 17:55:00 6.7 C 6.84 g/m*3 6.7 C 0 km/h
1061 05-11-2013 18:00:00 6.7 C 6.84 g/m*3 6.7 C 3.2 km/h
1062 05-11-2013 18:05:00 6.7 C 6.76 g/m*3 6.7 C 1.6 km/h
1063 05-11-2013 18:10:00 6.7 C 6.84 g/m*3 6.7 C 1.6 km/h
1064 05-11-2013 18:15:00 6.7 C 6.84 g/m*3 6.7 C 1.6 km/h
1065 05-11-2013 18:20:00 6.7 C 6.84 g/m*3 6.7 C 1.6 km/h
1066 05-11-2013 18:25:00 6.7 C 6.91 g/m*3 6.7 C 1.6 km/h
1067 05-11-2013 18:30:00 6.7 C 6.91 g/m*3 6.7 C 0 km/h
1068 05-11-2013 18:35:00 6.7 C 6.99 g/m*3 6.7 C 1.6 km/h
1069 05-11-2013 18:40:00 6.7 C 6.91 g/m*3 6.7 C 0 km/h
1070 05-11-2013 18:45:00 6.7 C 6.99 g/m*3 6.7 C 1.6 km/h
1071 05-11-2013 18:50:00 6.6 C 6.95 g/m*3 6.6 C 1.6 km/h
1072 05-11-2013 18:55:00 6.6 C 6.95 g/m*3 6.6 C 3.2 km/h
1073 05-11-2013 19:00:00 6.6 C 7.02 g/m*3 6.6 C 1.6 km/h
1074 05-11-2013 19:05:00 6.6 C 7.02 g/m*3 6.6 C 1.6 km/h
1075 05-11-2013 19:10:00 6.6 C 7.1 g/m*3 6.6 C 0 km/h
Sensor: Nr:Datum:Temp:Abs-Feuchte:Windchill:Wind:
Aussen-T/F 1076 05-11-2013 19:15:00 6.5 C 7.05 g/m*3 6.5 C 0 km/h
1077 05-11-2013 19:20:00 6.5 C 7.05 g/m*3 6.5 C 0 km/h
1078 05-11-2013 19:25:00 6.5 C 7.12 g/m*3 6.5 C 0 km/h
1079 05-11-2013 19:30:00 6.5 C 7.12 g/m*3 6.5 C 0 km/h
1080 05-11-2013 19:35:00 6.5 C 7.12 g/m*3 6.5 C 0 km/h
1081 05-11-2013 19:40:00 6.4 C 7.08 g/m*3 6.4 C 0 km/h
1082 05-11-2013 19:45:00 6.5 C 7.12 g/m*3 6.5 C 0 km/h
1083 05-11-2013 19:50:00 6.4 C 7.15 g/m*3 6.4 C 0 km/h
1084 05-11-2013 19:55:00 6.4 C 7.15 g/m*3 6.4 C 0 km/h
1085 05-11-2013 20:00:00 6.4 C 7.15 g/m*3 6.4 C 0 km/h
1086 05-11-2013 20:05:00 6.5 C 7.2 g/m*3 6.5 C 0 km/h
1087 05-11-2013 20:10:00 6.5 C 7.2 g/m*3 6.5 C 0 km/h
1088 05-11-2013 20:15:00 6.6 C 7.25 g/m*3 6.6 C 0 km/h
1089 05-11-2013 20:20:00 6.6 C 7.25 g/m*3 6.6 C 0 km/h
1090 05-11-2013 20:25:00 6.6 C 7.25 g/m*3 6.6 C 0 km/h
1091 05-11-2013 20:30:00 6.6 C 7.25 g/m*3 6.6 C 0 km/h
1092 05-11-2013 20:35:00 6.6 C 7.25 g/m*3 6.6 C 0 km/h
1093 05-11-2013 20:40:00 6.7 C 7.29 g/m*3 6.7 C 3.2 km/h
1094 05-11-2013 20:45:00 6.7 C 7.37 g/m*3 6.7 C 0 km/h
1095 05-11-2013 20:50:00 6.8 C 7.42 g/m*3 6.8 C 1.6 km/h
1096 05-11-2013 20:55:00 6.9 C 7.47 g/m*3 6.9 C 1.6 km/h
1097 05-11-2013 21:00:00 7 C 7.52 g/m*3 7 C 4.8 km/h
1098 05-11-2013 21:05:00 7.1 C 7.57 g/m*3 7.1 C 4.8 km/h
1099 05-11-2013 21:10:00 7.2 C 7.54 g/m*3 5.35 C 9.7 km/h
1100 05-11-2013 21:15:00 7.2 C 7.54 g/m*3 5.04 C 11.3 km/h
Sensor: Nr:Datum:Temp:Abs-Feuchte:Windchill:Wind:
Aussen-T/F 1101 05-11-2013 21:20:00 7.3 C 7.58 g/m*3 6.25 C 6.4 km/h
1102 05-11-2013 21:25:00 7.3 C 7.58 g/m*3 4.9 C 12.9 km/h
1103 05-11-2013 21:30:00 7.4 C 7.63 g/m*3 7.4 C 4.8 km/h
1104 05-11-2013 21:35:00 7.4 C 7.55 g/m*3 7.4 C 1.6 km/h
1105 05-11-2013 21:40:00 7.4 C 7.55 g/m*3 7.4 C 0 km/h
1106 05-11-2013 21:45:00 7.3 C 7.51 g/m*3 7.3 C 1.6 km/h
1107 05-11-2013 21:50:00 7.3 C 7.58 g/m*3 7.3 C 1.6 km/h
1108 05-11-2013 21:55:00 7.5 C 7.68 g/m*3 6.48 C 6.4 km/h
1109 05-11-2013 22:00:00 7.7 C 7.78 g/m*3 6.71 C 6.4 km/h
1110 05-11-2013 22:05:00 7.8 C 7.83 g/m*3 7.8 C 3.2 km/h
1111 05-11-2013 22:10:00 7.9 C 7.8 g/m*3 7.9 C 3.2 km/h
1112 05-11-2013 22:15:00 7.9 C 7.8 g/m*3 7.9 C 3.2 km/h
1113 05-11-2013 22:20:00 7.9 C 7.8 g/m*3 7.9 C 4.8 km/h
1114 05-11-2013 22:25:00 8.1 C 7.9 g/m*3 6.75 C 8.1 km/h
1115 05-11-2013 22:30:00 8.2 C 7.96 g/m*3 8.2 C 4.8 km/h
1116 05-11-2013 22:35:00 8.2 C 7.96 g/m*3 7.29 C 6.4 km/h
1117 05-11-2013 22:40:00 8.3 C 8.01 g/m*3 8.3 C 1.6 km/h
1118 05-11-2013 22:45:00 8.3 C 8.01 g/m*3 8.3 C 3.2 km/h
1119 05-11-2013 22:50:00 8.3 C 7.92 g/m*3 8.3 C 1.6 km/h
1120 05-11-2013 22:55:00 8.3 C 7.92 g/m*3 7.41 C 6.4 km/h
1121 05-11-2013 23:00:00 8.4 C 7.97 g/m*3 8.4 C 4.8 km/h
1122 05-11-2013 23:05:00 8.4 C 7.97 g/m*3 7.11 C 8.1 km/h
1123 05-11-2013 23:10:00 8.6 C 7.99 g/m*3 7.01 C 9.7 km/h
1124 05-11-2013 23:15:00 8.7 C 8.04 g/m*3 7.13 C 9.7 km/h
1125 05-11-2013 23:20:00 8.8 C 7.92 g/m*3 6.72 C 12.9 km/h
Sensor: Nr:Datum:Temp:Abs-Feuchte:Windchill:Wind:
Aussen-T/F 1126 05-11-2013 23:25:00 8.9 C 7.88 g/m*3 6.85 C 12.9 km/h
1127 05-11-2013 23:30:00 9.1 C 7.9 g/m*3 7.61 C 9.7 km/h
1128 05-11-2013 23:35:00 9.2 C 7.86 g/m*3 7.73 C 9.7 km/h
1129 05-11-2013 23:40:00 9.1 C 7.81 g/m*3 7.93 C 8.1 km/h
1130 05-11-2013 23:45:00 8.9 C 7.71 g/m*3 8.1 C 6.4 km/h
1131 05-11-2013 23:50:00 8.7 C 7.7 g/m*3 8.7 C 3.2 km/h
1132 05-11-2013 23:55:00 8.4 C 7.72 g/m*3 8.4 C 4.8 km/h
1133 06-11-2013 00:00:00 8.3 C 7.67 g/m*3 8.3 C 3.2 km/h
1134 06-11-2013 00:05:00 8.2 C 7.62 g/m*3 6.87 C 8.1 km/h
1135 06-11-2013 00:10:00 8.2 C 7.62 g/m*3 7.29 C 6.4 km/h
1136 06-11-2013 00:15:00 8.3 C 7.59 g/m*3 6.99 C 8.1 km/h
1137 06-11-2013 00:20:00 8.6 C 7.56 g/m*3 7.01 C 9.7 km/h
1138 06-11-2013 00:25:00 8.7 C 7.52 g/m*3 6.6 C 12.9 km/h
1139 06-11-2013 00:30:00 8.7 C 7.52 g/m*3 7.87 C 6.4 km/h
1140 06-11-2013 00:35:00 8.7 C 7.44 g/m*3 8.7 C 3.2 km/h
1141 06-11-2013 00:40:00 8.7 C 7.44 g/m*3 7.87 C 6.4 km/h
1142 06-11-2013 00:45:00 8.6 C 7.39 g/m*3 8.6 C 4.8 km/h
1143 06-11-2013 00:50:00 8.6 C 7.48 g/m*3 7.75 C 6.4 km/h
1144 06-11-2013 00:55:00 8.5 C 7.34 g/m*3 6.13 C 14.5 km/h
1145 06-11-2013 01:00:00 8.4 C 7.38 g/m*3 6.01 C 14.5 km/h
1146 06-11-2013 01:05:00 8.3 C 7.33 g/m*3 8.3 C 4.8 km/h
1147 06-11-2013 01:10:00 8.2 C 7.29 g/m*3 8.2 C 4.8 km/h
1148 06-11-2013 01:15:00 8.2 C 7.29 g/m*3 8.2 C 4.8 km/h
1149 06-11-2013 01:20:00 8.1 C 7.24 g/m*3 8.1 C 4.8 km/h
1150 06-11-2013 01:25:00 8.1 C 7.24 g/m*3 8.1 C 4.8 km/h
Sensor: Nr:Datum:Temp:Abs-Feuchte:Windchill:Wind:
Aussen-T/F 1151 06-11-2013 01:30:00 8.1 C 7.24 g/m*3 6.75 C 8.1 km/h
1152 06-11-2013 01:35:00 8.2 C 7.2 g/m*3 6.54 C 9.7 km/h
1153 06-11-2013 01:40:00 8.3 C 7.16 g/m*3 7.41 C 6.4 km/h
1154 06-11-2013 01:45:00 8.3 C 7.16 g/m*3 7.41 C 6.4 km/h
1155 06-11-2013 01:50:00 8.3 C 7.16 g/m*3 6.37 C 11.3 km/h
1156 06-11-2013 01:55:00 8.4 C 7.21 g/m*3 7.11 C 8.1 km/h
1157 06-11-2013 02:00:00 8.4 C 7.13 g/m*3 6.78 C 9.7 km/h
1158 06-11-2013 02:05:00 8.5 C 7.17 g/m*3 7.22 C 8.1 km/h
1159 06-11-2013 02:10:00 8.6 C 7.22 g/m*3 7.01 C 9.7 km/h
1160 06-11-2013 02:15:00 8.4 C 7.21 g/m*3 6.24 C 12.9 km/h
1161 06-11-2013 02:20:00 8.3 C 7.16 g/m*3 8.3 C 4.8 km/h
1162 06-11-2013 02:25:00 8.3 C 7.25 g/m*3 6.66 C 9.7 km/h
1163 06-11-2013 02:30:00 8.3 C 7.33 g/m*3 6.66 C 9.7 km/h
1164 06-11-2013 02:35:00 8.2 C 7.29 g/m*3 6.87 C 8.1 km/h
1165 06-11-2013 02:40:00 8.2 C 7.29 g/m*3 7.29 C 6.4 km/h
1166 06-11-2013 02:45:00 8.1 C 7.32 g/m*3 7.17 C 6.4 km/h
1167 06-11-2013 02:50:00 8.1 C 7.41 g/m*3 8.1 C 3.2 km/h
1168 06-11-2013 02:55:00 8 C 7.36 g/m*3 8 C 1.6 km/h
1169 06-11-2013 03:00:00 7.9 C 7.39 g/m*3 7.9 C 3.2 km/h
1170 06-11-2013 03:05:00 7.9 C 7.47 g/m*3 7.9 C 1.6 km/h
1171 06-11-2013 03:10:00 7.9 C 7.56 g/m*3 7.9 C 4.8 km/h
1172 06-11-2013 03:15:00 7.9 C 7.56 g/m*3 6.94 C 6.4 km/h
1173 06-11-2013 03:20:00 7.9 C 7.56 g/m*3 7.9 C 3.2 km/h
1174 06-11-2013 03:25:00 8 C 7.61 g/m*3 6.3 C 9.7 km/h
1175 06-11-2013 03:30:00 8.1 C 7.57 g/m*3 6.75 C 8.1 km/h
Sensor: Nr:Datum:Temp:Abs-Feuchte:Windchill:Wind:
Aussen-T/F 1176 06-11-2013 03:35:00 8.1 C 7.57 g/m*3 7.17 C 6.4 km/h
1177 06-11-2013 03:40:00 8.2 C 7.62 g/m*3 5.55 C 16.1 km/h
1178 06-11-2013 03:45:00 8.3 C 7.59 g/m*3 6.66 C 9.7 km/h
1179 06-11-2013 03:50:00 8.3 C 7.59 g/m*3 8.3 C 4.8 km/h
1180 06-11-2013 03:55:00 8.3 C 7.59 g/m*3 8.3 C 3.2 km/h
1181 06-11-2013 04:00:00 8.3 C 7.5 g/m*3 8.3 C 4.8 km/h
1182 06-11-2013 04:05:00 8.3 C 7.5 g/m*3 8.3 C 3.2 km/h
1183 06-11-2013 04:10:00 8.2 C 7.54 g/m*3 8.2 C 1.6 km/h
1184 06-11-2013 04:15:00 8.1 C 7.49 g/m*3 8.1 C 3.2 km/h
1185 06-11-2013 04:20:00 8.1 C 7.49 g/m*3 7.17 C 6.4 km/h
1186 06-11-2013 04:25:00 8.1 C 7.41 g/m*3 7.17 C 6.4 km/h
1187 06-11-2013 04:30:00 8.1 C 7.49 g/m*3 8.1 C 4.8 km/h
1188 06-11-2013 04:35:00 8.1 C 7.41 g/m*3 8.1 C 4.8 km/h
1189 06-11-2013 04:40:00 8.1 C 7.41 g/m*3 8.1 C 4.8 km/h
1190 06-11-2013 04:45:00 8.1 C 7.49 g/m*3 8.1 C 4.8 km/h
1191 06-11-2013 04:50:00 7.9 C 7.39 g/m*3 7.9 C 3.2 km/h
1192 06-11-2013 04:55:00 7.8 C 7.43 g/m*3 7.8 C 4.8 km/h
1193 06-11-2013 05:00:00 7.8 C 7.43 g/m*3 7.8 C 4.8 km/h
1194 06-11-2013 05:05:00 7.8 C 7.43 g/m*3 7.8 C 3.2 km/h
1195 06-11-2013 05:10:00 7.9 C 7.47 g/m*3 7.9 C 3.2 km/h
1196 06-11-2013 05:15:00 7.9 C 7.39 g/m*3 7.9 C 3.2 km/h
1197 06-11-2013 05:20:00 7.9 C 7.39 g/m*3 7.9 C 3.2 km/h
1198 06-11-2013 05:25:00 8 C 7.44 g/m*3 7.06 C 6.4 km/h
1199 06-11-2013 05:30:00 8.1 C 7.49 g/m*3 8.1 C 3.2 km/h
1200 06-11-2013 05:35:00 8.1 C 7.49 g/m*3 8.1 C 4.8 km/h
Sensor: Nr:Datum:Temp:Abs-Feuchte:Windchill:Wind:
Aussen-T/F 1201 06-11-2013 05:40:00 8.1 C 7.49 g/m*3 8.1 C 3.2 km/h
1202 06-11-2013 05:45:00 8.1 C 7.49 g/m*3 6.13 C 11.3 km/h
1203 06-11-2013 05:50:00 8.2 C 7.54 g/m*3 8.2 C 4.8 km/h
1204 06-11-2013 05:55:00 8.3 C 7.5 g/m*3 8.3 C 3.2 km/h
1205 06-11-2013 06:00:00 8.3 C 7.5 g/m*3 7.41 C 6.4 km/h
1206 06-11-2013 06:05:00 8.3 C 7.5 g/m*3 8.3 C 4.8 km/h
1207 06-11-2013 06:10:00 8.3 C 7.5 g/m*3 8.3 C 1.6 km/h
1208 06-11-2013 06:15:00 8.3 C 7.5 g/m*3 8.3 C 3.2 km/h
1209 06-11-2013 06:20:00 8.3 C 7.5 g/m*3 8.3 C 1.6 km/h
1210 06-11-2013 06:25:00 8.3 C 7.5 g/m*3 8.3 C 4.8 km/h
1211 06-11-2013 06:30:00 8.3 C 7.5 g/m*3 8.3 C 4.8 km/h
1212 06-11-2013 06:35:00 8.4 C 7.55 g/m*3 8.4 C 3.2 km/h
1213 06-11-2013 06:40:00 8.3 C 7.5 g/m*3 8.3 C 3.2 km/h
1214 06-11-2013 06:45:00 8.3 C 7.59 g/m*3 8.3 C 1.6 km/h
1215 06-11-2013 06:50:00 8.1 C 7.57 g/m*3 8.1 C 1.6 km/h
1216 06-11-2013 06:55:00 8 C 7.52 g/m*3 8 C 3.2 km/h
1217 06-11-2013 07:00:00 8 C 7.52 g/m*3 8 C 1.6 km/h
1218 06-11-2013 07:05:00 8 C 7.52 g/m*3 8 C 1.6 km/h
1219 06-11-2013 07:10:00 8 C 7.61 g/m*3 8 C 3.2 km/h
1220 06-11-2013 07:15:00 8 C 7.61 g/m*3 8 C 3.2 km/h
1221 06-11-2013 07:20:00 8 C 7.61 g/m*3 8 C 1.6 km/h
1222 06-11-2013 07:25:00 8.1 C 7.66 g/m*3 8.1 C 1.6 km/h
1223 06-11-2013 07:30:00 8 C 7.61 g/m*3 8 C 1.6 km/h
1224 06-11-2013 07:35:00 7.9 C 7.56 g/m*3 7.9 C 0 km/h
1225 06-11-2013 07:40:00 7.9 C 7.64 g/m*3 7.9 C 0 km/h
Sensor: Nr:Datum:Temp:Abs-Feuchte:Windchill:Wind:
Aussen-T/F 1226 06-11-2013 07:45:00 7.8 C 7.59 g/m*3 7.8 C 0 km/h
1227 06-11-2013 07:50:00 7.8 C 7.59 g/m*3 7.8 C 1.6 km/h
1228 06-11-2013 07:55:00 7.8 C 7.59 g/m*3 7.8 C 3.2 km/h
1229 06-11-2013 08:00:00 8 C 7.61 g/m*3 8 C 3.2 km/h
1230 06-11-2013 08:05:00 8.2 C 7.62 g/m*3 7.29 C 6.4 km/h
1231 06-11-2013 08:10:00 8.4 C 7.72 g/m*3 8.4 C 1.6 km/h
1232 06-11-2013 08:15:00 8.4 C 7.72 g/m*3 8.4 C 0 km/h
1233 06-11-2013 08:20:00 8.4 C 7.72 g/m*3 8.4 C 3.2 km/h
1234 06-11-2013 08:25:00 8.5 C 7.77 g/m*3 8.5 C 0 km/h
1235 06-11-2013 08:30:00 8.6 C 7.73 g/m*3 8.6 C 1.6 km/h
1236 06-11-2013 08:35:00 8.6 C 7.73 g/m*3 8.6 C 1.6 km/h
1237 06-11-2013 08:40:00 9.5 C 7.92 g/m*3 9.5 C 3.2 km/h
1238 06-11-2013 08:45:00 9.6 C 8.06 g/m*3 8.91 C 6.4 km/h
1239 06-11-2013 08:50:00 9.7 C 8.02 g/m*3 8.06 C 11.3 km/h
1240 06-11-2013 08:55:00 9.8 C 8.07 g/m*3 8.18 C 11.3 km/h
1241 06-11-2013 09:45:00 9.8 C 8.07 g/m*3 7.94 C 12.9 km/h
1242 06-11-2013 09:50:00 9.9 C 8.12 g/m*3 8.87 C 8.1 km/h
1243 06-11-2013 09:59:00 9.9 C 8.12 g/m*3 9.9 C 1.6 km/h
1244 06-11-2013 10:05:00 10.2 C 8.18 g/m*3 8.92 C 9.7 km/h
1245 06-11-2013 10:10:00 10.2 C 8.18 g/m*3 10.2 C 4.8 km/h
1246 06-11-2013 10:15:00 10.2 C 8.18 g/m*3 8.66 C 11.3 km/h
1247 06-11-2013 10:20:00 10.3 C 8.24 g/m*3 8.55 C 12.9 km/h
1248 06-11-2013 10:25:00 10.3 C 8.14 g/m*3 9.04 C 9.7 km/h
1249 06-11-2013 10:30:00 10.4 C 8.19 g/m*3 10.4 C 4.8 km/h
1250 06-11-2013 10:35:00 10.5 C 8.24 g/m*3 9.02 C 11.3 km/h
Sensor: Nr:Datum:Temp:Abs-Feuchte:Windchill:Wind:
Aussen-T/F 1251 06-11-2013 10:40:00 10.6 C 8.2 g/m*3 10.06 C 6.4 km/h
1252 06-11-2013 10:45:00 10.7 C 8.25 g/m*3 9.04 C 12.9 km/h
1253 06-11-2013 10:50:00 10.8 C 8.2 g/m*3 9.93 C 8.1 km/h
1254 06-11-2013 10:55:00 10.9 C 8.26 g/m*3 9.28 C 12.9 km/h
1255 06-11-2013 11:00:00 10.9 C 8.16 g/m*3 8.9 C 16.1 km/h
1256 06-11-2013 11:05:00 10.9 C 8.26 g/m*3 8.9 C 16.1 km/h
1257 06-11-2013 11:10:00 11.2 C 8.21 g/m*3 11.2 C 11.3 km/h
1258 06-11-2013 11:15:00 11.3 C 8.26 g/m*3 11.3 C 12.9 km/h
1259 06-11-2013 11:20:00 11.3 C 8.26 g/m*3 11.3 C 16.1 km/h
1260 06-11-2013 11:25:00 11.3 C 8.26 g/m*3 11.3 C 8.1 km/h
1261 06-11-2013 11:30:00 11.3 C 8.36 g/m*3 11.3 C 9.7 km/h
1262 06-11-2013 11:35:00 11.3 C 8.36 g/m*3 11.3 C 11.3 km/h
1263 06-11-2013 11:40:00 11.4 C 8.42 g/m*3 11.4 C 8.1 km/h
1264 06-11-2013 11:45:00 11.4 C 8.42 g/m*3 11.4 C 3.2 km/h
1265 06-11-2013 11:50:00 11.4 C 8.31 g/m*3 11.4 C 11.3 km/h
1266 06-11-2013 11:55:00 11.4 C 8.31 g/m*3 11.4 C 11.3 km/h
1267 06-11-2013 12:00:00 11.5 C 8.37 g/m*3 11.5 C 8.1 km/h
1268 06-11-2013 12:05:00 11.5 C 8.37 g/m*3 11.5 C 11.3 km/h
1269 06-11-2013 12:10:00 11.5 C 8.37 g/m*3 11.5 C 9.7 km/h
1270 06-11-2013 12:15:00 11.6 C 8.32 g/m*3 11.6 C 6.4 km/h
1271 06-11-2013 12:20:00 11.6 C 8.32 g/m*3 11.6 C 9.7 km/h
1272 06-11-2013 12:25:00 11.6 C 8.32 g/m*3 11.6 C 6.4 km/h
1273 06-11-2013 12:30:00 11.7 C 8.26 g/m*3 11.7 C 14.5 km/h
1274 06-11-2013 12:35:00 11.7 C 8.37 g/m*3 11.7 C 14.5 km/h
1275 06-11-2013 12:40:00 11.6 C 8.32 g/m*3 11.6 C 9.7 km/h
Sensor: Nr:Datum:Temp:Abs-Feuchte:Windchill:Wind:
Aussen-T/F 1276 06-11-2013 12:45:00 11.6 C 8.42 g/m*3 11.6 C 4.8 km/h
1277 06-11-2013 12:50:00 11.7 C 8.37 g/m*3 11.7 C 9.7 km/h
1278 06-11-2013 12:55:00 11.7 C 8.37 g/m*3 11.7 C 9.7 km/h
1279 06-11-2013 13:00:00 11.7 C 8.37 g/m*3 11.7 C 6.4 km/h
1280 06-11-2013 13:05:00 11.7 C 8.47 g/m*3 11.7 C 12.9 km/h
1281 06-11-2013 13:10:00 11.8 C 8.63 g/m*3 11.8 C 6.4 km/h
1282 06-11-2013 13:15:00 11.8 C 8.63 g/m*3 11.8 C 4.8 km/h
1283 06-11-2013 13:20:00 11.8 C 8.74 g/m*3 11.8 C 4.8 km/h
1284 06-11-2013 13:25:00 11.7 C 8.68 g/m*3 11.7 C 9.7 km/h
1285 06-11-2013 13:30:00 11.8 C 8.74 g/m*3 11.8 C 4.8 km/h
1286 06-11-2013 13:35:00 11.8 C 8.63 g/m*3 11.8 C 11.3 km/h
1287 06-11-2013 13:40:00 11.8 C 8.74 g/m*3 11.8 C 8.1 km/h
1288 06-11-2013 13:45:00 11.8 C 8.74 g/m*3 11.8 C 4.8 km/h
1289 06-11-2013 13:50:00 11.8 C 8.74 g/m*3 11.8 C 11.3 km/h
1290 06-11-2013 13:55:00 11.8 C 8.84 g/m*3 11.8 C 8.1 km/h
1291 06-11-2013 14:00:00 11.8 C 8.84 g/m*3 11.8 C 14.5 km/h
1292 06-11-2013 14:05:00 11.8 C 8.84 g/m*3 11.8 C 8.1 km/h
1293 06-11-2013 14:10:00 11.8 C 8.84 g/m*3 11.8 C 4.8 km/h
1294 06-11-2013 14:15:00 11.8 C 9.05 g/m*3 11.8 C 9.7 km/h
1295 06-11-2013 14:20:00 11.7 C 8.99 g/m*3 11.7 C 4.8 km/h
1296 06-11-2013 14:25:00 11.6 C 8.94 g/m*3 11.6 C 4.8 km/h
1297 06-11-2013 14:30:00 11.6 C 8.94 g/m*3 11.6 C 4.8 km/h
1298 06-11-2013 14:35:00 11.6 C 9.04 g/m*3 11.6 C 3.2 km/h
1299 06-11-2013 14:40:00 11.6 C 9.04 g/m*3 11.6 C 3.2 km/h
1300 06-11-2013 14:45:00 11.5 C 8.99 g/m*3 11.5 C 4.8 km/h
Sensor: Nr:Datum:Temp:Abs-Feuchte:Windchill:Wind:
Aussen-T/F 1301 06-11-2013 14:50:00 11.5 C 9.09 g/m*3 11.5 C 4.8 km/h
1302 06-11-2013 14:55:00 11.5 C 9.09 g/m*3 11.5 C 3.2 km/h
1303 06-11-2013 15:00:00 11.5 C 9.19 g/m*3 11.5 C 1.6 km/h
1304 06-11-2013 15:05:00 11.5 C 9.19 g/m*3 11.5 C 6.4 km/h
1305 06-11-2013 15:10:00 11.4 C 9.24 g/m*3 11.4 C 4.8 km/h
1306 06-11-2013 15:15:00 11.4 C 9.34 g/m*3 11.4 C 1.6 km/h
1307 06-11-2013 15:20:00 11.3 C 9.28 g/m*3 11.3 C 1.6 km/h
1308 06-11-2013 15:25:00 11.2 C 9.33 g/m*3 11.2 C 0 km/h
1309 06-11-2013 15:30:00 11.2 C 9.33 g/m*3 11.2 C 0 km/h
1310 06-11-2013 15:35:00 11.1 C 9.37 g/m*3 11.1 C 0 km/h
1311 06-11-2013 15:40:00 11.1 C 9.37 g/m*3 11.1 C 0 km/h
1312 06-11-2013 15:45:00 11.1 C 9.37 g/m*3 11.1 C 0 km/h
1313 06-11-2013 15:50:00 11.1 C 9.47 g/m*3 11.1 C 0 km/h
1314 06-11-2013 15:55:00 11.1 C 9.47 g/m*3 11.1 C 0 km/h
1315 06-11-2013 16:00:00 11 C 9.41 g/m*3 11 C 1.6 km/h
1316 06-11-2013 16:05:00 10.9 C 9.35 g/m*3 10.9 C 1.6 km/h
1317 06-11-2013 16:10:00 10.9 C 9.45 g/m*3 10.9 C 1.6 km/h
1318 06-11-2013 16:15:00 10.8 C 9.39 g/m*3 10.8 C 3.2 km/h
1319 06-11-2013 16:20:00 10.8 C 9.39 g/m*3 10.8 C 0 km/h
1320 06-11-2013 16:25:00 10.8 C 9.39 g/m*3 10.8 C 1.6 km/h
1321 06-11-2013 16:30:00 10.8 C 9.39 g/m*3 10.8 C 0 km/h
1322 06-11-2013 16:35:00 10.8 C 9.39 g/m*3 10.8 C 0 km/h
1323 06-11-2013 16:40:00 10.7 C 9.33 g/m*3 10.7 C 0 km/h
1324 06-11-2013 16:45:00 10.7 C 9.33 g/m*3 10.7 C 0 km/h
1325 06-11-2013 16:50:00 10.7 C 9.33 g/m*3 10.7 C 0 km/h
Sensor: Nr:Datum:Temp:Abs-Feuchte:Windchill:Wind:
Aussen-T/F 1326 06-11-2013 16:55:00 10.7 C 9.43 g/m*3 10.7 C 0 km/h
1327 06-11-2013 17:00:00 10.7 C 9.43 g/m*3 10.7 C 0 km/h
1328 06-11-2013 17:05:00 10.7 C 9.43 g/m*3 10.7 C 0 km/h
1329 06-11-2013 17:10:00 10.7 C 9.43 g/m*3 10.7 C 0 km/h
1330 06-11-2013 17:15:00 10.6 C 9.37 g/m*3 10.6 C 0 km/h
1331 06-11-2013 17:20:00 10.6 C 9.37 g/m*3 10.6 C 0 km/h
1332 06-11-2013 17:25:00 10.6 C 9.37 g/m*3 10.6 C 0 km/h
1333 06-11-2013 17:30:00 10.6 C 9.37 g/m*3 10.6 C 0 km/h
1334 06-11-2013 17:35:00 10.6 C 9.37 g/m*3 10.6 C 0 km/h
1335 06-11-2013 17:40:00 10.6 C 9.37 g/m*3 10.6 C 0 km/h
1336 06-11-2013 17:45:00 10.6 C 9.37 g/m*3 10.6 C 0 km/h
1337 06-11-2013 17:50:00 10.6 C 9.37 g/m*3 10.6 C 0 km/h
1338 06-11-2013 17:55:00 10.6 C 9.37 g/m*3 10.6 C 0 km/h
1339 06-11-2013 18:00:00 10.6 C 9.37 g/m*3 10.6 C 0 km/h
1340 06-11-2013 18:05:00 10.6 C 9.37 g/m*3 10.6 C 0 km/h
1341 06-11-2013 18:10:00 10.6 C 9.37 g/m*3 10.6 C 0 km/h
1342 06-11-2013 18:15:00 10.7 C 9.53 g/m*3 10.7 C 3.2 km/h
1343 06-11-2013 18:20:00 10.9 C 9.65 g/m*3 10.9 C 1.6 km/h
1344 06-11-2013 18:25:00 11.3 C 9.89 g/m*3 11.3 C 3.2 km/h
1345 06-11-2013 18:30:00 11.8 C 10.31 g/m*3 11.8 C 14.5 km/h
1346 06-11-2013 18:35:00 12.3 C 10.64 g/m*3 12.3 C 8.1 km/h
1347 06-11-2013 18:40:00 12.7 C 10.91 g/m*3 12.7 C 9.7 km/h
1348 06-11-2013 18:45:00 13.1 C 11.07 g/m*3 13.1 C 25.7 km/h
1349 06-11-2013 18:50:00 13.4 C 10.93 g/m*3 13.4 C 22.5 km/h
1350 06-11-2013 18:55:00 13.7 C 11.01 g/m*3 13.7 C 20.9 km/h
Sensor: Nr:Datum:Temp:Abs-Feuchte:Windchill:Wind:
Aussen-T/F 1351 06-11-2013 19:00:00 13.7 C 10.89 g/m*3 13.7 C 9.7 km/h
1352 06-11-2013 19:05:00 13.8 C 10.96 g/m*3 13.8 C 16.1 km/h
1353 06-11-2013 19:10:00 13.8 C 10.96 g/m*3 13.8 C 16.1 km/h
1354 06-11-2013 19:15:00 13.8 C 10.96 g/m*3 13.8 C 12.9 km/h
1355 06-11-2013 19:20:00 13.8 C 10.96 g/m*3 13.8 C 12.9 km/h
1356 06-11-2013 19:25:00 13.8 C 10.96 g/m*3 13.8 C 4.8 km/h
1357 06-11-2013 19:30:00 13.8 C 10.96 g/m*3 13.8 C 14.5 km/h
1358 06-11-2013 19:35:00 13.8 C 10.96 g/m*3 13.8 C 6.4 km/h
1359 06-11-2013 19:40:00 13.7 C 10.89 g/m*3 13.7 C 4.8 km/h
1360 06-11-2013 19:45:00 13.7 C 10.89 g/m*3 13.7 C 6.4 km/h
1361 06-11-2013 19:50:00 13.7 C 10.89 g/m*3 13.7 C 17.7 km/h
1362 06-11-2013 19:55:00 13.7 C 10.89 g/m*3 13.7 C 9.7 km/h
1363 06-11-2013 20:00:00 13.7 C 10.89 g/m*3 13.7 C 11.3 km/h
1364 06-11-2013 20:05:00 13.8 C 10.84 g/m*3 13.8 C 14.5 km/h
1365 06-11-2013 20:10:00 13.9 C 10.79 g/m*3 13.9 C 12.9 km/h
1366 06-11-2013 20:15:00 14.1 C 10.92 g/m*3 14.1 C 9.7 km/h
1367 06-11-2013 20:20:00 14.2 C 10.87 g/m*3 14.2 C 12.9 km/h
1368 06-11-2013 20:25:00 14.3 C 10.93 g/m*3 14.3 C 11.3 km/h
1369 06-11-2013 20:30:00 14.3 C 10.81 g/m*3 14.3 C 9.7 km/h
1370 06-11-2013 20:35:00 14.2 C 10.75 g/m*3 14.2 C 14.5 km/h
1371 06-11-2013 20:40:00 14.2 C 10.87 g/m*3 14.2 C 20.9 km/h
1372 06-11-2013 20:45:00 14.3 C 10.93 g/m*3 14.3 C 9.7 km/h
1373 06-11-2013 20:50:00 14.2 C 10.87 g/m*3 14.2 C 8.1 km/h
1374 06-11-2013 20:55:00 14.2 C 10.87 g/m*3 14.2 C 11.3 km/h
1375 06-11-2013 21:00:00 14.2 C 10.87 g/m*3 14.2 C 11.3 km/h
Sensor: Nr:Datum:Temp:Abs-Feuchte:Windchill:Wind:
Aussen-T/F 1376 06-11-2013 21:05:00 14.2 C 10.87 g/m*3 14.2 C 3.2 km/h
1377 06-11-2013 21:10:00 14.2 C 10.87 g/m*3 14.2 C 4.8 km/h
1378 06-11-2013 21:15:00 14.2 C 10.87 g/m*3 14.2 C 9.7 km/h
1379 06-11-2013 21:20:00 14.3 C 10.81 g/m*3 14.3 C 8.1 km/h
1380 06-11-2013 21:25:00 14.3 C 10.81 g/m*3 14.3 C 6.4 km/h
1381 06-11-2013 21:30:00 14.3 C 10.81 g/m*3 14.3 C 14.5 km/h
1382 06-11-2013 21:35:00 14.3 C 10.93 g/m*3 14.3 C 6.4 km/h
1383 06-11-2013 21:40:00 14.2 C 10.87 g/m*3 14.2 C 8.1 km/h
1384 06-11-2013 21:45:00 14.2 C 10.87 g/m*3 14.2 C 6.4 km/h
1385 06-11-2013 21:50:00 14.2 C 10.87 g/m*3 14.2 C 11.3 km/h
1386 06-11-2013 21:55:00 14.2 C 10.87 g/m*3 14.2 C 4.8 km/h
1387 06-11-2013 22:00:00 14.2 C 10.87 g/m*3 14.2 C 12.9 km/h
1388 06-11-2013 22:05:00 14.2 C 10.87 g/m*3 14.2 C 11.3 km/h
1389 06-11-2013 22:10:00 14.2 C 10.75 g/m*3 14.2 C 12.9 km/h
1390 06-11-2013 22:15:00 14.2 C 10.75 g/m*3 14.2 C 11.3 km/h
1391 06-11-2013 22:20:00 14.3 C 10.69 g/m*3 14.3 C 14.5 km/h
1392 06-11-2013 22:25:00 14.3 C 10.69 g/m*3 14.3 C 16.1 km/h
1393 06-11-2013 22:30:00 14.4 C 10.75 g/m*3 14.4 C 14.5 km/h
1394 06-11-2013 22:35:00 14.4 C 10.75 g/m*3 14.4 C 16.1 km/h
1395 06-11-2013 22:40:00 14.4 C 10.75 g/m*3 14.4 C 19.3 km/h
1396 06-11-2013 22:45:00 14.4 C 10.75 g/m*3 14.4 C 9.7 km/h
1397 06-11-2013 22:50:00 14.4 C 10.75 g/m*3 14.4 C 9.7 km/h
1398 06-11-2013 22:55:00 14.4 C 10.63 g/m*3 14.4 C 11.3 km/h
1399 06-11-2013 23:00:00 14.4 C 10.63 g/m*3 14.4 C 17.7 km/h
1400 06-11-2013 23:05:00 14.4 C 10.75 g/m*3 14.4 C 11.3 km/h
Sensor: Nr:Datum:Temp:Abs-Feuchte:Windchill:Wind:
Aussen-T/F 1401 06-11-2013 23:10:00 14.4 C 10.75 g/m*3 14.4 C 12.9 km/h
1402 06-11-2013 23:15:00 14.5 C 10.7 g/m*3 14.5 C 20.9 km/h
1403 06-11-2013 23:20:00 14.5 C 10.7 g/m*3 14.5 C 12.9 km/h
1404 06-11-2013 23:25:00 14.5 C 10.82 g/m*3 14.5 C 16.1 km/h
1405 06-11-2013 23:30:00 14.5 C 10.82 g/m*3 14.5 C 16.1 km/h
1406 06-11-2013 23:35:00 14.5 C 10.82 g/m*3 14.5 C 25.7 km/h
1407 06-11-2013 23:40:00 14.6 C 10.89 g/m*3 14.6 C 16.1 km/h
1408 06-11-2013 23:45:00 14.6 C 10.89 g/m*3 14.6 C 12.9 km/h
1409 06-11-2013 23:50:00 14.6 C 10.89 g/m*3 14.6 C 19.3 km/h
1410 06-11-2013 23:55:00 14.6 C 10.89 g/m*3 14.6 C 12.9 km/h
1411 07-11-2013 00:00:00 14.5 C 10.7 g/m*3 14.5 C 8.1 km/h
1412 07-11-2013 00:05:00 14.6 C 10.76 g/m*3 14.6 C 17.7 km/h
1413 07-11-2013 00:10:00 14.6 C 10.76 g/m*3 14.6 C 16.1 km/h
1414 07-11-2013 00:15:00 14.6 C 10.76 g/m*3 14.6 C 19.3 km/h
1415 07-11-2013 00:20:00 14.6 C 10.76 g/m*3 14.6 C 19.3 km/h
1416 07-11-2013 00:25:00 14.6 C 10.76 g/m*3 14.6 C 16.1 km/h
1417 07-11-2013 00:30:00 14.7 C 10.7 g/m*3 14.7 C 19.3 km/h
1418 07-11-2013 00:35:00 14.7 C 10.83 g/m*3 14.7 C 14.5 km/h
1419 07-11-2013 00:40:00 14.6 C 10.76 g/m*3 14.6 C 14.5 km/h
1420 07-11-2013 00:45:00 14.6 C 10.89 g/m*3 14.6 C 16.1 km/h
1421 07-11-2013 00:50:00 14.6 C 10.89 g/m*3 14.6 C 9.7 km/h
1422 07-11-2013 00:55:00 14.6 C 10.89 g/m*3 14.6 C 14.5 km/h
1423 07-11-2013 01:00:00 14.6 C 10.89 g/m*3 14.6 C 11.3 km/h
1424 07-11-2013 01:05:00 14.5 C 10.94 g/m*3 14.5 C 16.1 km/h
1425 07-11-2013 01:10:00 14.4 C 10.88 g/m*3 14.4 C 12.9 km/h
Sensor: Nr:Datum:Temp:Abs-Feuchte:Windchill:Wind:
Aussen-T/F 1426 07-11-2013 01:15:00 14.4 C 10.88 g/m*3 14.4 C 14.5 km/h
1427 07-11-2013 01:20:00 14.5 C 10.94 g/m*3 14.5 C 8.1 km/h
1428 07-11-2013 01:25:00 14.6 C 10.89 g/m*3 14.6 C 9.7 km/h
1429 07-11-2013 01:30:00 14.6 C 10.89 g/m*3 14.6 C 9.7 km/h
1430 07-11-2013 01:35:00 14.6 C 10.89 g/m*3 14.6 C 16.1 km/h
1431 07-11-2013 01:40:00 14.7 C 10.95 g/m*3 14.7 C 16.1 km/h
1432 07-11-2013 01:45:00 14.7 C 10.83 g/m*3 14.7 C 6.4 km/h
1433 07-11-2013 01:50:00 14.8 C 10.89 g/m*3 14.8 C 9.7 km/h
1434 07-11-2013 01:55:00 14.8 C 10.89 g/m*3 14.8 C 22.5 km/h
1435 07-11-2013 02:00:00 14.9 C 10.83 g/m*3 14.9 C 16.1 km/h
1436 07-11-2013 02:05:00 14.9 C 10.83 g/m*3 14.9 C 14.5 km/h
1437 07-11-2013 02:10:00 14.9 C 10.83 g/m*3 14.9 C 17.7 km/h
1438 07-11-2013 02:15:00 14.9 C 10.83 g/m*3 14.9 C 14.5 km/h
1439 07-11-2013 02:20:00 14.9 C 10.71 g/m*3 14.9 C 16.1 km/h
1440 07-11-2013 02:25:00 15 C 10.77 g/m*3 15 C 16.1 km/h
1441 07-11-2013 02:30:00 15 C 10.77 g/m*3 15 C 20.9 km/h
1442 07-11-2013 02:35:00 15.1 C 10.84 g/m*3 15.1 C 16.1 km/h
1443 07-11-2013 02:40:00 15.1 C 10.84 g/m*3 15.1 C 16.1 km/h
1444 07-11-2013 02:45:00 15.1 C 10.84 g/m*3 15.1 C 14.5 km/h
1445 07-11-2013 02:50:00 15.1 C 10.84 g/m*3 15.1 C 20.9 km/h
1446 07-11-2013 02:55:00 15.1 C 10.84 g/m*3 15.1 C 12.9 km/h
1447 07-11-2013 03:00:00 15.1 C 10.71 g/m*3 15.1 C 14.5 km/h
1448 07-11-2013 03:05:00 15.1 C 10.71 g/m*3 15.1 C 8.1 km/h
1449 07-11-2013 03:10:00 15.1 C 10.71 g/m*3 15.1 C 16.1 km/h
1450 07-11-2013 03:15:00 15.1 C 10.71 g/m*3 15.1 C 8.1 km/h
Sensor: Nr:Datum:Temp:Abs-Feuchte:Windchill:Wind:
Aussen-T/F 1451 07-11-2013 03:20:00 15 C 10.64 g/m*3 15 C 9.7 km/h
1452 07-11-2013 03:25:00 14.9 C 10.58 g/m*3 14.9 C 14.5 km/h
1453 07-11-2013 03:30:00 15 C 10.64 g/m*3 15 C 14.5 km/h
1454 07-11-2013 03:35:00 15 C 10.64 g/m*3 15 C 9.7 km/h
1455 07-11-2013 03:40:00 15 C 10.64 g/m*3 15 C 9.7 km/h
1456 07-11-2013 03:45:00 14.9 C 10.58 g/m*3 14.9 C 16.1 km/h
1457 07-11-2013 03:50:00 14.9 C 10.58 g/m*3 14.9 C 14.5 km/h
1458 07-11-2013 03:55:00 14.9 C 10.58 g/m*3 14.9 C 9.7 km/h
1459 07-11-2013 04:00:00 14.9 C 10.58 g/m*3 14.9 C 11.3 km/h
1460 07-11-2013 04:05:00 14.8 C 10.51 g/m*3 14.8 C 11.3 km/h
1461 07-11-2013 04:10:00 14.8 C 10.64 g/m*3 14.8 C 8.1 km/h
1462 07-11-2013 04:15:00 14.8 C 10.64 g/m*3 14.8 C 12.9 km/h
1463 07-11-2013 04:20:00 14.8 C 10.64 g/m*3 14.8 C 11.3 km/h
1464 07-11-2013 04:25:00 14.8 C 10.64 g/m*3 14.8 C 9.7 km/h
1465 07-11-2013 04:30:00 14.8 C 10.64 g/m*3 14.8 C 12.9 km/h
1466 07-11-2013 04:35:00 14.8 C 10.64 g/m*3 14.8 C 16.1 km/h
1467 07-11-2013 04:40:00 14.8 C 10.64 g/m*3 14.8 C 11.3 km/h
1468 07-11-2013 04:45:00 14.8 C 10.64 g/m*3 14.8 C 20.9 km/h
1469 07-11-2013 04:50:00 14.8 C 10.64 g/m*3 14.8 C 16.1 km/h
1470 07-11-2013 04:55:00 14.8 C 10.64 g/m*3 14.8 C 22.5 km/h
1471 07-11-2013 05:00:00 14.8 C 10.64 g/m*3 14.8 C 27.4 km/h
1472 07-11-2013 05:05:00 14.7 C 10.7 g/m*3 14.7 C 17.7 km/h
1473 07-11-2013 05:10:00 14.7 C 10.7 g/m*3 14.7 C 27.4 km/h
1474 07-11-2013 05:15:00 14.7 C 10.7 g/m*3 14.7 C 29 km/h
1475 07-11-2013 05:20:00 14.7 C 10.7 g/m*3 14.7 C 19.3 km/h
Sensor: Nr:Datum:Temp:Abs-Feuchte:Windchill:Wind:
Aussen-T/F 1476 07-11-2013 05:25:00 14.6 C 10.64 g/m*3 14.6 C 27.4 km/h
1477 07-11-2013 05:30:00 14.6 C 10.64 g/m*3 14.6 C 24.1 km/h
1478 07-11-2013 05:35:00 14.7 C 10.58 g/m*3 14.7 C 22.5 km/h
1479 07-11-2013 05:40:00 14.7 C 10.58 g/m*3 14.7 C 33.8 km/h
1480 07-11-2013 05:45:00 14.7 C 10.58 g/m*3 14.7 C 22.5 km/h
1481 07-11-2013 05:50:00 14.7 C 10.58 g/m*3 14.7 C 33.8 km/h
1482 07-11-2013 05:55:00 14.7 C 10.45 g/m*3 14.7 C 33.8 km/h
1483 07-11-2013 06:00:00 14.7 C 10.45 g/m*3 14.7 C 22.5 km/h
1484 07-11-2013 06:05:00 14.8 C 10.51 g/m*3 14.8 C 25.7 km/h
1485 07-11-2013 06:10:00 14.8 C 10.51 g/m*3 14.8 C 22.5 km/h
1486 07-11-2013 06:15:00 14.8 C 10.51 g/m*3 14.8 C 16.1 km/h
1487 07-11-2013 06:20:00 14.7 C 10.45 g/m*3 14.7 C 19.3 km/h
1488 07-11-2013 06:25:00 14.7 C 10.45 g/m*3 14.7 C 27.4 km/h
1489 07-11-2013 06:30:00 14.7 C 10.45 g/m*3 14.7 C 20.9 km/h
1490 07-11-2013 06:35:00 14.8 C 10.51 g/m*3 14.8 C 27.4 km/h
1491 07-11-2013 06:40:00 14.8 C 10.51 g/m*3 14.8 C 19.3 km/h
1492 07-11-2013 06:45:00 14.8 C 10.39 g/m*3 14.8 C 19.3 km/h
1493 07-11-2013 06:50:00 14.8 C 10.51 g/m*3 14.8 C 32.2 km/h
1494 07-11-2013 06:55:00 14.8 C 10.51 g/m*3 14.8 C 35.4 km/h
1495 07-11-2013 07:00:00 14.8 C 10.51 g/m*3 14.8 C 30.6 km/h
1496 07-11-2013 07:05:00 14.8 C 10.51 g/m*3 14.8 C 29 km/h
1497 07-11-2013 07:10:00 14.8 C 10.51 g/m*3 14.8 C 20.9 km/h
1498 07-11-2013 07:15:00 14.7 C 10.45 g/m*3 14.7 C 33.8 km/h
1499 07-11-2013 07:20:00 14.8 C 10.51 g/m*3 14.8 C 22.5 km/h
1500 07-11-2013 07:25:00 14.8 C 10.51 g/m*3 14.8 C 19.3 km/h
Sensor: Nr:Datum:Temp:Abs-Feuchte:Windchill:Wind:
Aussen-T/F 1501 07-11-2013 07:30:00 14.7 C 10.45 g/m*3 14.7 C 37 km/h
1502 07-11-2013 07:35:00 14.7 C 10.45 g/m*3 14.7 C 22.5 km/h
1503 07-11-2013 07:40:00 14.7 C 10.45 g/m*3 14.7 C 24.1 km/h
1504 07-11-2013 07:45:00 14.7 C 10.58 g/m*3 14.7 C 27.4 km/h
1505 07-11-2013 07:50:00 14.6 C 10.51 g/m*3 14.6 C 30.6 km/h
1506 07-11-2013 07:55:00 14.5 C 10.57 g/m*3 14.5 C 27.4 km/h
1507 07-11-2013 08:00:00 14.4 C 10.51 g/m*3 14.4 C 17.7 km/h
1508 07-11-2013 08:05:00 14.3 C 10.57 g/m*3 14.3 C 25.7 km/h
1509 07-11-2013 08:10:00 14.3 C 10.44 g/m*3 14.3 C 16.1 km/h
1510 07-11-2013 08:15:00 14.3 C 10.57 g/m*3 14.3 C 19.3 km/h
1511 07-11-2013 08:20:00 14.3 C 10.57 g/m*3 14.3 C 20.9 km/h
1512 07-11-2013 08:25:00 14.3 C 10.57 g/m*3 14.3 C 19.3 km/h
1513 07-11-2013 08:30:00 14.3 C 10.57 g/m*3 14.3 C 22.5 km/h
1514 07-11-2013 08:35:00 14.3 C 10.57 g/m*3 14.3 C 29 km/h
1515 07-11-2013 08:40:00 14.3 C 10.57 g/m*3 14.3 C 17.7 km/h
1516 07-11-2013 08:45:00 14.3 C 10.69 g/m*3 14.3 C 24.1 km/h
1517 07-11-2013 08:50:00 14.4 C 10.75 g/m*3 14.4 C 20.9 km/h
1518 07-11-2013 08:55:00 14.4 C 10.75 g/m*3 14.4 C 20.9 km/h
1519 07-11-2013 09:00:00 14.4 C 10.75 g/m*3 14.4 C 14.5 km/h
1520 07-11-2013 09:05:00 14.4 C 10.75 g/m*3 14.4 C 14.5 km/h
1521 07-11-2013 09:10:00 14.4 C 10.75 g/m*3 14.4 C 17.7 km/h
1522 07-11-2013 09:15:00 14.5 C 10.82 g/m*3 14.5 C 25.7 km/h
1523 07-11-2013 09:20:00 14.5 C 10.82 g/m*3 14.5 C 19.3 km/h
1524 07-11-2013 09:25:00 14.5 C 10.7 g/m*3 14.5 C 19.3 km/h
1525 07-11-2013 09:30:00 14.6 C 10.76 g/m*3 14.6 C 24.1 km/h
Sensor: Nr:Datum:Temp:Abs-Feuchte:Windchill:Wind:
Aussen-T/F 1526 07-11-2013 09:35:00 14.7 C 10.83 g/m*3 14.7 C 25.7 km/h
1527 07-11-2013 09:40:00 14.7 C 10.83 g/m*3 14.7 C 25.7 km/h
1528 07-11-2013 09:45:00 14.7 C 10.7 g/m*3 14.7 C 16.1 km/h
1529 07-11-2013 09:50:00 14.7 C 10.7 g/m*3 14.7 C 22.5 km/h
1530 07-11-2013 09:55:00 14.7 C 10.7 g/m*3 14.7 C 19.3 km/h
1531 07-11-2013 10:00:00 14.8 C 10.77 g/m*3 14.8 C 25.7 km/h
1532 07-11-2013 10:05:00 14.8 C 10.77 g/m*3 14.8 C 24.1 km/h
1533 07-11-2013 10:10:00 14.8 C 10.89 g/m*3 14.8 C 24.1 km/h
1534 07-11-2013 10:15:00 14.8 C 10.77 g/m*3 14.8 C 22.5 km/h
1535 07-11-2013 10:20:00 14.9 C 10.83 g/m*3 14.9 C 33.8 km/h
1536 07-11-2013 10:25:00 15.1 C 10.84 g/m*3 15.1 C 22.5 km/h
1537 07-11-2013 10:30:00 15.2 C 11.03 g/m*3 15.2 C 24.1 km/h
1538 07-11-2013 10:35:00 15.2 C 10.9 g/m*3 15.2 C 25.7 km/h
1539 07-11-2013 10:40:00 15.2 C 11.03 g/m*3 15.2 C 24.1 km/h
1540 07-11-2013 10:45:00 15.2 C 11.03 g/m*3 15.2 C 25.7 km/h
1541 07-11-2013 10:50:00 15.2 C 10.9 g/m*3 15.2 C 30.6 km/h
1542 07-11-2013 10:55:00 15.3 C 10.97 g/m*3 15.3 C 27.4 km/h
1543 07-11-2013 11:00:00 15.3 C 10.97 g/m*3 15.3 C 25.7 km/h
1544 07-11-2013 11:05:00 15.4 C 10.9 g/m*3 15.4 C 19.3 km/h
1545 07-11-2013 11:10:00 15.5 C 10.97 g/m*3 15.5 C 24.1 km/h
1546 07-11-2013 11:15:00 15.6 C 10.91 g/m*3 15.6 C 24.1 km/h
1547 07-11-2013 11:20:00 15.7 C 10.97 g/m*3 15.7 C 25.7 km/h
1548 07-11-2013 11:25:00 15.7 C 10.97 g/m*3 15.7 C 22.5 km/h
1549 07-11-2013 11:30:00 15.8 C 11.04 g/m*3 15.8 C 24.1 km/h
1550 07-11-2013 11:35:00 15.8 C 11.04 g/m*3 15.8 C 22.5 km/h
Sensor: Nr:Datum:Temp:Abs-Feuchte:Windchill:Wind:
Aussen-T/F 1551 07-11-2013 11:40:00 15.8 C 10.9 g/m*3 15.8 C 22.5 km/h
1552 07-11-2013 11:45:00 15.8 C 11.04 g/m*3 15.8 C 22.5 km/h
1553 07-11-2013 11:50:00 15.7 C 10.97 g/m*3 15.7 C 19.3 km/h
1554 07-11-2013 11:55:00 15.7 C 10.97 g/m*3 15.7 C 19.3 km/h
1555 07-11-2013 12:00:00 15.7 C 10.97 g/m*3 15.7 C 20.9 km/h
1556 07-11-2013 12:05:00 15.9 C 11.1 g/m*3 15.9 C 22.5 km/h
1557 07-11-2013 12:10:00 15.9 C 10.97 g/m*3 15.9 C 16.1 km/h
1558 07-11-2013 12:15:00 16 C 11.04 g/m*3 16 C 17.7 km/h
1559 07-11-2013 12:20:00 15.9 C 10.97 g/m*3 15.9 C 30.6 km/h
1560 07-11-2013 12:25:00 15.9 C 10.97 g/m*3 15.9 C 25.7 km/h
1561 07-11-2013 12:30:00 15.9 C 10.97 g/m*3 15.9 C 25.7 km/h
1562 07-11-2013 12:35:00 15.8 C 10.9 g/m*3 15.8 C 17.7 km/h
1563 07-11-2013 12:40:00 15.8 C 10.9 g/m*3 15.8 C 24.1 km/h
1564 07-11-2013 12:45:00 15.8 C 11.04 g/m*3 15.8 C 17.7 km/h
1565 07-11-2013 12:50:00 15.8 C 11.04 g/m*3 15.8 C 12.9 km/h
1566 07-11-2013 12:55:00 15.8 C 11.04 g/m*3 15.8 C 14.5 km/h
1567 07-11-2013 13:00:00 15.9 C 11.1 g/m*3 15.9 C 14.5 km/h
1568 07-11-2013 13:05:00 16 C 11.04 g/m*3 16 C 19.3 km/h
1569 07-11-2013 13:10:00 16.1 C 11.1 g/m*3 16.1 C 25.7 km/h
1570 07-11-2013 13:15:00 16.1 C 11.1 g/m*3 16.1 C 17.7 km/h
1571 07-11-2013 13:20:00 16.1 C 11.1 g/m*3 16.1 C 11.3 km/h
1572 07-11-2013 13:25:00 16.2 C 11.17 g/m*3 16.2 C 16.1 km/h
1573 07-11-2013 13:30:00 16.2 C 11.03 g/m*3 16.2 C 19.3 km/h
1574 07-11-2013 13:35:00 16.3 C 11.1 g/m*3 16.3 C 19.3 km/h
1575 07-11-2013 13:40:00 16.3 C 11.1 g/m*3 16.3 C 17.7 km/h
Sensor: Nr:Datum:Temp:Abs-Feuchte:Windchill:Wind:
Aussen-T/F 1576 07-11-2013 13:45:00 16.4 C 11.17 g/m*3 16.4 C 16.1 km/h
1577 07-11-2013 13:50:00 16.4 C 11.17 g/m*3 16.4 C 19.3 km/h
1578 07-11-2013 13:55:00 16.3 C 11.1 g/m*3 16.3 C 20.9 km/h
1579 07-11-2013 14:00:00 16.3 C 11.1 g/m*3 16.3 C 25.7 km/h
1580 07-11-2013 14:05:00 16.3 C 11.1 g/m*3 16.3 C 20.9 km/h
1581 07-11-2013 14:10:00 16.3 C 11.1 g/m*3 16.3 C 19.3 km/h
1582 07-11-2013 14:15:00 16.3 C 11.1 g/m*3 16.3 C 17.7 km/h
1583 07-11-2013 14:20:00 16.2 C 11.03 g/m*3 16.2 C 19.3 km/h
1584 07-11-2013 14:25:00 16.2 C 11.03 g/m*3 16.2 C 20.9 km/h
1585 07-11-2013 14:30:00 16.3 C 11.1 g/m*3 16.3 C 17.7 km/h
1586 07-11-2013 14:35:00 16.3 C 11.1 g/m*3 16.3 C 22.5 km/h
1587 07-11-2013 14:40:00 16.4 C 11.03 g/m*3 16.4 C 14.5 km/h
1588 07-11-2013 14:45:00 16.4 C 11.03 g/m*3 16.4 C 24.1 km/h
1589 07-11-2013 14:50:00 16.4 C 11.03 g/m*3 16.4 C 20.9 km/h
1590 07-11-2013 14:55:00 16.4 C 11.03 g/m*3 16.4 C 17.7 km/h
1591 07-11-2013 15:00:00 16.4 C 11.03 g/m*3 16.4 C 16.1 km/h
1592 07-11-2013 15:05:00 16.4 C 11.03 g/m*3 16.4 C 16.1 km/h
1593 07-11-2013 15:10:00 16.4 C 10.89 g/m*3 16.4 C 19.3 km/h
1594 07-11-2013 15:15:00 16.4 C 11.03 g/m*3 16.4 C 12.9 km/h
1595 07-11-2013 15:20:00 16.4 C 11.03 g/m*3 16.4 C 14.5 km/h
1596 07-11-2013 15:25:00 16.3 C 10.82 g/m*3 16.3 C 22.5 km/h
1597 07-11-2013 15:30:00 16.3 C 10.96 g/m*3 16.3 C 19.3 km/h
1598 07-11-2013 15:35:00 16.2 C 10.89 g/m*3 16.2 C 14.5 km/h
1599 07-11-2013 15:40:00 16.2 C 10.89 g/m*3 16.2 C 20.9 km/h
1600 07-11-2013 15:45:00 16.2 C 10.89 g/m*3 16.2 C 19.3 km/h
Sensor: Nr:Datum:Temp:Abs-Feuchte:Windchill:Wind:
Aussen-T/F 1601 07-11-2013 15:50:00 16.2 C 11.03 g/m*3 16.2 C 17.7 km/h
1602 07-11-2013 15:55:00 16.2 C 10.89 g/m*3 16.2 C 24.1 km/h
1603 07-11-2013 16:00:00 16.1 C 10.97 g/m*3 16.1 C 16.1 km/h
1604 07-11-2013 16:05:00 16.1 C 10.97 g/m*3 16.1 C 16.1 km/h
1605 07-11-2013 16:10:00 15.9 C 10.83 g/m*3 15.9 C 12.9 km/h
1606 07-11-2013 16:15:00 15.8 C 10.9 g/m*3 15.8 C 9.7 km/h
1607 07-11-2013 16:20:00 15.7 C 10.84 g/m*3 15.7 C 9.7 km/h
1608 07-11-2013 16:25:00 15.7 C 10.97 g/m*3 15.7 C 14.5 km/h
1609 07-11-2013 16:30:00 15.7 C 10.97 g/m*3 15.7 C 12.9 km/h
1610 07-11-2013 16:35:00 15.6 C 10.91 g/m*3 15.6 C 14.5 km/h
1611 07-11-2013 16:40:00 15.6 C 10.91 g/m*3 15.6 C 12.9 km/h
1612 07-11-2013 16:45:00 15.5 C 10.84 g/m*3 15.5 C 9.7 km/h
1613 07-11-2013 16:50:00 15.4 C 10.77 g/m*3 15.4 C 11.3 km/h
1614 07-11-2013 16:55:00 15.4 C 10.9 g/m*3 15.4 C 9.7 km/h
1615 07-11-2013 17:00:00 15.3 C 10.84 g/m*3 15.3 C 9.7 km/h
1616 07-11-2013 17:05:00 15.3 C 10.84 g/m*3 15.3 C 8.1 km/h
1617 07-11-2013 17:10:00 15.2 C 10.77 g/m*3 15.2 C 9.7 km/h
1618 07-11-2013 17:15:00 15.2 C 10.9 g/m*3 15.2 C 6.4 km/h
1619 07-11-2013 17:20:00 15.2 C 10.9 g/m*3 15.2 C 4.8 km/h
1620 07-11-2013 17:25:00 15.2 C 10.9 g/m*3 15.2 C 16.1 km/h
1621 07-11-2013 17:30:00 15.2 C 10.9 g/m*3 15.2 C 9.7 km/h
1622 07-11-2013 17:35:00 15.2 C 11.03 g/m*3 15.2 C 14.5 km/h
1623 07-11-2013 17:40:00 15.1 C 10.97 g/m*3 15.1 C 11.3 km/h
1624 07-11-2013 17:45:00 15.1 C 10.97 g/m*3 15.1 C 8.1 km/h
1625 07-11-2013 17:50:00 15.1 C 10.97 g/m*3 15.1 C 6.4 km/h
Sensor: Nr:Datum:Temp:Abs-Feuchte:Windchill:Wind:
Aussen-T/F 1626 07-11-2013 17:55:00 15 C 10.9 g/m*3 15 C 11.3 km/h
1627 07-11-2013 18:00:00 15.1 C 10.84 g/m*3 15.1 C 11.3 km/h
1628 07-11-2013 18:05:00 15.1 C 10.97 g/m*3 15.1 C 11.3 km/h
1629 07-11-2013 18:10:00 15.1 C 10.97 g/m*3 15.1 C 11.3 km/h
1630 07-11-2013 18:15:00 15 C 11.03 g/m*3 15 C 14.5 km/h
1631 07-11-2013 18:20:00 14.8 C 11.02 g/m*3 14.8 C 11.3 km/h
1632 07-11-2013 18:25:00 14.6 C 11.01 g/m*3 14.6 C 1.6 km/h
1633 07-11-2013 18:30:00 14.4 C 11 g/m*3 14.4 C 6.4 km/h
1634 07-11-2013 18:35:00 14.3 C 11.06 g/m*3 14.3 C 6.4 km/h
1635 07-11-2013 18:40:00 14.2 C 10.99 g/m*3 14.2 C 1.6 km/h
1636 07-11-2013 18:45:00 14.1 C 11.04 g/m*3 14.1 C 1.6 km/h
1637 07-11-2013 18:50:00 13.9 C 10.91 g/m*3 13.9 C 3.2 km/h
1638 07-11-2013 18:55:00 13.9 C 10.91 g/m*3 13.9 C 6.4 km/h
1639 07-11-2013 19:00:00 13.8 C 10.84 g/m*3 13.8 C 4.8 km/h
1640 07-11-2013 19:05:00 13.6 C 10.71 g/m*3 13.6 C 3.2 km/h
1641 07-11-2013 19:10:00 13.6 C 10.83 g/m*3 13.6 C 3.2 km/h
1642 07-11-2013 19:15:00 13.5 C 10.76 g/m*3 13.5 C 1.6 km/h
1643 07-11-2013 19:20:00 13.5 C 10.76 g/m*3 13.5 C 12.9 km/h
1644 07-11-2013 19:25:00 13.8 C 10.84 g/m*3 13.8 C 9.7 km/h
1645 07-11-2013 19:30:00 14.1 C 11.04 g/m*3 14.1 C 4.8 km/h
1646 07-11-2013 19:35:00 14.2 C 10.99 g/m*3 14.2 C 9.7 km/h
1647 07-11-2013 19:40:00 14.2 C 10.99 g/m*3 14.2 C 6.4 km/h
1648 07-11-2013 19:45:00 14.2 C 10.99 g/m*3 14.2 C 1.6 km/h
1649 07-11-2013 19:50:00 14.2 C 10.99 g/m*3 14.2 C 1.6 km/h
1650 07-11-2013 19:55:00 14.1 C 10.92 g/m*3 14.1 C 3.2 km/h
Sensor: Nr:Datum:Temp:Abs-Feuchte:Windchill:Wind:
Aussen-T/F 1651 07-11-2013 20:00:00 14 C 10.86 g/m*3 14 C 1.6 km/h
1652 07-11-2013 20:05:00 14 C 10.98 g/m*3 14 C 1.6 km/h
1653 07-11-2013 20:10:00 14.1 C 10.92 g/m*3 14.1 C 3.2 km/h
1654 07-11-2013 20:15:00 14.2 C 10.99 g/m*3 14.2 C 9.7 km/h
1655 07-11-2013 20:20:00 14.3 C 10.93 g/m*3 14.3 C 4.8 km/h
1656 07-11-2013 20:25:00 14.4 C 10.88 g/m*3 14.4 C 6.4 km/h
1657 07-11-2013 20:30:00 14.4 C 10.88 g/m*3 14.4 C 8.1 km/h
1658 07-11-2013 20:35:00 14.4 C 10.88 g/m*3 14.4 C 4.8 km/h
1659 07-11-2013 20:40:00 14.5 C 10.94 g/m*3 14.5 C 4.8 km/h
1660 07-11-2013 20:45:00 14.6 C 11.01 g/m*3 14.6 C 9.7 km/h
1661 07-11-2013 20:50:00 14.7 C 10.95 g/m*3 14.7 C 9.7 km/h
1662 07-11-2013 20:55:00 14.8 C 11.02 g/m*3 14.8 C 8.1 km/h
1663 07-11-2013 21:00:00 14.8 C 11.02 g/m*3 14.8 C 11.3 km/h
1664 07-11-2013 21:05:00 14.9 C 10.96 g/m*3 14.9 C 8.1 km/h
1665 07-11-2013 21:10:00 14.9 C 10.96 g/m*3 14.9 C 4.8 km/h
1666 07-11-2013 21:15:00 14.9 C 10.96 g/m*3 14.9 C 4.8 km/h
1667 07-11-2013 21:20:00 14.9 C 10.96 g/m*3 14.9 C 4.8 km/h
1668 07-11-2013 21:25:00 14.9 C 10.96 g/m*3 14.9 C 4.8 km/h
1669 07-11-2013 21:30:00 15 C 11.03 g/m*3 15 C 6.4 km/h
1670 07-11-2013 21:35:00 15 C 11.03 g/m*3 15 C 6.4 km/h
1671 07-11-2013 21:40:00 15.1 C 10.97 g/m*3 15.1 C 6.4 km/h
1672 07-11-2013 21:45:00 15.2 C 11.03 g/m*3 15.2 C 14.5 km/h
1673 07-11-2013 21:50:00 15.3 C 10.97 g/m*3 15.3 C 9.7 km/h
1674 07-11-2013 21:55:00 15.3 C 10.97 g/m*3 15.3 C 9.7 km/h
1675 07-11-2013 22:00:00 15.4 C 10.9 g/m*3 15.4 C 9.7 km/h
Sensor: Nr:Datum:Temp:Abs-Feuchte:Windchill:Wind:
Aussen-T/F 1676 07-11-2013 22:05:00 15.4 C 11.04 g/m*3 15.4 C 6.4 km/h
1677 07-11-2013 22:10:00 15.4 C 10.9 g/m*3 15.4 C 14.5 km/h
1678 07-11-2013 22:15:00 15.4 C 10.9 g/m*3 15.4 C 11.3 km/h
1679 07-11-2013 22:20:00 15.5 C 10.97 g/m*3 15.5 C 11.3 km/h
1680 07-11-2013 22:25:00 15.4 C 11.04 g/m*3 15.4 C 12.9 km/h
1681 07-11-2013 22:30:00 15.3 C 11.23 g/m*3 15.3 C 12.9 km/h
1682 07-11-2013 22:35:00 15.1 C 11.22 g/m*3 15.1 C 9.7 km/h
1683 07-11-2013 22:40:00 14.9 C 11.22 g/m*3 14.9 C 4.8 km/h
1684 07-11-2013 22:45:00 14.8 C 11.27 g/m*3 14.8 C 4.8 km/h
1685 07-11-2013 22:50:00 14.7 C 11.21 g/m*3 14.7 C 6.4 km/h
1686 07-11-2013 22:55:00 14.6 C 11.14 g/m*3 14.6 C 3.2 km/h
1687 07-11-2013 23:00:00 14.6 C 11.14 g/m*3 14.6 C 8.1 km/h
1688 07-11-2013 23:05:00 14.6 C 11.14 g/m*3 14.6 C 8.1 km/h
1689 07-11-2013 23:10:00 14.6 C 11.26 g/m*3 14.6 C 8.1 km/h
1690 07-11-2013 23:15:00 14.6 C 11.26 g/m*3 14.6 C 6.4 km/h
1691 07-11-2013 23:20:00 14.6 C 11.26 g/m*3 14.6 C 6.4 km/h
1692 07-11-2013 23:25:00 14.6 C 11.26 g/m*3 14.6 C 3.2 km/h
1693 07-11-2013 23:30:00 14.7 C 11.21 g/m*3 14.7 C 9.7 km/h
1694 07-11-2013 23:35:00 14.7 C 11.21 g/m*3 14.7 C 6.4 km/h
1695 07-11-2013 23:40:00 14.8 C 11.27 g/m*3 14.8 C 4.8 km/h
1696 07-11-2013 23:45:00 14.8 C 11.27 g/m*3 14.8 C 8.1 km/h
1697 07-11-2013 23:50:00 14.8 C 11.27 g/m*3 14.8 C 4.8 km/h
1698 07-11-2013 23:55:00 14.9 C 11.22 g/m*3 14.9 C 14.5 km/h
1699 08-11-2013 00:00:00 14.9 C 11.22 g/m*3 14.9 C 6.4 km/h
1700 08-11-2013 00:05:00 14.9 C 11.22 g/m*3 14.9 C 6.4 km/h
Sensor: Nr:Datum:Temp:Abs-Feuchte:Windchill:Wind:
Aussen-T/F 1701 08-11-2013 00:10:00 15 C 11.28 g/m*3 15 C 9.7 km/h
1702 08-11-2013 00:15:00 15.1 C 11.35 g/m*3 15.1 C 11.3 km/h
1703 08-11-2013 00:20:00 15.1 C 11.22 g/m*3 15.1 C 3.2 km/h
1704 08-11-2013 00:25:00 15.1 C 11.35 g/m*3 15.1 C 6.4 km/h
1705 08-11-2013 00:30:00 15 C 11.28 g/m*3 15 C 6.4 km/h
1706 08-11-2013 00:35:00 15 C 11.28 g/m*3 15 C 9.7 km/h
1707 08-11-2013 00:40:00 15 C 11.16 g/m*3 15 C 9.7 km/h
1708 08-11-2013 00:45:00 15.1 C 11.35 g/m*3 15.1 C 11.3 km/h
1709 08-11-2013 00:50:00 15 C 11.28 g/m*3 15 C 9.7 km/h
1710 08-11-2013 00:55:00 14.9 C 11.34 g/m*3 14.9 C 4.8 km/h
1711 08-11-2013 01:00:00 14.8 C 11.4 g/m*3 14.8 C 11.3 km/h
1712 08-11-2013 01:05:00 14.7 C 11.33 g/m*3 14.7 C 6.4 km/h
1713 08-11-2013 01:10:00 14.6 C 11.39 g/m*3 14.6 C 9.7 km/h
1714 08-11-2013 01:15:00 14.6 C 11.39 g/m*3 14.6 C 11.3 km/h
1715 08-11-2013 01:20:00 14.4 C 11.37 g/m*3 14.4 C 6.4 km/h
1716 08-11-2013 01:25:00 14.4 C 11.37 g/m*3 14.4 C 12.9 km/h
1717 08-11-2013 01:30:00 13.8 C 10.6 g/m*3 13.8 C 16.1 km/h
1718 08-11-2013 01:35:00 13.2 C 10.33 g/m*3 13.2 C 14.5 km/h
1719 08-11-2013 01:40:00 12.7 C 10.24 g/m*3 12.7 C 16.1 km/h
1720 08-11-2013 01:45:00 12.3 C 9.99 g/m*3 12.3 C 6.4 km/h
1721 08-11-2013 01:50:00 12.3 C 9.99 g/m*3 12.3 C 6.4 km/h
1722 08-11-2013 01:55:00 12 C 9.8 g/m*3 12 C 4.8 km/h
1723 08-11-2013 02:00:00 11.9 C 9.96 g/m*3 11.9 C 6.4 km/h
1724 08-11-2013 02:05:00 11.9 C 9.96 g/m*3 11.9 C 6.4 km/h
1725 08-11-2013 02:10:00 11.9 C 9.96 g/m*3 11.9 C 6.4 km/h
Sensor: Nr:Datum:Temp:Abs-Feuchte:Windchill:Wind:
Aussen-T/F 1726 08-11-2013 02:15:00 11.9 C 9.96 g/m*3 11.9 C 4.8 km/h
1727 08-11-2013 05:25:00 10.8 C 9.59 g/m*3 10.8 C 0 km/h
1728 08-11-2013 05:30:00 10.8 C 9.59 g/m*3 10.8 C 0 km/h
1729 08-11-2013 05:35:00 10.8 C 9.59 g/m*3 10.8 C 0 km/h
1730 08-11-2013 05:40:00 10.8 C 9.59 g/m*3 10.8 C 0 km/h
1731 08-11-2013 05:45:00 10.7 C 9.53 g/m*3 10.7 C 0 km/h
1732 08-11-2013 05:50:00 10.7 C 9.53 g/m*3 10.7 C 0 km/h
1733 08-11-2013 05:55:00 10.7 C 9.53 g/m*3 10.7 C 3.2 km/h
1734 08-11-2013 06:00:00 10.7 C 9.53 g/m*3 10.7 C 1.6 km/h
1735 08-11-2013 06:05:00 10.7 C 9.53 g/m*3 10.7 C 3.2 km/h
1736 08-11-2013 06:10:00 10.7 C 9.53 g/m*3 10.7 C 3.2 km/h
1737 08-11-2013 06:15:00 10.6 C 9.47 g/m*3 10.6 C 3.2 km/h
1738 08-11-2013 06:20:00 10.6 C 9.47 g/m*3 10.6 C 0 km/h
1739 08-11-2013 06:25:00 10.6 C 9.47 g/m*3 10.6 C 1.6 km/h
1740 08-11-2013 06:30:00 10.5 C 9.41 g/m*3 10.5 C 1.6 km/h
1741 08-11-2013 06:35:00 10.4 C 9.35 g/m*3 10.4 C 1.6 km/h
1742 08-11-2013 06:40:00 10.4 C 9.35 g/m*3 10.4 C 0 km/h
1743 08-11-2013 06:45:00 10.4 C 9.35 g/m*3 10.4 C 0 km/h
1744 08-11-2013 06:50:00 10.4 C 9.35 g/m*3 10.4 C 0 km/h
1745 08-11-2013 06:55:00 10.3 C 9.29 g/m*3 10.3 C 0 km/h
1746 08-11-2013 07:00:00 10.3 C 9.29 g/m*3 10.3 C 0 km/h
1747 08-11-2013 07:05:00 10.3 C 9.29 g/m*3 10.3 C 0 km/h
1748 08-11-2013 07:10:00 10.3 C 9.29 g/m*3 10.3 C 0 km/h
1749 08-11-2013 07:15:00 10.3 C 9.29 g/m*3 10.3 C 0 km/h
1750 08-11-2013 07:20:00 10.2 C 9.23 g/m*3 10.2 C 0 km/h
Sensor: Nr:Datum:Temp:Abs-Feuchte:Windchill:Wind:
Aussen-T/F 1751 08-11-2013 07:25:00 10.2 C 9.23 g/m*3 10.2 C 0 km/h
1752 08-11-2013 07:30:00 9.9 C 9.06 g/m*3 9.9 C 1.6 km/h
1753 08-11-2013 07:35:00 9.8 C 9 g/m*3 9.8 C 0 km/h
1754 08-11-2013 07:40:00 9.8 C 9 g/m*3 9.8 C 0 km/h
1755 08-11-2013 07:45:00 9.9 C 9.06 g/m*3 9.9 C 1.6 km/h
1756 08-11-2013 07:50:00 9.9 C 9.06 g/m*3 9.9 C 0 km/h
1757 08-11-2013 07:55:00 9.9 C 9.06 g/m*3 9.9 C 0 km/h
1758 08-11-2013 08:00:00 9.9 C 9.06 g/m*3 9.9 C 0 km/h
1759 08-11-2013 08:05:00 9.9 C 9.15 g/m*3 9.9 C 0 km/h
1760 08-11-2013 08:10:00 9.9 C 9.15 g/m*3 9.9 C 0 km/h
1761 08-11-2013 08:15:00 10 C 9.21 g/m*3 10 C 0 km/h
1762 08-11-2013 08:20:00 10.1 C 9.27 g/m*3 10.1 C 0 km/h
1763 08-11-2013 08:25:00 10.1 C 9.27 g/m*3 10.1 C 0 km/h
1764 08-11-2013 08:30:00 10.2 C 9.33 g/m*3 10.2 C 0 km/h
1765 08-11-2013 08:35:00 10.2 C 9.33 g/m*3 10.2 C 0 km/h
1766 08-11-2013 08:40:00 10.2 C 9.33 g/m*3 10.2 C 0 km/h
1767 08-11-2013 08:45:00 10.3 C 9.39 g/m*3 10.3 C 0 km/h
1768 08-11-2013 08:50:00 10.3 C 9.39 g/m*3 10.3 C 0 km/h
1769 08-11-2013 08:55:00 10.3 C 9.39 g/m*3 10.3 C 0 km/h
1770 08-11-2013 09:00:00 10.3 C 9.39 g/m*3 10.3 C 0 km/h
1771 08-11-2013 09:55:00 10.8 C 9.69 g/m*3 10.8 C 0 km/h
1772 08-11-2013 10:00:00 10.8 C 9.69 g/m*3 10.8 C 0 km/h
1773 08-11-2013 10:05:00 10.8 C 9.69 g/m*3 10.8 C 0 km/h
1774 08-11-2013 10:10:00 11.1 C 9.87 g/m*3 11.1 C 4.8 km/h
1775 08-11-2013 10:15:00 11.1 C 9.87 g/m*3 11.1 C 8.1 km/h
Sensor: Nr:Datum:Temp:Abs-Feuchte:Windchill:Wind:
Aussen-T/F 1776 08-11-2013 10:20:00 11.1 C 9.87 g/m*3 11.1 C 8.1 km/h
1777 08-11-2013 10:25:00 11.2 C 9.83 g/m*3 11.2 C 4.8 km/h
1778 08-11-2013 10:30:00 11.2 C 9.93 g/m*3 11.2 C 6.4 km/h
1779 08-11-2013 10:35:00 11.3 C 9.89 g/m*3 11.3 C 8.1 km/h
1780 08-11-2013 10:40:00 11.3 C 9.89 g/m*3 11.3 C 6.4 km/h
1781 08-11-2013 10:45:00 11.4 C 9.96 g/m*3 11.4 C 3.2 km/h
1782 08-11-2013 10:50:00 11.5 C 10.02 g/m*3 11.5 C 3.2 km/h
1783 08-11-2013 10:55:00 11.6 C 9.98 g/m*3 11.6 C 4.8 km/h
1784 08-11-2013 11:00:00 11.7 C 10.04 g/m*3 11.7 C 3.2 km/h
1785 08-11-2013 11:05:00 11.7 C 9.94 g/m*3 11.7 C 4.8 km/h
1786 08-11-2013 11:10:00 11.8 C 9.89 g/m*3 11.8 C 6.4 km/h
1787 08-11-2013 11:15:00 11.8 C 9.89 g/m*3 11.8 C 4.8 km/h
1788 08-11-2013 11:20:00 11.9 C 9.96 g/m*3 11.9 C 3.2 km/h
1789 08-11-2013 11:25:00 11.9 C 9.85 g/m*3 11.9 C 3.2 km/h
1790 08-11-2013 11:30:00 12 C 9.91 g/m*3 12 C 4.8 km/h
1791 08-11-2013 11:35:00 12.1 C 9.97 g/m*3 12.1 C 6.4 km/h
1792 08-11-2013 11:40:00 12.2 C 10.04 g/m*3 12.2 C 4.8 km/h
1793 08-11-2013 11:45:00 12.2 C 9.93 g/m*3 12.2 C 0 km/h
1794 08-11-2013 11:50:00 12.2 C 9.93 g/m*3 12.2 C 0 km/h
1795 08-11-2013 11:55:00 12.3 C 9.99 g/m*3 12.3 C 0 km/h
1796 08-11-2013 12:00:00 12.4 C 10.05 g/m*3 12.4 C 0 km/h
1797 08-11-2013 12:05:00 12.4 C 9.94 g/m*3 12.4 C 0 km/h
1798 08-11-2013 12:10:00 12.4 C 9.94 g/m*3 12.4 C 0 km/h
1799 08-11-2013 12:15:00 12.5 C 10 g/m*3 12.5 C 0 km/h
1800 08-11-2013 12:20:00 12.6 C 10.07 g/m*3 12.6 C 0 km/h
Sensor: Nr:Datum:Temp:Abs-Feuchte:Windchill:Wind:
Aussen-T/F 1801 08-11-2013 12:25:00 12.6 C 10.07 g/m*3 12.6 C 0 km/h
1802 08-11-2013 12:30:00 12.6 C 10.07 g/m*3 12.6 C 0 km/h
1803 08-11-2013 12:35:00 12.7 C 10.02 g/m*3 12.7 C 0 km/h
1804 08-11-2013 12:40:00 12.8 C 10.19 g/m*3 12.8 C 0 km/h
1805 08-11-2013 12:45:00 12.8 C 10.19 g/m*3 12.8 C 3.2 km/h
1806 08-11-2013 12:50:00 12.8 C 10.08 g/m*3 12.8 C 6.4 km/h
1807 08-11-2013 12:55:00 12.8 C 10.08 g/m*3 12.8 C 0 km/h
1808 08-11-2013 13:00:00 12.9 C 10.26 g/m*3 12.9 C 0 km/h
1809 08-11-2013 13:05:00 12.9 C 10.26 g/m*3 12.9 C 0 km/h
1810 08-11-2013 13:10:00 13.1 C 10.5 g/m*3 13.1 C 0 km/h
1811 08-11-2013 13:15:00 13.2 C 10.45 g/m*3 13.2 C 0 km/h
1812 08-11-2013 13:20:00 13.2 C 10.45 g/m*3 13.2 C 3.2 km/h
1813 08-11-2013 13:25:00 13.3 C 10.51 g/m*3 13.3 C 3.2 km/h
1814 08-11-2013 13:30:00 13.4 C 10.46 g/m*3 13.4 C 3.2 km/h
1815 08-11-2013 13:35:00 13.5 C 10.53 g/m*3 13.5 C 3.2 km/h
1816 08-11-2013 13:40:00 13.6 C 10.47 g/m*3 13.6 C 4.8 km/h
1817 08-11-2013 13:45:00 13.6 C 10.59 g/m*3 13.6 C 1.6 km/h
1818 08-11-2013 13:50:00 13.6 C 10.47 g/m*3 13.6 C 1.6 km/h
1819 08-11-2013 13:55:00 13.6 C 10.36 g/m*3 13.6 C 0 km/h
1820 08-11-2013 14:00:00 13.6 C 10.36 g/m*3 13.6 C 1.6 km/h
1821 08-11-2013 14:05:00 13.5 C 10.29 g/m*3 13.5 C 0 km/h
1822 08-11-2013 14:10:00 13.5 C 10.29 g/m*3 13.5 C 0 km/h
1823 08-11-2013 14:15:00 13.5 C 10.29 g/m*3 13.5 C 0 km/h
1824 08-11-2013 14:20:00 13.4 C 10.11 g/m*3 13.4 C 0 km/h
1825 08-11-2013 14:25:00 13.4 C 10.35 g/m*3 13.4 C 3.2 km/h
Sensor: Nr:Datum:Temp:Abs-Feuchte:Windchill:Wind:
Aussen-T/F 1826 08-11-2013 14:30:00 13.3 C 10.4 g/m*3 13.3 C 3.2 km/h
1827 08-11-2013 14:35:00 13.2 C 10.33 g/m*3 13.2 C 0 km/h
1828 08-11-2013 14:40:00 13.1 C 10.38 g/m*3 13.1 C 0 km/h
1829 08-11-2013 14:45:00 12.9 C 10.26 g/m*3 12.9 C 0 km/h
1830 08-11-2013 14:50:00 12.8 C 10.3 g/m*3 12.8 C 0 km/h
1831 08-11-2013 14:55:00 12.8 C 10.42 g/m*3 12.8 C 0 km/h
1832 08-11-2013 15:00:00 12.7 C 10.35 g/m*3 12.7 C 0 km/h
1833 08-11-2013 15:05:00 12.6 C 10.29 g/m*3 12.6 C 0 km/h
1834 08-11-2013 15:10:00 12.4 C 10.16 g/m*3 12.4 C 0 km/h
1835 08-11-2013 15:15:00 12.3 C 10.21 g/m*3 12.3 C 0 km/h
1836 08-11-2013 15:20:00 12.2 C 10.14 g/m*3 12.2 C 0 km/h
1837 08-11-2013 15:25:00 12.1 C 10.08 g/m*3 12.1 C 0 km/h
1838 08-11-2013 15:30:00 12 C 10.02 g/m*3 12 C 0 km/h
1839 08-11-2013 15:35:00 11.9 C 10.06 g/m*3 11.9 C 0 km/h
1840 08-11-2013 15:40:00 11.8 C 10 g/m*3 11.8 C 0 km/h
1841 08-11-2013 15:45:00 11.8 C 10 g/m*3 11.8 C 0 km/h
1842 08-11-2013 15:50:00 11.7 C 9.94 g/m*3 11.7 C 0 km/h
1843 08-11-2013 15:55:00 11.6 C 9.98 g/m*3 11.6 C 0 km/h
1844 08-11-2013 16:00:00 11.6 C 9.98 g/m*3 11.6 C 0 km/h
1845 08-11-2013 16:05:00 11.5 C 9.92 g/m*3 11.5 C 0 km/h
1846 08-11-2013 16:10:00 11.5 C 9.92 g/m*3 11.5 C 0 km/h
1847 08-11-2013 16:15:00 11.5 C 9.92 g/m*3 11.5 C 0 km/h
1848 08-11-2013 16:20:00 11.5 C 9.92 g/m*3 11.5 C 0 km/h
1849 08-11-2013 16:40:00 11.4 C 9.96 g/m*3 11.4 C 0 km/h
1850 08-11-2013 16:45:00 11.3 C 9.89 g/m*3 11.3 C 4.8 km/h
Sensor: Nr:Datum:Temp:Abs-Feuchte:Windchill:Wind:
Aussen-T/F 1851 08-11-2013 16:50:00 11.2 C 9.73 g/m*3 11.2 C 8.1 km/h
1852 08-11-2013 16:55:00 11.2 C 9.73 g/m*3 11.2 C 4.8 km/h
1853 08-11-2013 17:00:00 11.2 C 9.63 g/m*3 11.2 C 11.3 km/h
1854 08-11-2013 17:05:00 11.2 C 9.63 g/m*3 11.2 C 9.7 km/h
1855 08-11-2013 17:10:00 11.2 C 9.63 g/m*3 11.2 C 4.8 km/h
1856 08-11-2013 17:15:00 11.2 C 9.63 g/m*3 11.2 C 8.1 km/h
1857 08-11-2013 17:20:00 11.2 C 9.63 g/m*3 11.2 C 3.2 km/h
1858 08-11-2013 17:25:00 11.2 C 9.63 g/m*3 11.2 C 6.4 km/h
1859 08-11-2013 17:30:00 11.2 C 9.53 g/m*3 11.2 C 11.3 km/h
1860 08-11-2013 17:35:00 11.2 C 9.53 g/m*3 11.2 C 6.4 km/h
1861 08-11-2013 17:40:00 11.2 C 9.53 g/m*3 11.2 C 4.8 km/h
1862 08-11-2013 17:45:00 11.2 C 9.53 g/m*3 11.2 C 6.4 km/h
1863 08-11-2013 17:50:00 11.2 C 9.53 g/m*3 11.2 C 3.2 km/h
1864 08-11-2013 17:55:00 11.2 C 9.53 g/m*3 11.2 C 4.8 km/h
1865 08-11-2013 18:00:00 11.2 C 9.53 g/m*3 11.2 C 6.4 km/h
1866 08-11-2013 18:05:00 11.3 C 9.59 g/m*3 11.3 C 9.7 km/h
1867 08-11-2013 18:10:00 11.3 C 9.59 g/m*3 11.3 C 8.1 km/h
1868 08-11-2013 18:15:00 11.3 C 9.59 g/m*3 11.3 C 3.2 km/h
1869 08-11-2013 18:20:00 11.3 C 9.59 g/m*3 11.3 C 6.4 km/h
1870 08-11-2013 18:25:00 11.3 C 9.59 g/m*3 11.3 C 3.2 km/h
1871 08-11-2013 18:30:00 11.3 C 9.59 g/m*3 11.3 C 4.8 km/h
1872 08-11-2013 18:35:00 11.3 C 9.59 g/m*3 11.3 C 4.8 km/h
1873 08-11-2013 18:40:00 11.3 C 9.59 g/m*3 11.3 C 11.3 km/h
1874 08-11-2013 18:45:00 11.3 C 9.59 g/m*3 11.3 C 1.6 km/h
1875 08-11-2013 18:50:00 11.3 C 9.69 g/m*3 11.3 C 1.6 km/h
Sensor: Nr:Datum:Temp:Abs-Feuchte:Windchill:Wind:
Aussen-T/F 1876 08-11-2013 18:55:00 11.3 C 9.69 g/m*3 11.3 C 1.6 km/h
1877 08-11-2013 20:20:00 10.4 C 9.25 g/m*3 10.4 C 0 km/h
1878 08-11-2013 20:25:00 10.4 C 9.25 g/m*3 10.4 C 3.2 km/h
1879 08-11-2013 20:30:00 10.3 C 9.19 g/m*3 10.3 C 1.6 km/h
1880 08-11-2013 20:35:00 10.3 C 9.29 g/m*3 10.3 C 1.6 km/h
1881 08-11-2013 20:40:00 10.3 C 9.29 g/m*3 10.3 C 3.2 km/h
1882 08-11-2013 20:45:00 10.3 C 9.29 g/m*3 10.3 C 3.2 km/h
1883 08-11-2013 20:50:00 10.4 C 9.35 g/m*3 10.4 C 3.2 km/h
1884 08-11-2013 20:55:00 10.5 C 9.41 g/m*3 10.5 C 0 km/h
1885 08-11-2013 21:25:00 10.8 C 9.59 g/m*3 9.64 C 9.7 km/h
1886 08-11-2013 21:40:00 11.2 C 9.83 g/m*3 11.2 C 6.4 km/h
1887 08-11-2013 21:45:00 11.4 C 9.85 g/m*3 11.4 C 11.3 km/h
1888 08-11-2013 21:50:00 11.6 C 9.87 g/m*3 11.6 C 11.3 km/h
1889 08-11-2013 21:55:00 11.9 C 9.85 g/m*3 11.9 C 14.5 km/h
1890 08-11-2013 22:00:00 12.1 C 9.76 g/m*3 12.1 C 11.3 km/h
1891 08-11-2013 22:05:00 12.2 C 9.71 g/m*3 12.2 C 16.1 km/h
1892 08-11-2013 22:10:00 12.3 C 9.66 g/m*3 12.3 C 14.5 km/h
1893 08-11-2013 22:15:00 12.4 C 9.62 g/m*3 12.4 C 12.9 km/h
1894 08-11-2013 22:20:00 12.4 C 9.62 g/m*3 12.4 C 16.1 km/h
1895 08-11-2013 22:25:00 12.4 C 9.51 g/m*3 12.4 C 14.5 km/h
1896 08-11-2013 22:30:00 12.5 C 9.57 g/m*3 12.5 C 11.3 km/h
1897 08-11-2013 22:35:00 12.6 C 9.51 g/m*3 12.6 C 12.9 km/h
1898 08-11-2013 22:40:00 12.6 C 9.51 g/m*3 12.6 C 19.3 km/h
1899 08-11-2013 22:45:00 12.7 C 9.57 g/m*3 12.7 C 16.1 km/h
1900 08-11-2013 22:50:00 12.6 C 9.4 g/m*3 12.6 C 14.5 km/h
Sensor: Nr:Datum:Temp:Abs-Feuchte:Windchill:Wind:
Aussen-T/F 1901 08-11-2013 22:55:00 12.6 C 9.51 g/m*3 12.6 C 12.9 km/h
1902 08-11-2013 23:00:00 12.6 C 9.4 g/m*3 12.6 C 14.5 km/h
1903 08-11-2013 23:05:00 12.6 C 9.4 g/m*3 12.6 C 20.9 km/h
1904 08-11-2013 23:10:00 12.7 C 9.46 g/m*3 12.7 C 16.1 km/h
1905 08-11-2013 23:15:00 12.6 C 9.4 g/m*3 12.6 C 12.9 km/h
1906 08-11-2013 23:20:00 12.7 C 9.35 g/m*3 12.7 C 20.9 km/h
1907 08-11-2013 23:25:00 12.7 C 9.24 g/m*3 12.7 C 22.5 km/h
1908 08-11-2013 23:30:00 12.7 C 9.13 g/m*3 12.7 C 32.2 km/h
1909 08-11-2013 23:35:00 12.7 C 9.13 g/m*3 12.7 C 25.7 km/h
1910 08-11-2013 23:40:00 12.6 C 9.07 g/m*3 12.6 C 19.3 km/h
1911 08-11-2013 23:45:00 12.5 C 9.13 g/m*3 12.5 C 17.7 km/h
1912 08-11-2013 23:50:00 12.4 C 9.07 g/m*3 12.4 C 9.7 km/h
1913 08-11-2013 23:55:00 12.4 C 9.07 g/m*3 12.4 C 12.9 km/h
1914 09-11-2013 00:00:00 12.3 C 8.9 g/m*3 12.3 C 12.9 km/h
1915 09-11-2013 00:05:00 12.3 C 9.01 g/m*3 12.3 C 20.9 km/h
1916 09-11-2013 00:10:00 12.3 C 9.01 g/m*3 12.3 C 14.5 km/h
1917 09-11-2013 00:15:00 12.2 C 9.06 g/m*3 12.2 C 8.1 km/h
1918 09-11-2013 00:20:00 12.2 C 9.06 g/m*3 12.2 C 8.1 km/h
1919 09-11-2013 00:25:00 12.1 C 9.01 g/m*3 12.1 C 11.3 km/h
1920 09-11-2013 00:30:00 12.1 C 9.01 g/m*3 12.1 C 19.3 km/h
1921 09-11-2013 00:35:00 12.1 C 9.01 g/m*3 12.1 C 20.9 km/h
1922 09-11-2013 00:40:00 12.2 C 8.96 g/m*3 12.2 C 12.9 km/h
1923 09-11-2013 00:45:00 12.1 C 8.9 g/m*3 12.1 C 11.3 km/h
1924 09-11-2013 00:50:00 12.1 C 9.01 g/m*3 12.1 C 11.3 km/h
1925 09-11-2013 00:55:00 12.1 C 8.9 g/m*3 12.1 C 14.5 km/h
Sensor: Nr:Datum:Temp:Abs-Feuchte:Windchill:Wind:
Aussen-T/F 1926 09-11-2013 01:00:00 12 C 8.85 g/m*3 12 C 11.3 km/h
1927 09-11-2013 01:05:00 12 C 8.85 g/m*3 12 C 12.9 km/h
1928 09-11-2013 01:10:00 12 C 8.85 g/m*3 12 C 14.5 km/h
1929 09-11-2013 01:15:00 12 C 8.85 g/m*3 12 C 17.7 km/h
1930 09-11-2013 01:20:00 12 C 8.85 g/m*3 12 C 12.9 km/h
1931 09-11-2013 01:25:00 12 C 8.74 g/m*3 12 C 19.3 km/h
1932 09-11-2013 01:30:00 12 C 8.74 g/m*3 12 C 16.1 km/h
1933 09-11-2013 01:35:00 11.9 C 8.68 g/m*3 11.9 C 14.5 km/h
1934 09-11-2013 01:40:00 12 C 8.63 g/m*3 12 C 14.5 km/h
1935 09-11-2013 01:45:00 12 C 8.63 g/m*3 12 C 19.3 km/h
1936 09-11-2013 01:50:00 12 C 8.63 g/m*3 12 C 16.1 km/h
1937 09-11-2013 01:55:00 12 C 8.63 g/m*3 12 C 24.1 km/h
1938 09-11-2013 02:00:00 12.1 C 8.69 g/m*3 12.1 C 14.5 km/h
1939 09-11-2013 02:05:00 12 C 8.63 g/m*3 12 C 9.7 km/h
1940 09-11-2013 02:10:00 11.9 C 8.79 g/m*3 11.9 C 12.9 km/h
1941 09-11-2013 02:15:00 11.6 C 8.83 g/m*3 11.6 C 9.7 km/h
1942 09-11-2013 02:20:00 11.4 C 8.72 g/m*3 11.4 C 20.9 km/h
1943 09-11-2013 02:25:00 11.3 C 8.67 g/m*3 11.3 C 9.7 km/h
1944 09-11-2013 02:30:00 11.2 C 8.62 g/m*3 11.2 C 11.3 km/h
1945 09-11-2013 02:35:00 11.2 C 8.62 g/m*3 11.2 C 12.9 km/h
1946 09-11-2013 02:40:00 11.1 C 8.56 g/m*3 11.1 C 16.1 km/h
1947 09-11-2013 02:45:00 11.1 C 8.56 g/m*3 11.1 C 4.8 km/h
1948 09-11-2013 02:50:00 11 C 8.51 g/m*3 9.4 C 12.9 km/h
1949 09-11-2013 02:55:00 10.9 C 8.36 g/m*3 9.08 C 14.5 km/h
1950 09-11-2013 03:00:00 10.9 C 8.26 g/m*3 9.08 C 14.5 km/h
Sensor: Nr:Datum:Temp:Abs-Feuchte:Windchill:Wind:
Aussen-T/F 1951 09-11-2013 03:05:00 10.9 C 8.16 g/m*3 9.51 C 11.3 km/h
1952 09-11-2013 03:10:00 10.9 C 8.16 g/m*3 9.28 C 12.9 km/h
1953 09-11-2013 03:15:00 10.9 C 8.16 g/m*3 8.9 C 16.1 km/h
1954 09-11-2013 03:20:00 10.8 C 8.2 g/m*3 9.38 C 11.3 km/h
1955 09-11-2013 03:25:00 10.8 C 8.2 g/m*3 8.61 C 17.7 km/h
1956 09-11-2013 03:30:00 10.7 C 8.15 g/m*3 8.84 C 14.5 km/h
1957 09-11-2013 03:35:00 10.7 C 8.15 g/m*3 9.26 C 11.3 km/h
1958 09-11-2013 03:40:00 10.7 C 7.96 g/m*3 8.48 C 17.7 km/h
1959 09-11-2013 03:45:00 10.7 C 7.86 g/m*3 8.84 C 14.5 km/h
1960 09-11-2013 03:50:00 10.7 C 7.76 g/m*3 8.04 C 22.5 km/h
1961 09-11-2013 03:55:00 10.6 C 7.71 g/m*3 8.05 C 20.9 km/h
1962 09-11-2013 04:00:00 10.5 C 7.66 g/m*3 8.59 C 14.5 km/h
1963 09-11-2013 04:05:00 10.4 C 7.52 g/m*3 8.28 C 16.1 km/h
1964 09-11-2013 04:10:00 10.4 C 7.52 g/m*3 7.8 C 20.9 km/h
1965 09-11-2013 04:15:00 10.3 C 7.47 g/m*3 7.98 C 17.7 km/h
1966 09-11-2013 04:20:00 10.3 C 7.57 g/m*3 8.34 C 14.5 km/h
1967 09-11-2013 04:25:00 10.2 C 7.42 g/m*3 7.7 C 19.3 km/h
1968 09-11-2013 04:30:00 10.1 C 7.38 g/m*3 8.1 C 14.5 km/h
1969 09-11-2013 04:35:00 10.1 C 7.38 g/m*3 7.57 C 19.3 km/h
1970 09-11-2013 04:40:00 10.1 C 7.38 g/m*3 7.91 C 16.1 km/h
1971 09-11-2013 04:45:00 10.1 C 7.38 g/m*3 7.73 C 17.7 km/h
1972 09-11-2013 04:50:00 10 C 7.33 g/m*3 7.98 C 14.5 km/h
1973 09-11-2013 04:55:00 9.9 C 7.28 g/m*3 7.66 C 16.1 km/h
1974 09-11-2013 05:00:00 9.9 C 7.38 g/m*3 8.3 C 11.3 km/h
1975 09-11-2013 05:05:00 9.8 C 7.42 g/m*3 8.75 C 8.1 km/h
Sensor: Nr:Datum:Temp:Abs-Feuchte:Windchill:Wind:
Aussen-T/F 1976 09-11-2013 05:10:00 9.7 C 7.47 g/m*3 8.06 C 11.3 km/h
1977 09-11-2013 05:15:00 9.7 C 7.56 g/m*3 8.63 C 8.1 km/h
1978 09-11-2013 05:20:00 9.6 C 7.6 g/m*3 8.52 C 8.1 km/h
1979 09-11-2013 05:25:00 9.6 C 7.51 g/m*3 8.21 C 9.7 km/h
1980 09-11-2013 05:30:00 9.6 C 7.51 g/m*3 8.52 C 8.1 km/h
1981 09-11-2013 05:35:00 9.5 C 7.46 g/m*3 8.09 C 9.7 km/h
1982 09-11-2013 05:40:00 9.5 C 7.55 g/m*3 7.36 C 14.5 km/h
1983 09-11-2013 05:45:00 9.4 C 7.51 g/m*3 7.97 C 9.7 km/h
1984 09-11-2013 05:50:00 9.4 C 7.51 g/m*3 7.7 C 11.3 km/h
1985 09-11-2013 05:55:00 9.3 C 7.55 g/m*3 7.85 C 9.7 km/h
1986 09-11-2013 06:00:00 9.2 C 7.5 g/m*3 8.05 C 8.1 km/h
1987 09-11-2013 06:05:00 9.1 C 7.45 g/m*3 9.1 C 4.8 km/h
1988 09-11-2013 06:10:00 9.1 C 7.36 g/m*3 7.61 C 9.7 km/h
1989 09-11-2013 06:15:00 9 C 7.23 g/m*3 7.81 C 8.1 km/h
1990 09-11-2013 06:20:00 9 C 7.23 g/m*3 7.81 C 8.1 km/h
1991 09-11-2013 06:25:00 8.9 C 7.1 g/m*3 7.09 C 11.3 km/h
1992 09-11-2013 06:30:00 9 C 7.23 g/m*3 6.97 C 12.9 km/h
1993 09-11-2013 06:35:00 8.9 C 7.18 g/m*3 8.1 C 6.4 km/h
1994 09-11-2013 06:40:00 8.9 C 7.18 g/m*3 7.69 C 8.1 km/h
1995 09-11-2013 06:45:00 8.8 C 7.22 g/m*3 7.58 C 8.1 km/h
1996 09-11-2013 06:50:00 8.8 C 7.22 g/m*3 6.97 C 11.3 km/h
1997 09-11-2013 06:55:00 8.8 C 7.22 g/m*3 6.97 C 11.3 km/h
1998 09-11-2013 07:00:00 8.8 C 7.22 g/m*3 6.97 C 11.3 km/h
1999 09-11-2013 07:05:00 8.9 C 7.27 g/m*3 7.37 C 9.7 km/h
2000 09-11-2013 07:10:00 8.8 C 7.22 g/m*3 7.25 C 9.7 km/h
Sensor: Nr:Datum:Temp:Abs-Feuchte:Windchill:Wind:
Aussen-T/F 2001 09-11-2013 07:15:00 8.8 C 7.22 g/m*3 6.97 C 11.3 km/h
2002 09-11-2013 07:20:00 8.8 C 7.22 g/m*3 6.72 C 12.9 km/h
2003 09-11-2013 07:25:00 8.7 C 7.09 g/m*3 6.17 C 16.1 km/h
2004 09-11-2013 07:30:00 8.6 C 7.13 g/m*3 6.73 C 11.3 km/h
2005 09-11-2013 07:35:00 8.6 C 7.13 g/m*3 6.48 C 12.9 km/h
2006 09-11-2013 07:40:00 8.4 C 6.96 g/m*3 6.01 C 14.5 km/h
2007 09-11-2013 07:45:00 8.4 C 6.96 g/m*3 7.11 C 8.1 km/h
2008 09-11-2013 07:50:00 8.3 C 6.91 g/m*3 8.3 C 4.8 km/h
2009 09-11-2013 07:55:00 8.3 C 6.91 g/m*3 6.66 C 9.7 km/h
2010 09-11-2013 08:00:00 8.3 C 6.91 g/m*3 6.66 C 9.7 km/h
2011 09-11-2013 08:05:00 8.2 C 6.87 g/m*3 6.54 C 9.7 km/h
2012 09-11-2013 08:10:00 8.2 C 6.95 g/m*3 6.87 C 8.1 km/h
2013 09-11-2013 08:15:00 8.2 C 6.95 g/m*3 8.2 C 4.8 km/h
2014 09-11-2013 08:20:00 8.1 C 6.99 g/m*3 6.75 C 8.1 km/h
2015 09-11-2013 08:25:00 8 C 6.94 g/m*3 6.3 C 9.7 km/h
2016 09-11-2013 08:30:00 8 C 7.03 g/m*3 8 C 4.8 km/h
2017 09-11-2013 08:35:00 7.9 C 6.98 g/m*3 7.9 C 4.8 km/h
2018 09-11-2013 08:40:00 7.9 C 6.98 g/m*3 7.9 C 4.8 km/h
2019 09-11-2013 08:45:00 7.9 C 7.06 g/m*3 6.18 C 9.7 km/h
2020 09-11-2013 08:50:00 8 C 7.11 g/m*3 8 C 4.8 km/h
2021 09-11-2013 08:55:00 8 C 7.11 g/m*3 6.3 C 9.7 km/h
2022 09-11-2013 09:00:00 8 C 7.11 g/m*3 6.3 C 9.7 km/h
2023 09-11-2013 09:05:00 8.1 C 7.16 g/m*3 6.13 C 11.3 km/h
2024 09-11-2013 09:10:00 8.1 C 7.07 g/m*3 5.05 C 19.3 km/h
2025 09-11-2013 09:15:00 8.3 C 7.16 g/m*3 7.41 C 6.4 km/h
Sensor: Nr:Datum:Temp:Abs-Feuchte:Windchill:Wind:
Aussen-T/F 2026 09-11-2013 09:20:00 8.3 C 7.16 g/m*3 8.3 C 4.8 km/h
2027 09-11-2013 09:25:00 8.3 C 7.16 g/m*3 7.41 C 6.4 km/h
2028 09-11-2013 09:30:00 8.4 C 7.21 g/m*3 8.4 C 4.8 km/h
2029 09-11-2013 09:35:00 8.4 C 7.21 g/m*3 8.4 C 4.8 km/h
2030 09-11-2013 09:40:00 8.6 C 7.22 g/m*3 7.75 C 6.4 km/h
2031 09-11-2013 09:45:00 8.8 C 7.31 g/m*3 6.5 C 14.5 km/h
2032 09-11-2013 09:50:00 9.1 C 7.36 g/m*3 7.93 C 8.1 km/h
2033 09-11-2013 09:55:00 9.2 C 7.32 g/m*3 7.46 C 11.3 km/h
2034 09-11-2013 10:00:00 9.3 C 7.37 g/m*3 7.33 C 12.9 km/h
2035 09-11-2013 10:05:00 9.3 C 7.28 g/m*3 7.58 C 11.3 km/h
2036 09-11-2013 10:10:00 9.3 C 7.28 g/m*3 7.58 C 11.3 km/h
2037 09-11-2013 10:15:00 9.3 C 7.28 g/m*3 7.33 C 12.9 km/h
2038 09-11-2013 10:20:00 9.4 C 7.33 g/m*3 8.68 C 6.4 km/h
2039 09-11-2013 10:25:00 9.5 C 7.37 g/m*3 8.09 C 9.7 km/h
2040 09-11-2013 10:30:00 9.5 C 7.37 g/m*3 8.4 C 8.1 km/h
2041 09-11-2013 10:35:00 9.6 C 7.33 g/m*3 7.7 C 12.9 km/h
2042 09-11-2013 10:40:00 9.5 C 7.28 g/m*3 8.79 C 6.4 km/h
2043 09-11-2013 10:45:00 9.5 C 7.28 g/m*3 8.79 C 6.4 km/h
2044 09-11-2013 10:50:00 9.3 C 7.28 g/m*3 8.56 C 6.4 km/h
2045 09-11-2013 10:55:00 9.3 C 7.28 g/m*3 8.56 C 6.4 km/h
2046 09-11-2013 11:00:00 9.4 C 7.33 g/m*3 7.7 C 11.3 km/h
2047 09-11-2013 11:05:00 9.5 C 7.28 g/m*3 7.82 C 11.3 km/h
2048 09-11-2013 11:10:00 9.7 C 7.28 g/m*3 7.07 C 19.3 km/h
2049 09-11-2013 11:15:00 9.8 C 7.14 g/m*3 7.94 C 12.9 km/h
2050 09-11-2013 11:20:00 9.8 C 7.24 g/m*3 8.45 C 9.7 km/h
Sensor: Nr:Datum:Temp:Abs-Feuchte:Windchill:Wind:
Aussen-T/F 2051 09-11-2013 11:25:00 9.9 C 7.19 g/m*3 8.06 C 12.9 km/h
2052 09-11-2013 11:30:00 9.9 C 7.19 g/m*3 8.3 C 11.3 km/h
2053 09-11-2013 11:35:00 9.9 C 7.38 g/m*3 7.32 C 19.3 km/h
2054 09-11-2013 11:40:00 9.9 C 7.19 g/m*3 8.87 C 8.1 km/h
2055 09-11-2013 11:45:00 9.9 C 7.19 g/m*3 7.32 C 19.3 km/h
2056 09-11-2013 11:50:00 9.9 C 7.1 g/m*3 8.06 C 12.9 km/h
2057 09-11-2013 11:55:00 9.9 C 7.1 g/m*3 8.06 C 12.9 km/h
2058 09-11-2013 12:00:00 9.9 C 7 g/m*3 7.32 C 19.3 km/h
2059 09-11-2013 12:05:00 9.9 C 7 g/m*3 7.32 C 19.3 km/h
2060 09-11-2013 12:10:00 9.8 C 6.96 g/m*3 6.89 C 22.5 km/h
2061 09-11-2013 12:15:00 9.8 C 6.96 g/m*3 7.36 C 17.7 km/h
2062 09-11-2013 12:20:00 9.9 C 7 g/m*3 7.85 C 14.5 km/h
2063 09-11-2013 12:25:00 10.1 C 7 g/m*3 8.1 C 14.5 km/h
2064 09-11-2013 12:30:00 10.2 C 7.04 g/m*3 8.43 C 12.9 km/h
2065 09-11-2013 12:35:00 10.2 C 6.95 g/m*3 7.7 C 19.3 km/h
2066 09-11-2013 12:40:00 10.2 C 6.95 g/m*3 8.66 C 11.3 km/h
2067 09-11-2013 12:45:00 10.2 C 6.85 g/m*3 8.03 C 16.1 km/h
2068 09-11-2013 12:50:00 10.2 C 6.85 g/m*3 8.03 C 16.1 km/h
2069 09-11-2013 12:55:00 10.2 C 6.66 g/m*3 7.86 C 17.7 km/h
2070 09-11-2013 13:00:00 10.2 C 6.66 g/m*3 7.4 C 22.5 km/h
2071 09-11-2013 13:05:00 10.1 C 6.62 g/m*3 7.42 C 20.9 km/h
2072 09-11-2013 13:10:00 10.1 C 6.62 g/m*3 7.57 C 19.3 km/h
2073 09-11-2013 13:15:00 10.1 C 6.71 g/m*3 8.1 C 14.5 km/h
2074 09-11-2013 13:20:00 10 C 6.77 g/m*3 8.68 C 9.7 km/h
2075 09-11-2013 13:25:00 9.9 C 6.72 g/m*3 8.06 C 12.9 km/h
Sensor: Nr:Datum:Temp:Abs-Feuchte:Windchill:Wind:
Aussen-T/F 2076 09-11-2013 13:30:00 9.8 C 6.77 g/m*3 8.45 C 9.7 km/h
2077 09-11-2013 13:35:00 9.8 C 6.87 g/m*3 8.18 C 11.3 km/h
2078 09-11-2013 13:40:00 9.8 C 6.87 g/m*3 9.8 C 4.8 km/h
2079 09-11-2013 13:45:00 9.8 C 6.87 g/m*3 8.18 C 11.3 km/h
2080 09-11-2013 13:50:00 9.8 C 6.96 g/m*3 8.75 C 8.1 km/h
2081 09-11-2013 13:55:00 9.8 C 6.96 g/m*3 8.75 C 8.1 km/h
2082 09-11-2013 14:00:00 10 C 7.05 g/m*3 8.99 C 8.1 km/h
2083 09-11-2013 14:05:00 10.1 C 7.09 g/m*3 9.48 C 6.4 km/h
2084 09-11-2013 14:10:00 10.2 C 7.04 g/m*3 9.6 C 6.4 km/h
2085 09-11-2013 14:15:00 10.3 C 6.9 g/m*3 7.98 C 17.7 km/h
2086 09-11-2013 14:20:00 10.3 C 6.9 g/m*3 7.98 C 17.7 km/h
2087 09-11-2013 14:25:00 10.2 C 6.85 g/m*3 8.43 C 12.9 km/h
2088 09-11-2013 14:30:00 10.1 C 6.71 g/m*3 8.8 C 9.7 km/h
2089 09-11-2013 14:35:00 10.1 C 6.81 g/m*3 8.31 C 12.9 km/h
2090 09-11-2013 14:40:00 10 C 6.86 g/m*3 9.37 C 6.4 km/h
2091 09-11-2013 14:45:00 9.8 C 6.96 g/m*3 8.45 C 9.7 km/h
2092 09-11-2013 14:50:00 9.8 C 6.77 g/m*3 7.94 C 12.9 km/h
2093 09-11-2013 14:55:00 9.8 C 6.77 g/m*3 8.45 C 9.7 km/h
2094 09-11-2013 15:00:00 9.8 C 6.87 g/m*3 9.8 C 3.2 km/h
2095 09-11-2013 15:05:00 9.9 C 6.91 g/m*3 8.87 C 8.1 km/h
2096 09-11-2013 15:10:00 9.9 C 6.82 g/m*3 8.56 C 9.7 km/h
2097 09-11-2013 15:15:00 9.8 C 6.87 g/m*3 9.8 C 1.6 km/h
2098 09-11-2013 15:20:00 9.7 C 6.91 g/m*3 9.7 C 4.8 km/h
2099 09-11-2013 15:25:00 9.8 C 6.87 g/m*3 8.45 C 9.7 km/h
2100 09-11-2013 15:30:00 9.9 C 7 g/m*3 8.87 C 8.1 km/h
Sensor: Nr:Datum:Temp:Abs-Feuchte:Windchill:Wind:
Aussen-T/F 2101 09-11-2013 15:35:00 9.8 C 6.96 g/m*3 9.8 C 3.2 km/h
2102 09-11-2013 15:40:00 9.8 C 6.77 g/m*3 8.75 C 8.1 km/h
2103 09-11-2013 15:45:00 9.8 C 6.77 g/m*3 9.14 C 6.4 km/h
2104 09-11-2013 15:50:00 9.8 C 6.96 g/m*3 9.14 C 6.4 km/h
2105 09-11-2013 15:55:00 9.6 C 7.15 g/m*3 9.6 C 1.6 km/h
2106 09-11-2013 16:00:00 9.3 C 7.19 g/m*3 9.3 C 1.6 km/h
2107 09-11-2013 16:05:00 9 C 7.05 g/m*3 9 C 1.6 km/h
2108 09-11-2013 16:10:00 8.8 C 6.96 g/m*3 8.8 C 4.8 km/h
2109 09-11-2013 16:15:00 8.7 C 7.01 g/m*3 8.7 C 3.2 km/h
2110 09-11-2013 16:20:00 8.7 C 7.01 g/m*3 8.7 C 4.8 km/h
2111 09-11-2013 16:25:00 8.6 C 6.79 g/m*3 8.6 C 1.6 km/h
2112 09-11-2013 16:30:00 8.7 C 6.92 g/m*3 8.7 C 4.8 km/h
2113 09-11-2013 16:35:00 8.8 C 6.96 g/m*3 7.58 C 8.1 km/h
2114 09-11-2013 16:40:00 8.6 C 6.96 g/m*3 8.6 C 3.2 km/h
2115 09-11-2013 16:45:00 8.3 C 7.08 g/m*3 8.3 C 3.2 km/h
2116 09-11-2013 16:50:00 8.1 C 6.99 g/m*3 8.1 C 3.2 km/h
2117 09-11-2013 16:55:00 7.9 C 6.98 g/m*3 7.9 C 3.2 km/h
2118 09-11-2013 17:00:00 7.8 C 7.02 g/m*3 7.8 C 3.2 km/h
2119 09-11-2013 17:05:00 7.7 C 7.05 g/m*3 7.7 C 0 km/h
2120 09-11-2013 17:10:00 7.6 C 7.01 g/m*3 7.6 C 0 km/h
2121 09-11-2013 17:15:00 7.4 C 7 g/m*3 7.4 C 0 km/h
2122 09-11-2013 17:20:00 7.4 C 7 g/m*3 7.4 C 1.6 km/h
2123 09-11-2013 17:25:00 7.4 C 7 g/m*3 7.4 C 1.6 km/h
2124 09-11-2013 17:30:00 7.3 C 7.03 g/m*3 7.3 C 1.6 km/h
2125 09-11-2013 17:35:00 7.3 C 7.03 g/m*3 7.3 C 0 km/h
Sensor: Nr:Datum:Temp:Abs-Feuchte:Windchill:Wind:
Aussen-T/F 2126 09-11-2013 17:40:00 7.3 C 7.03 g/m*3 7.3 C 0 km/h
2127 09-11-2013 17:45:00 7.3 C 7.03 g/m*3 7.3 C 3.2 km/h
2128 09-11-2013 17:50:00 7.3 C 7.03 g/m*3 7.3 C 1.6 km/h
2129 09-11-2013 17:55:00 7.2 C 6.99 g/m*3 7.2 C 3.2 km/h
2130 09-11-2013 18:00:00 7.2 C 6.99 g/m*3 7.2 C 1.6 km/h
2131 09-11-2013 18:05:00 7.2 C 6.91 g/m*3 7.2 C 1.6 km/h
2132 09-11-2013 18:10:00 7.2 C 6.91 g/m*3 7.2 C 0 km/h
2133 09-11-2013 18:15:00 7.2 C 6.99 g/m*3 7.2 C 3.2 km/h
2134 09-11-2013 18:20:00 7.2 C 6.91 g/m*3 7.2 C 0 km/h
2135 09-11-2013 18:25:00 7.2 C 6.91 g/m*3 7.2 C 0 km/h
2136 09-11-2013 18:30:00 7.2 C 6.91 g/m*3 7.2 C 3.2 km/h
2137 09-11-2013 18:35:00 7.3 C 6.87 g/m*3 7.3 C 3.2 km/h
2138 09-11-2013 18:40:00 7.3 C 6.95 g/m*3 7.3 C 0 km/h
2139 09-11-2013 18:45:00 7.4 C 7 g/m*3 7.4 C 0 km/h
2140 09-11-2013 18:50:00 7.4 C 6.84 g/m*3 7.4 C 1.6 km/h
2141 09-11-2013 18:55:00 7.6 C 7.01 g/m*3 7.6 C 0 km/h
2142 09-11-2013 19:00:00 7.7 C 6.97 g/m*3 7.7 C 4.8 km/h
2143 09-11-2013 19:05:00 7.7 C 6.97 g/m*3 7.7 C 0 km/h
2144 09-11-2013 19:10:00 7.7 C 6.97 g/m*3 7.7 C 3.2 km/h
2145 09-11-2013 19:15:00 7.8 C 7.02 g/m*3 7.8 C 4.8 km/h
2146 09-11-2013 19:20:00 7.9 C 6.98 g/m*3 7.9 C 3.2 km/h
2147 09-11-2013 19:25:00 8.1 C 6.99 g/m*3 6.42 C 9.7 km/h
2148 09-11-2013 19:30:00 8.4 C 6.96 g/m*3 6.78 C 9.7 km/h
2149 09-11-2013 19:35:00 8.7 C 7.01 g/m*3 8.7 C 4.8 km/h
2150 09-11-2013 19:40:00 8.8 C 7.22 g/m*3 8.8 C 1.6 km/h
Sensor: Nr:Datum:Temp:Abs-Feuchte:Windchill:Wind:
Aussen-T/F 2151 09-11-2013 19:45:00 8.7 C 7.18 g/m*3 8.7 C 1.6 km/h
2152 09-11-2013 19:50:00 8.7 C 7.01 g/m*3 7.46 C 8.1 km/h
2153 09-11-2013 19:55:00 8.8 C 6.96 g/m*3 8.8 C 4.8 km/h
2154 09-11-2013 20:00:00 8.9 C 7.1 g/m*3 8.9 C 3.2 km/h
2155 09-11-2013 20:05:00 8.9 C 7.01 g/m*3 8.9 C 4.8 km/h
2156 09-11-2013 20:10:00 9 C 7.05 g/m*3 8.21 C 6.4 km/h
2157 09-11-2013 20:15:00 9.1 C 7.1 g/m*3 8.33 C 6.4 km/h
2158 09-11-2013 20:20:00 9.2 C 7.14 g/m*3 8.05 C 8.1 km/h
2159 09-11-2013 20:25:00 9.2 C 7.14 g/m*3 9.2 C 3.2 km/h
2160 09-11-2013 20:30:00 9.2 C 7.05 g/m*3 9.2 C 4.8 km/h
2161 09-11-2013 20:35:00 9.2 C 7.05 g/m*3 7.46 C 11.3 km/h
2162 09-11-2013 20:40:00 9.1 C 7.01 g/m*3 7.33 C 11.3 km/h
2163 09-11-2013 20:45:00 9.2 C 6.97 g/m*3 9.2 C 3.2 km/h
2164 09-11-2013 20:50:00 9.2 C 7.05 g/m*3 9.2 C 4.8 km/h
2165 09-11-2013 20:55:00 9.2 C 7.14 g/m*3 8.45 C 6.4 km/h
2166 09-11-2013 21:00:00 9.2 C 7.05 g/m*3 8.05 C 8.1 km/h
2167 09-11-2013 21:05:00 9.2 C 7.14 g/m*3 9.2 C 3.2 km/h
2168 09-11-2013 21:10:00 9.3 C 7.1 g/m*3 8.56 C 6.4 km/h
2169 09-11-2013 21:15:00 9.3 C 7.19 g/m*3 8.16 C 8.1 km/h
2170 09-11-2013 21:20:00 9.2 C 7.23 g/m*3 9.2 C 0 km/h
2171 09-11-2013 21:25:00 9.3 C 7.19 g/m*3 8.56 C 6.4 km/h
2172 09-11-2013 21:30:00 9.3 C 7.28 g/m*3 9.3 C 0 km/h
2173 09-11-2013 21:35:00 9.3 C 7.19 g/m*3 9.3 C 4.8 km/h
2174 09-11-2013 21:40:00 9.3 C 7.37 g/m*3 9.3 C 3.2 km/h
2175 09-11-2013 21:45:00 9.2 C 7.32 g/m*3 9.2 C 3.2 km/h
Sensor: Nr:Datum:Temp:Abs-Feuchte:Windchill:Wind:
Aussen-T/F 2176 09-11-2013 21:50:00 9.2 C 7.14 g/m*3 8.45 C 6.4 km/h
2177 09-11-2013 21:55:00 9.3 C 7.37 g/m*3 9.3 C 1.6 km/h
2178 09-11-2013 22:00:00 9.3 C 7.37 g/m*3 9.3 C 3.2 km/h
2179 09-11-2013 22:05:00 9.3 C 7.37 g/m*3 9.3 C 1.6 km/h
2180 09-11-2013 22:10:00 9.2 C 7.59 g/m*3 9.2 C 1.6 km/h
2181 09-11-2013 22:15:00 9.1 C 7.45 g/m*3 9.1 C 3.2 km/h
2182 09-11-2013 22:20:00 9.2 C 7.5 g/m*3 9.2 C 4.8 km/h
2183 09-11-2013 22:25:00 9.3 C 7.46 g/m*3 9.3 C 4.8 km/h
2184 09-11-2013 22:30:00 9.4 C 7.42 g/m*3 7.46 C 12.9 km/h
2185 09-11-2013 22:35:00 9.5 C 7.37 g/m*3 7.82 C 11.3 km/h
2186 09-11-2013 22:40:00 9.6 C 7.42 g/m*3 7.29 C 16.1 km/h
2187 09-11-2013 22:45:00 9.6 C 7.42 g/m*3 7.29 C 16.1 km/h
2188 09-11-2013 22:50:00 9.5 C 7.46 g/m*3 7.36 C 14.5 km/h
2189 09-11-2013 22:55:00 9.4 C 7.51 g/m*3 7.46 C 12.9 km/h
2190 09-11-2013 23:00:00 9.3 C 7.46 g/m*3 7.33 C 12.9 km/h
2191 09-11-2013 23:05:00 9.2 C 7.32 g/m*3 7.21 C 12.9 km/h
2192 09-11-2013 23:10:00 9.2 C 7.32 g/m*3 6.79 C 16.1 km/h
2193 09-11-2013 23:15:00 9.2 C 7.32 g/m*3 6.79 C 16.1 km/h
2194 09-11-2013 23:20:00 9.2 C 7.41 g/m*3 7.46 C 11.3 km/h
2195 09-11-2013 23:25:00 9.1 C 7.36 g/m*3 7.93 C 8.1 km/h
2196 09-11-2013 23:30:00 9.1 C 7.36 g/m*3 9.1 C 4.8 km/h
2197 09-11-2013 23:35:00 9.1 C 7.36 g/m*3 7.33 C 11.3 km/h
2198 09-11-2013 23:40:00 9.1 C 7.36 g/m*3 7.09 C 12.9 km/h
2199 09-11-2013 23:45:00 9.1 C 7.36 g/m*3 6.87 C 14.5 km/h
2200 09-11-2013 23:50:00 9.1 C 7.36 g/m*3 7.33 C 11.3 km/h
Sensor: Nr:Datum:Temp:Abs-Feuchte:Windchill:Wind:
Aussen-T/F 2201 09-11-2013 23:55:00 8.9 C 7.27 g/m*3 6.62 C 14.5 km/h
2202 10-11-2013 00:00:00 8.9 C 7.27 g/m*3 7.09 C 11.3 km/h
2203 10-11-2013 00:05:00 8.8 C 7.31 g/m*3 7.25 C 9.7 km/h
2204 10-11-2013 00:10:00 8.8 C 7.4 g/m*3 7.98 C 6.4 km/h
2205 10-11-2013 00:15:00 8.8 C 7.4 g/m*3 7.25 C 9.7 km/h
2206 10-11-2013 00:20:00 8.8 C 7.4 g/m*3 6.5 C 14.5 km/h
2207 10-11-2013 00:25:00 8.8 C 7.4 g/m*3 7.58 C 8.1 km/h
2208 10-11-2013 00:30:00 8.9 C 7.36 g/m*3 6.85 C 12.9 km/h
2209 10-11-2013 00:35:00 8.9 C 7.36 g/m*3 6.85 C 12.9 km/h
2210 10-11-2013 00:40:00 9 C 7.41 g/m*3 6.97 C 12.9 km/h
2211 10-11-2013 00:45:00 9 C 7.41 g/m*3 8.21 C 6.4 km/h
2212 10-11-2013 00:50:00 9 C 7.41 g/m*3 7.21 C 11.3 km/h
2213 10-11-2013 00:55:00 9.1 C 7.45 g/m*3 7.93 C 8.1 km/h
2214 10-11-2013 01:00:00 9.1 C 7.45 g/m*3 8.33 C 6.4 km/h
2215 10-11-2013 01:05:00 9 C 7.41 g/m*3 7.49 C 9.7 km/h
2216 10-11-2013 01:10:00 9 C 7.41 g/m*3 8.21 C 6.4 km/h
2217 10-11-2013 01:15:00 8.9 C 7.36 g/m*3 8.1 C 6.4 km/h
2218 10-11-2013 01:20:00 8.8 C 7.31 g/m*3 6.97 C 11.3 km/h
2219 10-11-2013 01:25:00 8.8 C 7.31 g/m*3 7.25 C 9.7 km/h
2220 10-11-2013 01:30:00 8.8 C 7.4 g/m*3 7.98 C 6.4 km/h
2221 10-11-2013 01:35:00 8.8 C 7.4 g/m*3 8.8 C 0 km/h
2222 10-11-2013 01:40:00 8.8 C 7.4 g/m*3 7.25 C 9.7 km/h
2223 10-11-2013 01:45:00 8.8 C 7.4 g/m*3 8.8 C 4.8 km/h
2224 10-11-2013 01:50:00 8.8 C 7.4 g/m*3 8.8 C 3.2 km/h
2225 10-11-2013 01:55:00 8.8 C 7.4 g/m*3 8.8 C 3.2 km/h
Sensor: Nr:Datum:Temp:Abs-Feuchte:Windchill:Wind:
Aussen-T/F 2226 10-11-2013 02:00:00 8.7 C 7.35 g/m*3 8.7 C 0 km/h
2227 10-11-2013 02:05:00 8.7 C 7.35 g/m*3 7.46 C 8.1 km/h
2228 10-11-2013 02:10:00 8.6 C 7.39 g/m*3 8.6 C 4.8 km/h
2229 10-11-2013 02:15:00 8.6 C 7.39 g/m*3 6.73 C 11.3 km/h
2230 10-11-2013 02:20:00 8.7 C 7.44 g/m*3 7.87 C 6.4 km/h
2231 10-11-2013 02:25:00 8.8 C 7.49 g/m*3 7.58 C 8.1 km/h
2232 10-11-2013 02:30:00 8.8 C 7.49 g/m*3 8.8 C 4.8 km/h
2233 10-11-2013 02:35:00 8.8 C 7.49 g/m*3 7.58 C 8.1 km/h
2234 10-11-2013 02:40:00 8.8 C 7.49 g/m*3 6.5 C 14.5 km/h
2235 10-11-2013 02:45:00 8.8 C 7.57 g/m*3 6.97 C 11.3 km/h
2236 10-11-2013 02:50:00 8.8 C 7.57 g/m*3 6.72 C 12.9 km/h
2237 10-11-2013 02:55:00 8.8 C 7.57 g/m*3 6.72 C 12.9 km/h
2238 10-11-2013 03:00:00 8.8 C 7.57 g/m*3 7.58 C 8.1 km/h
2239 10-11-2013 03:05:00 8.8 C 7.57 g/m*3 7.58 C 8.1 km/h
2240 10-11-2013 03:10:00 8.8 C 7.49 g/m*3 7.25 C 9.7 km/h
2241 10-11-2013 03:15:00 8.8 C 7.49 g/m*3 7.98 C 6.4 km/h
2242 10-11-2013 03:20:00 8.8 C 7.4 g/m*3 7.25 C 9.7 km/h
2243 10-11-2013 03:25:00 8.8 C 7.4 g/m*3 7.98 C 6.4 km/h
2244 10-11-2013 03:30:00 8.8 C 7.31 g/m*3 7.98 C 6.4 km/h
2245 10-11-2013 03:35:00 8.8 C 7.31 g/m*3 8.8 C 4.8 km/h
2246 10-11-2013 03:40:00 8.7 C 7.35 g/m*3 8.7 C 4.8 km/h
2247 10-11-2013 03:45:00 8.6 C 7.39 g/m*3 8.6 C 3.2 km/h
2248 10-11-2013 03:50:00 8.5 C 7.34 g/m*3 8.5 C 4.8 km/h
2249 10-11-2013 03:55:00 8.5 C 7.26 g/m*3 8.5 C 3.2 km/h
2250 10-11-2013 04:00:00 8.5 C 7.34 g/m*3 8.5 C 4.8 km/h
Sensor: Nr:Datum:Temp:Abs-Feuchte:Windchill:Wind:
Aussen-T/F 2251 10-11-2013 04:05:00 8.4 C 7.3 g/m*3 8.4 C 1.6 km/h
2252 10-11-2013 04:10:00 8.3 C 7.33 g/m*3 6.66 C 9.7 km/h
2253 10-11-2013 04:15:00 8.3 C 7.33 g/m*3 7.41 C 6.4 km/h
2254 10-11-2013 04:20:00 8.3 C 7.33 g/m*3 8.3 C 0 km/h
2255 10-11-2013 04:25:00 8.2 C 7.37 g/m*3 8.2 C 0 km/h
2256 10-11-2013 04:30:00 8.1 C 7.41 g/m*3 8.1 C 0 km/h
2257 10-11-2013 04:35:00 8.1 C 7.41 g/m*3 8.1 C 3.2 km/h
2258 10-11-2013 04:40:00 8.1 C 7.41 g/m*3 8.1 C 3.2 km/h
2259 10-11-2013 04:45:00 8.1 C 7.41 g/m*3 8.1 C 1.6 km/h
2260 10-11-2013 04:50:00 8.1 C 7.41 g/m*3 6.75 C 8.1 km/h
2261 10-11-2013 04:55:00 8.1 C 7.32 g/m*3 8.1 C 4.8 km/h
2262 10-11-2013 05:00:00 8.1 C 7.32 g/m*3 6.75 C 8.1 km/h
2263 10-11-2013 05:05:00 8.1 C 7.32 g/m*3 8.1 C 3.2 km/h
2264 10-11-2013 05:10:00 8.1 C 7.32 g/m*3 8.1 C 1.6 km/h
2265 10-11-2013 05:15:00 8.1 C 7.32 g/m*3 6.75 C 8.1 km/h
2266 10-11-2013 05:20:00 8.2 C 7.37 g/m*3 8.2 C 1.6 km/h
2267 10-11-2013 05:25:00 8.2 C 7.37 g/m*3 8.2 C 0 km/h
2268 10-11-2013 05:30:00 8.2 C 7.37 g/m*3 8.2 C 1.6 km/h
2269 10-11-2013 05:35:00 8.2 C 7.37 g/m*3 8.2 C 4.8 km/h
2270 10-11-2013 05:40:00 8.1 C 7.41 g/m*3 8.1 C 0 km/h
2271 10-11-2013 05:45:00 8.1 C 7.41 g/m*3 8.1 C 0 km/h
2272 10-11-2013 05:50:00 7.9 C 7.39 g/m*3 7.9 C 0 km/h
2273 10-11-2013 05:55:00 7.9 C 7.39 g/m*3 7.9 C 0 km/h
2274 10-11-2013 06:00:00 7.8 C 7.35 g/m*3 7.8 C 0 km/h
2275 10-11-2013 06:05:00 7.7 C 7.38 g/m*3 7.7 C 0 km/h
Sensor: Nr:Datum:Temp:Abs-Feuchte:Windchill:Wind:
Aussen-T/F 2276 10-11-2013 06:10:00 7.6 C 7.33 g/m*3 7.6 C 0 km/h
2277 10-11-2013 06:15:00 7.4 C 7.24 g/m*3 7.4 C 0 km/h
2278 10-11-2013 06:20:00 7.3 C 7.19 g/m*3 7.3 C 0 km/h
2279 10-11-2013 06:25:00 7.2 C 7.14 g/m*3 7.2 C 0 km/h
2280 10-11-2013 06:30:00 7 C 7.13 g/m*3 7 C 0 km/h
2281 10-11-2013 06:35:00 6.9 C 7.08 g/m*3 6.9 C 0 km/h
2282 10-11-2013 06:40:00 6.8 C 7.11 g/m*3 6.8 C 0 km/h
2283 10-11-2013 06:45:00 6.8 C 7.11 g/m*3 6.8 C 0 km/h
2284 10-11-2013 06:50:00 6.8 C 7.11 g/m*3 6.8 C 0 km/h
2285 10-11-2013 06:55:00 6.7 C 7.07 g/m*3 6.7 C 0 km/h
2286 10-11-2013 07:00:00 6.7 C 7.07 g/m*3 6.7 C 0 km/h
2287 10-11-2013 07:05:00 6.7 C 7.07 g/m*3 6.7 C 0 km/h
2288 10-11-2013 07:10:00 6.7 C 7.14 g/m*3 6.7 C 0 km/h
2289 10-11-2013 07:15:00 6.6 C 7.1 g/m*3 6.6 C 0 km/h
2290 10-11-2013 07:20:00 6.6 C 7.1 g/m*3 6.6 C 0 km/h
2291 10-11-2013 07:25:00 6.6 C 7.1 g/m*3 6.6 C 0 km/h
2292 10-11-2013 07:30:00 6.6 C 7.1 g/m*3 6.6 C 0 km/h
2293 10-11-2013 07:35:00 6.6 C 7.1 g/m*3 6.6 C 0 km/h
2294 10-11-2013 07:40:00 6.7 C 7.14 g/m*3 6.7 C 0 km/h
2295 10-11-2013 07:45:00 6.7 C 7.14 g/m*3 6.7 C 0 km/h
2296 10-11-2013 07:50:00 6.7 C 7.14 g/m*3 6.7 C 0 km/h
2297 10-11-2013 07:55:00 6.7 C 7.14 g/m*3 6.7 C 0 km/h
2298 10-11-2013 08:00:00 6.7 C 7.14 g/m*3 6.7 C 0 km/h
2299 10-11-2013 08:05:00 6.7 C 7.14 g/m*3 6.7 C 0 km/h
2300 10-11-2013 08:10:00 6.7 C 7.14 g/m*3 6.7 C 0 km/h
Sensor: Nr:Datum:Temp:Abs-Feuchte:Windchill:Wind:
Aussen-T/F 2301 10-11-2013 08:15:00 6.7 C 7.14 g/m*3 6.7 C 0 km/h
2302 10-11-2013 08:20:00 6.7 C 7.14 g/m*3 6.7 C 0 km/h
2303 10-11-2013 08:25:00 6.7 C 7.14 g/m*3 6.7 C 0 km/h
2304 10-11-2013 08:30:00 6.7 C 7.14 g/m*3 6.7 C 0 km/h
2305 10-11-2013 08:35:00 6.7 C 7.14 g/m*3 6.7 C 0 km/h
2306 10-11-2013 08:40:00 6.7 C 7.14 g/m*3 6.7 C 0 km/h
2307 10-11-2013 08:45:00 6.7 C 7.22 g/m*3 6.7 C 0 km/h
2308 10-11-2013 08:50:00 6.8 C 7.27 g/m*3 6.8 C 0 km/h
2309 10-11-2013 08:55:00 6.8 C 7.27 g/m*3 6.8 C 0 km/h
2310 10-11-2013 09:00:00 6.8 C 7.27 g/m*3 6.8 C 0 km/h
2311 10-11-2013 09:05:00 6.9 C 7.31 g/m*3 6.9 C 1.6 km/h
2312 10-11-2013 09:10:00 6.9 C 7.31 g/m*3 6.9 C 0 km/h
2313 10-11-2013 09:15:00 6.9 C 7.31 g/m*3 6.9 C 0 km/h
2314 10-11-2013 09:20:00 6.9 C 7.31 g/m*3 6.9 C 0 km/h
2315 10-11-2013 09:25:00 7 C 7.36 g/m*3 7 C 0 km/h
2316 10-11-2013 09:30:00 7 C 7.36 g/m*3 7 C 0 km/h
2317 10-11-2013 09:35:00 7.1 C 7.41 g/m*3 7.1 C 0 km/h
2318 10-11-2013 09:40:00 7.2 C 7.46 g/m*3 7.2 C 0 km/h
2319 10-11-2013 09:45:00 7.2 C 7.46 g/m*3 7.2 C 0 km/h
2320 10-11-2013 09:50:00 7.2 C 7.46 g/m*3 7.2 C 0 km/h
2321 10-11-2013 09:55:00 7.2 C 7.46 g/m*3 7.2 C 0 km/h
2322 10-11-2013 10:00:00 7.2 C 7.46 g/m*3 7.2 C 0 km/h
2323 10-11-2013 10:05:00 7.2 C 7.46 g/m*3 7.2 C 0 km/h
2324 10-11-2013 10:10:00 7.2 C 7.46 g/m*3 7.2 C 0 km/h
2325 10-11-2013 10:15:00 7.3 C 7.51 g/m*3 5.47 C 9.7 km/h
Sensor: Nr:Datum:Temp:Abs-Feuchte:Windchill:Wind:
Aussen-T/F 2326 10-11-2013 10:20:00 7 C 7.13 g/m*3 3.86 C 17.7 km/h
2327 10-11-2013 10:25:00 6.6 C 6.72 g/m*3 4.63 C 9.7 km/h
2328 10-11-2013 10:30:00 6.3 C 6.74 g/m*3 6.3 C 0 km/h
2329 10-11-2013 10:35:00 6.2 C 6.84 g/m*3 6.2 C 1.6 km/h
2330 10-11-2013 10:40:00 6.2 C 6.91 g/m*3 6.2 C 3.2 km/h
2331 10-11-2013 10:45:00 6.2 C 6.91 g/m*3 6.2 C 1.6 km/h
2332 10-11-2013 10:50:00 6.2 C 6.99 g/m*3 6.2 C 0 km/h
2333 10-11-2013 10:55:00 6.2 C 6.99 g/m*3 6.2 C 0 km/h
2334 10-11-2013 11:00:00 6.2 C 6.99 g/m*3 6.2 C 1.6 km/h
2335 10-11-2013 11:05:00 6.3 C 7.03 g/m*3 6.3 C 3.2 km/h
2336 10-11-2013 11:10:00 6.3 C 6.88 g/m*3 6.3 C 0 km/h
2337 10-11-2013 11:15:00 6.3 C 6.88 g/m*3 6.3 C 1.6 km/h
2338 10-11-2013 11:20:00 6.5 C 6.97 g/m*3 6.5 C 0 km/h
2339 10-11-2013 11:25:00 6.6 C 7.02 g/m*3 6.6 C 0 km/h
2340 10-11-2013 11:30:00 6.7 C 7.07 g/m*3 6.7 C 1.6 km/h
2341 10-11-2013 11:35:00 6.8 C 7.04 g/m*3 6.8 C 0 km/h
2342 10-11-2013 11:40:00 6.8 C 7.04 g/m*3 6.8 C 4.8 km/h
2343 10-11-2013 11:45:00 6.8 C 7.04 g/m*3 4.87 C 9.7 km/h
2344 10-11-2013 11:50:00 6.7 C 6.99 g/m*3 4.17 C 12.9 km/h
2345 10-11-2013 11:55:00 6.6 C 6.95 g/m*3 4.99 C 8.1 km/h
2346 10-11-2013 12:00:00 6.6 C 6.95 g/m*3 5.44 C 6.4 km/h
2347 10-11-2013 12:05:00 6.2 C 6.77 g/m*3 4.52 C 8.1 km/h
2348 10-11-2013 12:10:00 6.2 C 6.77 g/m*3 4.52 C 8.1 km/h
2349 10-11-2013 12:15:00 6.1 C 6.65 g/m*3 4.04 C 9.7 km/h
2350 10-11-2013 12:20:00 6 C 6.6 g/m*3 3.92 C 9.7 km/h
Sensor: Nr:Datum:Temp:Abs-Feuchte:Windchill:Wind:
Aussen-T/F 2351 10-11-2013 12:25:00 6 C 6.68 g/m*3 4.75 C 6.4 km/h
2352 10-11-2013 12:30:00 5.9 C 6.63 g/m*3 5.9 C 3.2 km/h
2353 10-11-2013 12:35:00 6 C 6.75 g/m*3 6 C 4.8 km/h
2354 10-11-2013 12:40:00 6 C 6.68 g/m*3 6 C 4.8 km/h
2355 10-11-2013 12:45:00 6.1 C 6.72 g/m*3 6.1 C 3.2 km/h
2356 10-11-2013 12:50:00 6.2 C 6.84 g/m*3 6.2 C 4.8 km/h
2357 10-11-2013 12:55:00 6.3 C 6.88 g/m*3 4.27 C 9.7 km/h
2358 10-11-2013 13:00:00 6.4 C 6.93 g/m*3 3.8 C 12.9 km/h
2359 10-11-2013 13:05:00 6.4 C 6.93 g/m*3 6.4 C 4.8 km/h
2360 10-11-2013 13:10:00 6.6 C 6.95 g/m*3 4.63 C 9.7 km/h
2361 10-11-2013 13:15:00 6.6 C 6.95 g/m*3 4.99 C 8.1 km/h
2362 10-11-2013 13:20:00 6.7 C 6.91 g/m*3 5.11 C 8.1 km/h
2363 10-11-2013 13:25:00 6.7 C 6.91 g/m*3 5.11 C 8.1 km/h
2364 10-11-2013 13:30:00 6.7 C 6.91 g/m*3 5.56 C 6.4 km/h
2365 10-11-2013 13:35:00 6.6 C 6.79 g/m*3 4.63 C 9.7 km/h
2366 10-11-2013 13:40:00 6.6 C 6.79 g/m*3 4.32 C 11.3 km/h
2367 10-11-2013 13:45:00 6.5 C 6.75 g/m*3 4.2 C 11.3 km/h
2368 10-11-2013 13:50:00 6.5 C 6.75 g/m*3 4.51 C 9.7 km/h
2369 10-11-2013 13:55:00 6.5 C 6.75 g/m*3 3.92 C 12.9 km/h
2370 10-11-2013 14:00:00 6.5 C 6.75 g/m*3 3.44 C 16.1 km/h
2371 10-11-2013 14:05:00 6.4 C 6.48 g/m*3 4.08 C 11.3 km/h
2372 10-11-2013 14:10:00 6.4 C 6.56 g/m*3 4.08 C 11.3 km/h
2373 10-11-2013 14:15:00 6.4 C 6.48 g/m*3 4.08 C 11.3 km/h
2374 10-11-2013 14:20:00 6.4 C 6.48 g/m*3 4.08 C 11.3 km/h
2375 10-11-2013 14:25:00 6.4 C 6.56 g/m*3 5.21 C 6.4 km/h
Sensor: Nr:Datum:Temp:Abs-Feuchte:Windchill:Wind:
Aussen-T/F 2376 10-11-2013 14:30:00 6.4 C 6.56 g/m*3 4.75 C 8.1 km/h
2377 10-11-2013 14:35:00 6.4 C 6.56 g/m*3 4.08 C 11.3 km/h
2378 10-11-2013 14:40:00 6.4 C 6.56 g/m*3 5.21 C 6.4 km/h
2379 10-11-2013 14:45:00 6.4 C 6.56 g/m*3 6.4 C 1.6 km/h
2380 10-11-2013 14:50:00 6.4 C 6.56 g/m*3 6.4 C 3.2 km/h
2381 10-11-2013 14:55:00 6.5 C 6.67 g/m*3 6.5 C 4.8 km/h
2382 10-11-2013 15:00:00 6.5 C 6.75 g/m*3 6.5 C 1.6 km/h
2383 10-11-2013 15:05:00 6.5 C 6.75 g/m*3 4.2 C 11.3 km/h
2384 10-11-2013 15:10:00 6.4 C 6.63 g/m*3 3.55 C 14.5 km/h
2385 10-11-2013 15:15:00 6.5 C 6.67 g/m*3 3.92 C 12.9 km/h
2386 10-11-2013 15:20:00 6.6 C 6.72 g/m*3 4.99 C 8.1 km/h
2387 10-11-2013 15:25:00 6.6 C 6.72 g/m*3 6.6 C 4.8 km/h
2388 10-11-2013 15:30:00 6.6 C 6.64 g/m*3 5.44 C 6.4 km/h
2389 10-11-2013 15:35:00 6.7 C 6.84 g/m*3 6.7 C 4.8 km/h
2390 10-11-2013 15:40:00 6.7 C 6.76 g/m*3 6.7 C 0 km/h
2391 10-11-2013 15:45:00 6.7 C 6.91 g/m*3 6.7 C 0 km/h
2392 10-11-2013 15:50:00 6.6 C 6.87 g/m*3 6.6 C 1.6 km/h
2393 10-11-2013 15:55:00 6.6 C 6.87 g/m*3 6.6 C 1.6 km/h
2394 10-11-2013 16:00:00 6.6 C 6.79 g/m*3 6.6 C 4.8 km/h
2395 10-11-2013 16:05:00 6.6 C 6.72 g/m*3 4.04 C 12.9 km/h
2396 10-11-2013 16:10:00 6.7 C 6.69 g/m*3 6.7 C 4.8 km/h
2397 10-11-2013 16:15:00 6.7 C 6.69 g/m*3 6.7 C 3.2 km/h
2398 10-11-2013 16:20:00 6.7 C 6.69 g/m*3 6.7 C 3.2 km/h
2399 10-11-2013 16:25:00 6.8 C 6.65 g/m*3 6.8 C 4.8 km/h
2400 10-11-2013 16:30:00 6.8 C 6.65 g/m*3 5.22 C 8.1 km/h
Sensor: Nr:Datum:Temp:Abs-Feuchte:Windchill:Wind:
Aussen-T/F 2401 10-11-2013 16:35:00 6.8 C 6.65 g/m*3 6.8 C 4.8 km/h
2402 10-11-2013 16:40:00 6.8 C 6.65 g/m*3 5.22 C 8.1 km/h
2403 10-11-2013 16:45:00 6.8 C 6.65 g/m*3 5.67 C 6.4 km/h
2404 10-11-2013 16:50:00 6.8 C 6.65 g/m*3 4.56 C 11.3 km/h
2405 10-11-2013 16:55:00 6.9 C 6.7 g/m*3 5.79 C 6.4 km/h
2406 10-11-2013 17:00:00 6.9 C 6.62 g/m*3 6.9 C 4.8 km/h
2407 10-11-2013 17:05:00 6.9 C 6.7 g/m*3 5.34 C 8.1 km/h
2408 10-11-2013 17:10:00 6.9 C 6.7 g/m*3 6.9 C 1.6 km/h
2409 10-11-2013 17:15:00 6.9 C 6.62 g/m*3 4.99 C 9.7 km/h
2410 10-11-2013 17:20:00 6.9 C 6.7 g/m*3 6.9 C 3.2 km/h
2411 10-11-2013 17:25:00 6.9 C 6.62 g/m*3 6.9 C 4.8 km/h
2412 10-11-2013 17:30:00 6.8 C 6.65 g/m*3 5.22 C 8.1 km/h
2413 10-11-2013 17:35:00 6.8 C 6.65 g/m*3 5.67 C 6.4 km/h
2414 10-11-2013 17:40:00 6.7 C 6.69 g/m*3 6.7 C 3.2 km/h
2415 10-11-2013 17:45:00 6.6 C 6.72 g/m*3 6.6 C 4.8 km/h
2416 10-11-2013 17:50:00 6.6 C 6.72 g/m*3 6.6 C 1.6 km/h
2417 10-11-2013 17:55:00 6.6 C 6.72 g/m*3 6.6 C 3.2 km/h
2418 10-11-2013 18:00:00 6.6 C 6.72 g/m*3 4.63 C 9.7 km/h
2419 10-11-2013 18:05:00 6.6 C 6.64 g/m*3 3.17 C 19.3 km/h
2420 10-11-2013 18:10:00 6.4 C 6.56 g/m*3 4.39 C 9.7 km/h
2421 10-11-2013 18:15:00 6.3 C 6.59 g/m*3 4.64 C 8.1 km/h
2422 10-11-2013 18:20:00 6.2 C 6.55 g/m*3 6.2 C 4.8 km/h
2423 10-11-2013 18:25:00 6.1 C 6.5 g/m*3 6.1 C 4.8 km/h
2424 10-11-2013 18:30:00 5.9 C 6.49 g/m*3 4.63 C 6.4 km/h
2425 10-11-2013 18:35:00 5.7 C 6.48 g/m*3 5.7 C 1.6 km/h
Sensor: Nr:Datum:Temp:Abs-Feuchte:Windchill:Wind:
Aussen-T/F 2426 10-11-2013 18:40:00 5.4 C 6.42 g/m*3 5.4 C 1.6 km/h
2427 10-11-2013 18:45:00 5.2 C 6.4 g/m*3 5.2 C 4.8 km/h
2428 10-11-2013 18:50:00 5 C 6.32 g/m*3 5 C 3.2 km/h
2429 10-11-2013 18:55:00 4.9 C 6.35 g/m*3 4.9 C 3.2 km/h
2430 10-11-2013 19:00:00 4.8 C 6.37 g/m*3 4.8 C 3.2 km/h
2431 10-11-2013 19:05:00 4.8 C 6.37 g/m*3 4.8 C 3.2 km/h
2432 10-11-2013 19:10:00 4.9 C 6.41 g/m*3 4.9 C 0 km/h
2433 10-11-2013 19:15:00 5 C 6.52 g/m*3 5 C 0 km/h
2434 10-11-2013 19:20:00 5.1 C 6.57 g/m*3 5.1 C 1.6 km/h
2435 10-11-2013 19:25:00 5.2 C 6.61 g/m*3 2.63 C 11.3 km/h
2436 10-11-2013 19:30:00 5.3 C 6.58 g/m*3 3.08 C 9.7 km/h
2437 10-11-2013 19:35:00 5.4 C 6.63 g/m*3 3.58 C 8.1 km/h
2438 10-11-2013 19:40:00 5.4 C 6.56 g/m*3 2.87 C 11.3 km/h
2439 10-11-2013 19:45:00 5.4 C 6.49 g/m*3 4.06 C 6.4 km/h
2440 10-11-2013 19:50:00 5.4 C 6.49 g/m*3 5.4 C 1.6 km/h
2441 10-11-2013 19:55:00 5.4 C 6.49 g/m*3 5.4 C 3.2 km/h
2442 10-11-2013 20:00:00 5.4 C 6.49 g/m*3 5.4 C 1.6 km/h
2443 10-11-2013 20:05:00 5.3 C 6.45 g/m*3 5.3 C 1.6 km/h
2444 10-11-2013 20:10:00 5.2 C 6.47 g/m*3 5.2 C 1.6 km/h
2445 10-11-2013 20:15:00 5.1 C 6.43 g/m*3 5.1 C 3.2 km/h
2446 10-11-2013 20:20:00 5.1 C 6.5 g/m*3 5.1 C 1.6 km/h
2447 10-11-2013 20:25:00 5 C 6.46 g/m*3 5 C 1.6 km/h
2448 10-11-2013 20:30:00 4.9 C 6.41 g/m*3 4.9 C 0 km/h
2449 10-11-2013 20:35:00 4.8 C 6.37 g/m*3 4.8 C 3.2 km/h
2450 10-11-2013 20:40:00 4.8 C 6.37 g/m*3 4.8 C 3.2 km/h
Sensor: Nr:Datum:Temp:Abs-Feuchte:Windchill:Wind:
Aussen-T/F 2451 10-11-2013 20:45:00 4.7 C 6.33 g/m*3 4.7 C 1.6 km/h
2452 10-11-2013 20:50:00 4.6 C 6.29 g/m*3 4.6 C 3.2 km/h
2453 10-11-2013 20:55:00 4.4 C 6.2 g/m*3 4.4 C 1.6 km/h
2454 10-11-2013 21:00:00 4.4 C 6.27 g/m*3 4.4 C 4.8 km/h
2455 10-11-2013 21:05:00 4.5 C 6.31 g/m*3 4.5 C 3.2 km/h
2456 10-11-2013 21:10:00 4.6 C 6.35 g/m*3 4.6 C 1.6 km/h
2457 10-11-2013 21:15:00 4.7 C 6.39 g/m*3 4.7 C 1.6 km/h
2458 10-11-2013 21:20:00 4.7 C 6.39 g/m*3 4.7 C 1.6 km/h
2459 10-11-2013 21:25:00 4.7 C 6.39 g/m*3 4.7 C 3.2 km/h
2460 10-11-2013 21:30:00 4.7 C 6.39 g/m*3 4.7 C 3.2 km/h
2461 10-11-2013 21:35:00 4.6 C 6.35 g/m*3 4.6 C 3.2 km/h
2462 10-11-2013 21:40:00 4.4 C 6.27 g/m*3 4.4 C 0 km/h
2463 10-11-2013 21:45:00 4.3 C 6.23 g/m*3 4.3 C 0 km/h
2464 10-11-2013 21:50:00 4.3 C 6.23 g/m*3 4.3 C 0 km/h
2465 10-11-2013 21:55:00 4.3 C 6.23 g/m*3 4.3 C 0 km/h
2466 10-11-2013 22:00:00 4.4 C 6.33 g/m*3 4.4 C 1.6 km/h
2467 10-11-2013 22:05:00 4.5 C 6.38 g/m*3 4.5 C 1.6 km/h
2468 10-11-2013 22:10:00 4.5 C 6.38 g/m*3 4.5 C 0 km/h
2469 10-11-2013 22:15:00 4.6 C 6.42 g/m*3 4.6 C 0 km/h
2470 10-11-2013 22:20:00 4.6 C 6.42 g/m*3 4.6 C 0 km/h
2471 10-11-2013 22:25:00 4.6 C 6.42 g/m*3 4.6 C 0 km/h
2472 10-11-2013 22:30:00 4.7 C 6.46 g/m*3 4.7 C 0 km/h
2473 10-11-2013 22:35:00 4.6 C 6.42 g/m*3 4.6 C 0 km/h
2474 10-11-2013 22:40:00 4.5 C 6.38 g/m*3 4.5 C 1.6 km/h
2475 10-11-2013 22:45:00 4.4 C 6.33 g/m*3 4.4 C 0 km/h
Sensor: Nr:Datum:Temp:Abs-Feuchte:Windchill:Wind:
Aussen-T/F 2476 10-11-2013 22:50:00 4.3 C 6.23 g/m*3 4.3 C 0 km/h
2477 10-11-2013 22:55:00 4.3 C 6.23 g/m*3 4.3 C 0 km/h
2478 10-11-2013 23:00:00 4.2 C 6.25 g/m*3 4.2 C 0 km/h
2479 10-11-2013 23:05:00 4.2 C 6.25 g/m*3 4.2 C 0 km/h
2480 10-11-2013 23:10:00 4.1 C 6.21 g/m*3 4.1 C 0 km/h
2481 10-11-2013 23:15:00 4 C 6.1 g/m*3 4 C 0 km/h
2482 10-11-2013 23:20:00 3.9 C 6.13 g/m*3 3.9 C 0 km/h
2483 10-11-2013 23:25:00 3.9 C 6.13 g/m*3 3.9 C 0 km/h
2484 10-11-2013 23:30:00 3.9 C 6.13 g/m*3 3.9 C 0 km/h
2485 10-11-2013 23:35:00 3.9 C 6.13 g/m*3 3.9 C 1.6 km/h
2486 10-11-2013 23:40:00 3.9 C 6.13 g/m*3 3.9 C 1.6 km/h
2487 10-11-2013 23:45:00 3.8 C 6.09 g/m*3 3.8 C 0 km/h
2488 10-11-2013 23:50:00 3.8 C 6.09 g/m*3 3.8 C 0 km/h
2489 10-11-2013 23:55:00 3.7 C 6.04 g/m*3 3.7 C 0 km/h
2490 11-11-2013 00:00:00 3.7 C 6.04 g/m*3 3.7 C 0 km/h
2491 11-11-2013 00:05:00 3.7 C 6.04 g/m*3 3.7 C 0 km/h
2492 11-11-2013 00:10:00 3.6 C 6 g/m*3 3.6 C 0 km/h
2493 11-11-2013 00:15:00 3.6 C 6 g/m*3 3.6 C 0 km/h
2494 11-11-2013 00:20:00 3.5 C 5.96 g/m*3 3.5 C 0 km/h
2495 11-11-2013 00:25:00 3.5 C 5.96 g/m*3 3.5 C 0 km/h
2496 11-11-2013 00:30:00 3.4 C 5.92 g/m*3 3.4 C 0 km/h
2497 11-11-2013 00:35:00 3.5 C 5.96 g/m*3 3.5 C 3.2 km/h
2498 11-11-2013 00:40:00 3.6 C 6 g/m*3 3.6 C 0 km/h
2499 11-11-2013 00:45:00 3.6 C 6 g/m*3 3.6 C 4.8 km/h
2500 11-11-2013 00:50:00 3.7 C 6.04 g/m*3 3.7 C 0 km/h
Sensor: Nr:Datum:Temp:Abs-Feuchte:Windchill:Wind:
Aussen-T/F 2501 11-11-2013 00:55:00 3.7 C 6.04 g/m*3 3.7 C 1.6 km/h
2502 11-11-2013 01:00:00 3.7 C 6.04 g/m*3 3.7 C 0 km/h
2503 11-11-2013 01:05:00 3.7 C 6.04 g/m*3 3.7 C 0 km/h
2504 11-11-2013 01:10:00 3.7 C 6.04 g/m*3 3.7 C 0 km/h
2505 11-11-2013 01:15:00 3.6 C 6 g/m*3 3.6 C 0 km/h
2506 11-11-2013 01:20:00 3.6 C 6 g/m*3 3.6 C 0 km/h
2507 11-11-2013 01:25:00 3.6 C 6 g/m*3 3.6 C 0 km/h
2508 11-11-2013 01:30:00 3.6 C 6 g/m*3 3.6 C 0 km/h
2509 11-11-2013 01:35:00 3.7 C 6.04 g/m*3 3.7 C 0 km/h
2510 11-11-2013 01:40:00 3.7 C 6.04 g/m*3 3.7 C 0 km/h
2511 11-11-2013 01:45:00 3.7 C 6.04 g/m*3 3.7 C 0 km/h
2512 11-11-2013 01:50:00 3.7 C 6.04 g/m*3 3.7 C 0 km/h
2513 11-11-2013 01:55:00 3.7 C 6.04 g/m*3 3.7 C 0 km/h
2514 11-11-2013 02:00:00 3.7 C 6.04 g/m*3 3.7 C 1.6 km/h
2515 11-11-2013 02:05:00 3.7 C 6.04 g/m*3 3.7 C 0 km/h
2516 11-11-2013 02:10:00 3.7 C 6.04 g/m*3 3.7 C 0 km/h
2517 11-11-2013 02:15:00 3.6 C 6 g/m*3 3.6 C 0 km/h
2518 11-11-2013 02:20:00 3.6 C 6 g/m*3 3.6 C 0 km/h
2519 11-11-2013 02:25:00 3.6 C 6 g/m*3 3.6 C 0 km/h
2520 11-11-2013 02:30:00 3.6 C 6 g/m*3 3.6 C 0 km/h
2521 11-11-2013 02:35:00 3.7 C 6.04 g/m*3 3.7 C 0 km/h
2522 11-11-2013 02:40:00 3.7 C 6.04 g/m*3 3.7 C 0 km/h
2523 11-11-2013 02:45:00 3.6 C 6 g/m*3 3.6 C 0 km/h
2524 11-11-2013 02:50:00 3.5 C 5.96 g/m*3 3.5 C 0 km/h
2525 11-11-2013 02:55:00 3.5 C 5.96 g/m*3 3.5 C 3.2 km/h
Sensor: Nr:Datum:Temp:Abs-Feuchte:Windchill:Wind:
Aussen-T/F 2526 11-11-2013 03:00:00 3.6 C 6 g/m*3 3.6 C 3.2 km/h
2527 11-11-2013 03:05:00 3.5 C 5.96 g/m*3 3.5 C 0 km/h
2528 11-11-2013 03:10:00 3.5 C 5.96 g/m*3 3.5 C 0 km/h
2529 11-11-2013 03:15:00 3.4 C 5.92 g/m*3 3.4 C 0 km/h
2530 11-11-2013 03:20:00 3.3 C 5.88 g/m*3 3.3 C 0 km/h
2531 11-11-2013 03:25:00 3.2 C 5.85 g/m*3 3.2 C 0 km/h
2532 11-11-2013 03:30:00 3.1 C 5.81 g/m*3 3.1 C 0 km/h
2533 11-11-2013 03:35:00 3.1 C 5.81 g/m*3 3.1 C 0 km/h
2534 11-11-2013 03:40:00 3.1 C 5.81 g/m*3 3.1 C 1.6 km/h
2535 11-11-2013 03:45:00 3.1 C 5.81 g/m*3 3.1 C 0 km/h
2536 11-11-2013 03:50:00 3 C 5.77 g/m*3 3 C 0 km/h
2537 11-11-2013 03:55:00 2.9 C 5.73 g/m*3 2.9 C 0 km/h
2538 11-11-2013 04:00:00 2.8 C 5.69 g/m*3 2.8 C 0 km/h
2539 11-11-2013 04:05:00 2.8 C 5.69 g/m*3 2.8 C 0 km/h
2540 11-11-2013 04:10:00 2.8 C 5.69 g/m*3 2.8 C 0 km/h
2541 11-11-2013 04:15:00 2.8 C 5.69 g/m*3 2.8 C 0 km/h
2542 11-11-2013 04:20:00 2.7 C 5.65 g/m*3 2.7 C 0 km/h
2543 11-11-2013 04:25:00 2.7 C 5.65 g/m*3 2.7 C 0 km/h
2544 11-11-2013 04:30:00 2.6 C 5.61 g/m*3 2.6 C 0 km/h
2545 11-11-2013 04:35:00 2.6 C 5.61 g/m*3 2.6 C 0 km/h
2546 11-11-2013 04:40:00 2.6 C 5.61 g/m*3 2.6 C 0 km/h
2547 11-11-2013 04:45:00 2.5 C 5.58 g/m*3 2.5 C 0 km/h
2548 11-11-2013 04:50:00 2.6 C 5.61 g/m*3 2.6 C 0 km/h
2549 11-11-2013 04:55:00 2.6 C 5.61 g/m*3 2.6 C 0 km/h
2550 11-11-2013 05:00:00 2.7 C 5.65 g/m*3 2.7 C 0 km/h
Sensor: Nr:Datum:Temp:Abs-Feuchte:Windchill:Wind:
Aussen-T/F 2551 11-11-2013 05:05:00 2.7 C 5.71 g/m*3 2.7 C 0 km/h
2552 11-11-2013 05:10:00 2.7 C 5.71 g/m*3 2.7 C 0 km/h
2553 11-11-2013 05:15:00 2.7 C 5.71 g/m*3 2.7 C 0 km/h
2554 11-11-2013 05:20:00 2.7 C 5.65 g/m*3 2.7 C 0 km/h
2555 11-11-2013 05:25:00 2.6 C 5.61 g/m*3 2.6 C 0 km/h
2556 11-11-2013 05:30:00 2.6 C 5.61 g/m*3 2.6 C 0 km/h
2557 11-11-2013 05:35:00 2.7 C 5.65 g/m*3 2.7 C 0 km/h
2558 11-11-2013 05:40:00 2.7 C 5.65 g/m*3 2.7 C 0 km/h
2559 11-11-2013 05:45:00 2.7 C 5.65 g/m*3 2.7 C 0 km/h
2560 11-11-2013 05:50:00 2.6 C 5.61 g/m*3 2.6 C 0 km/h
2561 11-11-2013 05:55:00 2.6 C 5.61 g/m*3 2.6 C 0 km/h
2562 11-11-2013 06:00:00 2.6 C 5.61 g/m*3 2.6 C 0 km/h
2563 11-11-2013 06:05:00 2.7 C 5.65 g/m*3 2.7 C 0 km/h
2564 11-11-2013 06:10:00 2.7 C 5.65 g/m*3 2.7 C 1.6 km/h
2565 11-11-2013 06:15:00 2.7 C 5.65 g/m*3 0.94 C 6.4 km/h
2566 11-11-2013 06:20:00 2.8 C 5.75 g/m*3 2.8 C 4.8 km/h
2567 11-11-2013 06:25:00 2.8 C 5.75 g/m*3 2.8 C 1.6 km/h
2568 11-11-2013 06:30:00 2.8 C 5.75 g/m*3 2.8 C 0 km/h
2569 11-11-2013 06:35:00 2.9 C 5.79 g/m*3 2.9 C 1.6 km/h
2570 11-11-2013 06:40:00 2.9 C 5.79 g/m*3 2.9 C 3.2 km/h
2571 11-11-2013 06:45:00 3 C 5.83 g/m*3 0.76 C 8.1 km/h
2572 11-11-2013 06:50:00 3.1 C 5.87 g/m*3 0.46 C 9.7 km/h
2573 11-11-2013 06:55:00 3.2 C 5.91 g/m*3 0.58 C 9.7 km/h
2574 11-11-2013 07:00:00 3.2 C 5.91 g/m*3 0.22 C 11.3 km/h
2575 11-11-2013 07:05:00 3.2 C 5.91 g/m*3 0.58 C 9.7 km/h
Sensor: Nr:Datum:Temp:Abs-Feuchte:Windchill:Wind:
Aussen-T/F 2576 11-11-2013 07:10:00 3.1 C 5.87 g/m*3 0.1 C 11.3 km/h
2577 11-11-2013 07:15:00 3.1 C 5.87 g/m*3 0.87 C 8.1 km/h
2578 11-11-2013 07:20:00 3.1 C 5.87 g/m*3 0.87 C 8.1 km/h
2579 11-11-2013 07:25:00 3 C 5.83 g/m*3 0.34 C 9.7 km/h
2580 11-11-2013 07:30:00 2.9 C 5.79 g/m*3 0.22 C 9.7 km/h
2581 11-11-2013 07:35:00 2.9 C 5.79 g/m*3 0.64 C 8.1 km/h
2582 11-11-2013 07:40:00 2.8 C 5.75 g/m*3 0.52 C 8.1 km/h
2583 11-11-2013 07:45:00 2.8 C 5.75 g/m*3 1.05 C 6.4 km/h
2584 11-11-2013 07:50:00 2.8 C 5.69 g/m*3 -0.26 C 11.3 km/h
2585 11-11-2013 07:55:00 2.7 C 5.65 g/m*3 0.94 C 6.4 km/h
2586 11-11-2013 08:00:00 2.8 C 5.69 g/m*3 2.8 C 3.2 km/h
2587 11-11-2013 08:05:00 2.8 C 5.75 g/m*3 0.52 C 8.1 km/h
2588 11-11-2013 08:10:00 2.8 C 5.75 g/m*3 0.1 C 9.7 km/h
2589 11-11-2013 08:15:00 2.9 C 5.79 g/m*3 0.64 C 8.1 km/h
2590 11-11-2013 08:20:00 2.9 C 5.79 g/m*3 1.17 C 6.4 km/h
2591 11-11-2013 08:25:00 2.9 C 5.79 g/m*3 0.64 C 8.1 km/h
2592 11-11-2013 08:30:00 2.9 C 5.79 g/m*3 0.64 C 8.1 km/h
2593 11-11-2013 08:35:00 2.9 C 5.79 g/m*3 -0.14 C 11.3 km/h
2594 11-11-2013 08:40:00 2.9 C 5.79 g/m*3 0.22 C 9.7 km/h
2595 11-11-2013 08:45:00 2.9 C 5.79 g/m*3 -0.14 C 11.3 km/h
2596 11-11-2013 08:50:00 2.9 C 5.79 g/m*3 0.22 C 9.7 km/h
2597 11-11-2013 08:55:00 2.9 C 5.79 g/m*3 0.22 C 9.7 km/h
2598 11-11-2013 09:00:00 2.9 C 5.79 g/m*3 0.22 C 9.7 km/h
2599 11-11-2013 09:05:00 3.1 C 5.87 g/m*3 1.4 C 6.4 km/h
2600 11-11-2013 09:10:00 3.1 C 5.87 g/m*3 0.87 C 8.1 km/h
Sensor: Nr:Datum:Temp:Abs-Feuchte:Windchill:Wind:
Aussen-T/F 2601 11-11-2013 09:15:00 3.2 C 5.91 g/m*3 0.58 C 9.7 km/h
2602 11-11-2013 09:20:00 3.2 C 5.91 g/m*3 1.51 C 6.4 km/h
2603 11-11-2013 09:25:00 3.3 C 5.95 g/m*3 1.63 C 6.4 km/h
2604 11-11-2013 09:30:00 3.3 C 5.95 g/m*3 3.3 C 4.8 km/h
2605 11-11-2013 09:35:00 3.4 C 5.99 g/m*3 1.23 C 8.1 km/h
2606 11-11-2013 09:40:00 3.4 C 5.99 g/m*3 1.23 C 8.1 km/h
2607 11-11-2013 09:45:00 3.5 C 6.03 g/m*3 0.94 C 9.7 km/h
2608 11-11-2013 09:50:00 3.6 C 6.07 g/m*3 1.46 C 8.1 km/h
2609 11-11-2013 09:55:00 3.6 C 6.07 g/m*3 1.46 C 8.1 km/h
2610 11-11-2013 10:00:00 3.6 C 6.07 g/m*3 3.6 C 4.8 km/h
2611 11-11-2013 10:05:00 3.6 C 6.07 g/m*3 1.98 C 6.4 km/h
2612 11-11-2013 10:10:00 3.7 C 6.11 g/m*3 1.58 C 8.1 km/h
2613 11-11-2013 10:15:00 3.7 C 6.11 g/m*3 1.18 C 9.7 km/h
2614 11-11-2013 10:20:00 3.7 C 6.11 g/m*3 3.7 C 4.8 km/h
2615 11-11-2013 10:25:00 3.7 C 6.11 g/m*3 1.18 C 9.7 km/h
2616 11-11-2013 10:30:00 3.7 C 6.11 g/m*3 2.09 C 6.4 km/h
2617 11-11-2013 10:35:00 3.7 C 6.11 g/m*3 1.18 C 9.7 km/h
2618 11-11-2013 10:40:00 3.8 C 6.15 g/m*3 1.29 C 9.7 km/h
2619 11-11-2013 10:45:00 3.8 C 6.15 g/m*3 1.29 C 9.7 km/h
2620 11-11-2013 10:50:00 3.8 C 6.15 g/m*3 1.29 C 9.7 km/h
2621 11-11-2013 10:55:00 3.9 C 6.19 g/m*3 1.41 C 9.7 km/h
2622 11-11-2013 11:00:00 4.1 C 6.27 g/m*3 1.65 C 9.7 km/h
2623 11-11-2013 11:05:00 4.1 C 6.27 g/m*3 2.05 C 8.1 km/h
2624 11-11-2013 11:10:00 4.2 C 6.31 g/m*3 1.77 C 9.7 km/h
2625 11-11-2013 11:15:00 4.2 C 6.31 g/m*3 2.17 C 8.1 km/h
Sensor: Nr:Datum:Temp:Abs-Feuchte:Windchill:Wind:
Aussen-T/F 2626 11-11-2013 11:20:00 4.2 C 6.31 g/m*3 2.67 C 6.4 km/h
2627 11-11-2013 11:25:00 4.4 C 6.4 g/m*3 2.9 C 6.4 km/h
2628 11-11-2013 11:30:00 4.5 C 6.44 g/m*3 3.02 C 6.4 km/h
2629 11-11-2013 11:35:00 4.5 C 6.44 g/m*3 2.52 C 8.1 km/h
2630 11-11-2013 11:40:00 4.6 C 6.42 g/m*3 2.64 C 8.1 km/h
2631 11-11-2013 11:45:00 4.6 C 6.42 g/m*3 3.13 C 6.4 km/h
2632 11-11-2013 11:50:00 4.7 C 6.46 g/m*3 4.7 C 4.8 km/h
2633 11-11-2013 11:55:00 4.8 C 6.5 g/m*3 2.87 C 8.1 km/h
2634 11-11-2013 12:00:00 4.8 C 6.5 g/m*3 3.36 C 6.4 km/h
2635 11-11-2013 12:05:00 4.8 C 6.5 g/m*3 3.36 C 6.4 km/h
2636 11-11-2013 12:10:00 4.8 C 6.5 g/m*3 4.8 C 4.8 km/h
2637 11-11-2013 12:15:00 5 C 6.59 g/m*3 5 C 3.2 km/h
2638 11-11-2013 12:20:00 5.1 C 6.63 g/m*3 5.1 C 4.8 km/h
2639 11-11-2013 12:25:00 5.1 C 6.57 g/m*3 5.1 C 3.2 km/h
2640 11-11-2013 12:30:00 5.2 C 6.61 g/m*3 5.2 C 3.2 km/h
2641 11-11-2013 12:35:00 5.3 C 6.65 g/m*3 5.3 C 3.2 km/h
2642 11-11-2013 12:40:00 5.4 C 6.7 g/m*3 5.4 C 1.6 km/h
2643 11-11-2013 12:45:00 5.5 C 6.74 g/m*3 5.5 C 3.2 km/h
2644 11-11-2013 12:50:00 5.6 C 6.72 g/m*3 5.6 C 3.2 km/h
2645 11-11-2013 12:55:00 5.7 C 6.76 g/m*3 5.7 C 3.2 km/h
2646 11-11-2013 13:00:00 5.8 C 6.81 g/m*3 5.8 C 1.6 km/h
2647 11-11-2013 13:05:00 5.8 C 6.73 g/m*3 5.8 C 4.8 km/h
2648 11-11-2013 13:10:00 5.8 C 6.73 g/m*3 4.52 C 6.4 km/h
2649 11-11-2013 13:15:00 5.9 C 6.78 g/m*3 4.17 C 8.1 km/h
2650 11-11-2013 13:20:00 5.8 C 6.66 g/m*3 4.05 C 8.1 km/h
Sensor: Nr:Datum:Temp:Abs-Feuchte:Windchill:Wind:
Aussen-T/F 2651 11-11-2013 13:25:00 5.9 C 6.78 g/m*3 4.63 C 6.4 km/h
2652 11-11-2013 13:30:00 6 C 6.82 g/m*3 6 C 3.2 km/h
2653 11-11-2013 13:35:00 6.2 C 6.91 g/m*3 6.2 C 3.2 km/h
2654 11-11-2013 13:40:00 6.3 C 6.88 g/m*3 6.3 C 3.2 km/h
2655 11-11-2013 13:45:00 6.3 C 6.88 g/m*3 5.1 C 6.4 km/h
2656 11-11-2013 13:50:00 6.3 C 6.81 g/m*3 6.3 C 4.8 km/h
2657 11-11-2013 13:55:00 6.3 C 6.81 g/m*3 6.3 C 4.8 km/h
2658 11-11-2013 14:00:00 6.3 C 6.81 g/m*3 6.3 C 4.8 km/h
2659 11-11-2013 14:05:00 6.3 C 6.81 g/m*3 6.3 C 4.8 km/h
2660 11-11-2013 14:10:00 6.3 C 6.81 g/m*3 6.3 C 3.2 km/h
2661 11-11-2013 14:15:00 6.3 C 6.81 g/m*3 6.3 C 3.2 km/h
2662 11-11-2013 14:20:00 6.3 C 6.81 g/m*3 6.3 C 3.2 km/h
2663 11-11-2013 14:25:00 6.3 C 6.81 g/m*3 6.3 C 3.2 km/h
2664 11-11-2013 14:30:00 6.3 C 6.81 g/m*3 6.3 C 0 km/h
2665 11-11-2013 14:35:00 6.3 C 6.81 g/m*3 6.3 C 4.8 km/h
2666 11-11-2013 14:40:00 6.3 C 6.81 g/m*3 6.3 C 4.8 km/h
2667 11-11-2013 14:45:00 6.4 C 6.93 g/m*3 6.4 C 1.6 km/h
2668 11-11-2013 14:50:00 6.4 C 6.85 g/m*3 6.4 C 0 km/h
2669 11-11-2013 14:55:00 6.5 C 6.9 g/m*3 6.5 C 1.6 km/h
2670 11-11-2013 15:00:00 6.4 C 6.85 g/m*3 6.4 C 4.8 km/h
2671 11-11-2013 15:05:00 6.4 C 6.85 g/m*3 6.4 C 3.2 km/h
2672 11-11-2013 15:10:00 6.4 C 6.85 g/m*3 6.4 C 3.2 km/h
2673 11-11-2013 15:15:00 6.4 C 6.85 g/m*3 6.4 C 0 km/h
2674 11-11-2013 15:20:00 6.4 C 6.85 g/m*3 6.4 C 1.6 km/h
2675 11-11-2013 15:25:00 6.4 C 6.85 g/m*3 6.4 C 4.8 km/h
Sensor: Nr:Datum:Temp:Abs-Feuchte:Windchill:Wind:
Aussen-T/F 2676 11-11-2013 15:30:00 6.4 C 6.85 g/m*3 5.21 C 6.4 km/h
2677 11-11-2013 15:35:00 6.4 C 6.93 g/m*3 6.4 C 1.6 km/h
2678 11-11-2013 15:40:00 6.3 C 6.81 g/m*3 6.3 C 4.8 km/h
2679 11-11-2013 15:45:00 6.3 C 6.81 g/m*3 6.3 C 3.2 km/h
2680 11-11-2013 15:50:00 6.3 C 6.88 g/m*3 6.3 C 0 km/h
2681 11-11-2013 15:55:00 6.3 C 6.88 g/m*3 6.3 C 3.2 km/h
2682 11-11-2013 16:00:00 6.2 C 6.84 g/m*3 6.2 C 1.6 km/h
2683 11-11-2013 16:05:00 6.2 C 6.84 g/m*3 6.2 C 4.8 km/h
2684 11-11-2013 16:10:00 6.1 C 6.79 g/m*3 6.1 C 1.6 km/h
2685 11-11-2013 16:15:00 6.1 C 6.79 g/m*3 6.1 C 0 km/h
2686 11-11-2013 16:20:00 6 C 6.75 g/m*3 6 C 3.2 km/h
2687 11-11-2013 16:25:00 5.9 C 6.78 g/m*3 5.9 C 1.6 km/h
2688 11-11-2013 16:30:00 5.9 C 6.78 g/m*3 5.9 C 0 km/h
2689 11-11-2013 16:35:00 5.8 C 6.73 g/m*3 5.8 C 0 km/h
2690 11-11-2013 16:40:00 5.7 C 6.69 g/m*3 5.7 C 1.6 km/h
2691 11-11-2013 16:45:00 5.6 C 6.65 g/m*3 5.6 C 0 km/h
2692 11-11-2013 16:50:00 5.5 C 6.6 g/m*3 5.5 C 0 km/h
2693 11-11-2013 16:55:00 5.4 C 6.56 g/m*3 5.4 C 0 km/h
2694 11-11-2013 17:00:00 5.3 C 6.52 g/m*3 5.3 C 0 km/h
2695 11-11-2013 17:05:00 5.3 C 6.58 g/m*3 5.3 C 0 km/h
2696 11-11-2013 17:10:00 5.2 C 6.54 g/m*3 5.2 C 0 km/h
2697 11-11-2013 17:15:00 5 C 6.46 g/m*3 5 C 0 km/h
2698 11-11-2013 17:20:00 4.8 C 6.37 g/m*3 4.8 C 1.6 km/h
2699 11-11-2013 17:25:00 4.7 C 6.33 g/m*3 4.7 C 0 km/h
2700 11-11-2013 17:30:00 4.6 C 6.29 g/m*3 4.6 C 0 km/h
Sensor: Nr:Datum:Temp:Abs-Feuchte:Windchill:Wind:
Aussen-T/F 2701 11-11-2013 17:35:00 4.4 C 6.2 g/m*3 4.4 C 0 km/h
2702 11-11-2013 17:40:00 4.3 C 6.16 g/m*3 4.3 C 0 km/h
2703 11-11-2013 17:45:00 4.2 C 6.19 g/m*3 4.2 C 0 km/h
2704 11-11-2013 17:50:00 4.2 C 6.19 g/m*3 4.2 C 0 km/h
2705 11-11-2013 17:55:00 4.2 C 6.19 g/m*3 4.2 C 1.6 km/h
2706 11-11-2013 18:00:00 4.2 C 6.19 g/m*3 4.2 C 0 km/h
2707 11-11-2013 18:05:00 4.2 C 6.19 g/m*3 4.2 C 0 km/h
2708 11-11-2013 18:10:00 4.2 C 6.19 g/m*3 4.2 C 0 km/h
2709 11-11-2013 18:15:00 4.1 C 6.14 g/m*3 4.1 C 1.6 km/h
2710 11-11-2013 18:20:00 4.1 C 6.14 g/m*3 4.1 C 3.2 km/h
2711 11-11-2013 18:25:00 4.1 C 6.14 g/m*3 4.1 C 0 km/h
2712 11-11-2013 18:30:00 4.2 C 6.25 g/m*3 4.2 C 0 km/h
2713 11-11-2013 18:35:00 4.2 C 6.19 g/m*3 4.2 C 0 km/h
2714 11-11-2013 18:40:00 4.2 C 6.19 g/m*3 4.2 C 0 km/h
2715 11-11-2013 18:45:00 4.3 C 6.29 g/m*3 4.3 C 0 km/h
2716 11-11-2013 18:50:00 4.4 C 6.33 g/m*3 4.4 C 0 km/h
2717 11-11-2013 18:55:00 4.4 C 6.33 g/m*3 4.4 C 0 km/h
2718 11-11-2013 19:00:00 4.4 C 6.33 g/m*3 4.4 C 0 km/h
2719 11-11-2013 19:05:00 4.4 C 6.33 g/m*3 4.4 C 0 km/h
2720 11-11-2013 19:10:00 4.5 C 6.38 g/m*3 4.5 C 0 km/h
2721 11-11-2013 19:15:00 4.5 C 6.38 g/m*3 4.5 C 0 km/h
2722 11-11-2013 19:20:00 4.6 C 6.42 g/m*3 4.6 C 0 km/h
2723 11-11-2013 19:25:00 4.6 C 6.42 g/m*3 4.6 C 0 km/h
2724 11-11-2013 19:30:00 4.6 C 6.42 g/m*3 4.6 C 0 km/h
2725 11-11-2013 19:35:00 4.6 C 6.42 g/m*3 4.6 C 0 km/h
Sensor: Nr:Datum:Temp:Abs-Feuchte:Windchill:Wind:
Aussen-T/F 2726 11-11-2013 19:40:00 4.5 C 6.38 g/m*3 4.5 C 0 km/h
2727 11-11-2013 19:45:00 4.3 C 6.23 g/m*3 4.3 C 0 km/h
2728 11-11-2013 19:50:00 4.2 C 6.19 g/m*3 4.2 C 0 km/h
2729 11-11-2013 19:55:00 4.1 C 6.21 g/m*3 4.1 C 3.2 km/h
2730 11-11-2013 20:00:00 4.1 C 6.21 g/m*3 4.1 C 1.6 km/h
2731 11-11-2013 20:05:00 4.1 C 6.21 g/m*3 4.1 C 1.6 km/h
2732 11-11-2013 20:10:00 4 C 6.17 g/m*3 4 C 1.6 km/h
2733 11-11-2013 20:15:00 3.9 C 6.13 g/m*3 3.9 C 3.2 km/h
2734 11-11-2013 20:20:00 3.9 C 6.13 g/m*3 3.9 C 3.2 km/h
2735 11-11-2013 20:25:00 3.9 C 6.13 g/m*3 3.9 C 3.2 km/h
2736 11-11-2013 20:30:00 3.9 C 6.13 g/m*3 3.9 C 1.6 km/h
2737 11-11-2013 20:35:00 3.9 C 6.13 g/m*3 3.9 C 1.6 km/h
2738 11-11-2013 20:40:00 3.9 C 6.13 g/m*3 3.9 C 3.2 km/h
2739 11-11-2013 20:45:00 3.9 C 6.13 g/m*3 3.9 C 3.2 km/h
2740 11-11-2013 20:50:00 3.9 C 6.13 g/m*3 3.9 C 1.6 km/h
2741 11-11-2013 20:55:00 3.9 C 6.13 g/m*3 3.9 C 0 km/h
2742 11-11-2013 21:00:00 3.9 C 6.13 g/m*3 3.9 C 4.8 km/h
2743 11-11-2013 21:05:00 3.7 C 5.98 g/m*3 3.7 C 4.8 km/h
2744 11-11-2013 21:10:00 3.6 C 5.94 g/m*3 3.6 C 0 km/h
2745 11-11-2013 21:15:00 3.4 C 5.86 g/m*3 3.4 C 0 km/h
2746 11-11-2013 21:20:00 3.2 C 5.79 g/m*3 3.2 C 1.6 km/h
2747 11-11-2013 21:25:00 3.1 C 5.75 g/m*3 3.1 C 1.6 km/h
2748 11-11-2013 21:30:00 3 C 5.71 g/m*3 3 C 1.6 km/h
2749 11-11-2013 21:35:00 3.1 C 5.75 g/m*3 3.1 C 0 km/h
2750 11-11-2013 21:40:00 3 C 5.71 g/m*3 3 C 0 km/h
Sensor: Nr:Datum:Temp:Abs-Feuchte:Windchill:Wind:
Aussen-T/F 2751 11-11-2013 21:45:00 3 C 5.71 g/m*3 3 C 0 km/h
2752 11-11-2013 21:50:00 2.9 C 5.67 g/m*3 2.9 C 0 km/h
2753 11-11-2013 21:55:00 3 C 5.77 g/m*3 3 C 0 km/h
2754 11-11-2013 22:00:00 3.1 C 5.81 g/m*3 3.1 C 0 km/h
2755 11-11-2013 22:05:00 3.2 C 5.85 g/m*3 3.2 C 0 km/h
2756 11-11-2013 22:10:00 3.3 C 5.88 g/m*3 3.3 C 0 km/h
2757 11-11-2013 22:15:00 3.4 C 5.92 g/m*3 3.4 C 0 km/h
2758 11-11-2013 22:20:00 3.4 C 5.92 g/m*3 3.4 C 0 km/h
2759 11-11-2013 22:25:00 3.4 C 5.92 g/m*3 3.4 C 0 km/h
2760 11-11-2013 22:30:00 3.4 C 5.92 g/m*3 3.4 C 0 km/h
2761 11-11-2013 22:35:00 3.4 C 5.92 g/m*3 3.4 C 0 km/h
2762 11-11-2013 22:40:00 3.4 C 5.92 g/m*3 3.4 C 0 km/h
2763 11-11-2013 22:45:00 3.3 C 5.88 g/m*3 3.3 C 0 km/h
2764 11-11-2013 22:50:00 3.3 C 5.88 g/m*3 3.3 C 0 km/h
2765 11-11-2013 22:55:00 3.2 C 5.85 g/m*3 3.2 C 0 km/h
2766 11-11-2013 23:00:00 3.2 C 5.85 g/m*3 3.2 C 1.6 km/h
2767 11-11-2013 23:05:00 3.1 C 5.81 g/m*3 3.1 C 1.6 km/h
2768 11-11-2013 23:10:00 3.1 C 5.81 g/m*3 3.1 C 0 km/h
2769 11-11-2013 23:15:00 3 C 5.77 g/m*3 3 C 0 km/h
2770 11-11-2013 23:20:00 3 C 5.77 g/m*3 3 C 0 km/h
2771 11-11-2013 23:25:00 2.9 C 5.73 g/m*3 2.9 C 0 km/h
2772 11-11-2013 23:30:00 2.9 C 5.73 g/m*3 2.9 C 0 km/h
2773 11-11-2013 23:35:00 2.9 C 5.73 g/m*3 2.9 C 0 km/h
2774 11-11-2013 23:40:00 2.9 C 5.73 g/m*3 2.9 C 1.6 km/h
2775 11-11-2013 23:45:00 2.9 C 5.73 g/m*3 2.9 C 0 km/h
Sensor: Nr:Datum:Temp:Abs-Feuchte:Windchill:Wind:
Aussen-T/F 2776 11-11-2013 23:50:00 2.9 C 5.73 g/m*3 2.9 C 0 km/h
2777 11-11-2013 23:55:00 2.8 C 5.69 g/m*3 2.8 C 0 km/h
2778 12-11-2013 00:00:00 2.8 C 5.69 g/m*3 2.8 C 0 km/h
2779 12-11-2013 00:05:00 2.7 C 5.65 g/m*3 2.7 C 1.6 km/h
2780 12-11-2013 00:10:00 2.7 C 5.65 g/m*3 2.7 C 1.6 km/h
2781 12-11-2013 00:15:00 2.7 C 5.65 g/m*3 2.7 C 0 km/h
2782 12-11-2013 00:20:00 2.7 C 5.65 g/m*3 0.94 C 6.4 km/h
2783 12-11-2013 00:25:00 2.6 C 5.61 g/m*3 2.6 C 1.6 km/h
2784 12-11-2013 00:30:00 2.6 C 5.61 g/m*3 2.6 C 0 km/h
2785 12-11-2013 00:35:00 2.4 C 5.54 g/m*3 2.4 C 0 km/h
2786 12-11-2013 00:40:00 2.4 C 5.54 g/m*3 2.4 C 4.8 km/h
2787 12-11-2013 00:45:00 2.4 C 5.54 g/m*3 0.59 C 6.4 km/h
2788 12-11-2013 00:50:00 2.4 C 5.54 g/m*3 2.4 C 4.8 km/h
2789 12-11-2013 00:55:00 2.4 C 5.54 g/m*3 2.4 C 1.6 km/h
2790 12-11-2013 01:00:00 2.4 C 5.54 g/m*3 2.4 C 0 km/h
2791 12-11-2013 01:05:00 2.4 C 5.54 g/m*3 2.4 C 4.8 km/h
2792 12-11-2013 01:10:00 2.4 C 5.54 g/m*3 2.4 C 1.6 km/h
2793 12-11-2013 01:15:00 2.4 C 5.54 g/m*3 2.4 C 3.2 km/h
2794 12-11-2013 01:20:00 2.3 C 5.5 g/m*3 2.3 C 0 km/h
2795 12-11-2013 01:25:00 2.3 C 5.5 g/m*3 2.3 C 0 km/h
2796 12-11-2013 01:30:00 2.3 C 5.5 g/m*3 2.3 C 0 km/h
2797 12-11-2013 01:35:00 2.3 C 5.5 g/m*3 2.3 C 0 km/h
2798 12-11-2013 01:40:00 2.3 C 5.5 g/m*3 2.3 C 0 km/h
2799 12-11-2013 01:45:00 2.3 C 5.5 g/m*3 2.3 C 1.6 km/h
2800 12-11-2013 01:50:00 2.2 C 5.46 g/m*3 2.2 C 3.2 km/h
Sensor: Nr:Datum:Temp:Abs-Feuchte:Windchill:Wind:
Aussen-T/F 2801 12-11-2013 01:55:00 2.2 C 5.46 g/m*3 2.2 C 0 km/h
2802 12-11-2013 02:00:00 2.2 C 5.46 g/m*3 2.2 C 0 km/h
2803 12-11-2013 02:05:00 2.2 C 5.46 g/m*3 2.2 C 0 km/h
2804 12-11-2013 02:10:00 2.2 C 5.46 g/m*3 2.2 C 0 km/h
2805 12-11-2013 02:15:00 2.2 C 5.46 g/m*3 2.2 C 0 km/h
2806 12-11-2013 02:20:00 2.2 C 5.46 g/m*3 2.2 C 0 km/h
2807 12-11-2013 02:25:00 2.2 C 5.46 g/m*3 2.2 C 0 km/h
2808 12-11-2013 02:30:00 2.1 C 5.43 g/m*3 2.1 C 1.6 km/h
2809 12-11-2013 02:35:00 2.2 C 5.46 g/m*3 2.2 C 0 km/h
2810 12-11-2013 02:40:00 2.1 C 5.43 g/m*3 2.1 C 0 km/h
2811 12-11-2013 02:45:00 2.1 C 5.43 g/m*3 2.1 C 0 km/h
2812 12-11-2013 02:50:00 2 C 5.39 g/m*3 2 C 0 km/h
2813 12-11-2013 02:55:00 1.9 C 5.35 g/m*3 1.9 C 0 km/h
2814 12-11-2013 03:00:00 1.9 C 5.35 g/m*3 1.9 C 0 km/h
2815 12-11-2013 03:05:00 1.9 C 5.35 g/m*3 1.9 C 1.6 km/h
2816 12-11-2013 03:10:00 1.8 C 5.32 g/m*3 1.8 C 0 km/h
2817 12-11-2013 03:15:00 1.8 C 5.32 g/m*3 1.8 C 0 km/h
2818 12-11-2013 03:20:00 1.8 C 5.32 g/m*3 1.8 C 0 km/h
2819 12-11-2013 03:25:00 1.8 C 5.32 g/m*3 1.8 C 0 km/h
2820 12-11-2013 03:30:00 1.8 C 5.32 g/m*3 1.8 C 0 km/h
2821 12-11-2013 03:35:00 1.8 C 5.32 g/m*3 1.8 C 0 km/h
2822 12-11-2013 03:40:00 1.8 C 5.32 g/m*3 1.8 C 0 km/h
2823 12-11-2013 03:45:00 1.7 C 5.28 g/m*3 1.7 C 0 km/h
2824 12-11-2013 03:50:00 1.7 C 5.28 g/m*3 1.7 C 0 km/h
2825 12-11-2013 03:55:00 1.7 C 5.28 g/m*3 1.7 C 1.6 km/h
Sensor: Nr:Datum:Temp:Abs-Feuchte:Windchill:Wind:
Aussen-T/F 2826 12-11-2013 04:00:00 1.6 C 5.25 g/m*3 1.6 C 0 km/h
2827 12-11-2013 04:05:00 1.6 C 5.25 g/m*3 1.6 C 0 km/h
2828 12-11-2013 04:10:00 1.7 C 5.28 g/m*3 1.7 C 0 km/h
2829 12-11-2013 04:15:00 1.7 C 5.28 g/m*3 1.7 C 0 km/h
2830 12-11-2013 04:20:00 1.6 C 5.25 g/m*3 1.6 C 0 km/h
2831 12-11-2013 04:25:00 1.6 C 5.25 g/m*3 1.6 C 0 km/h
2832 12-11-2013 04:30:00 1.5 C 5.21 g/m*3 1.5 C 0 km/h
2833 12-11-2013 04:35:00 1.5 C 5.21 g/m*3 1.5 C 0 km/h
2834 12-11-2013 04:40:00 1.5 C 5.21 g/m*3 1.5 C 0 km/h
2835 12-11-2013 04:45:00 1.5 C 5.21 g/m*3 1.5 C 0 km/h
2836 12-11-2013 04:50:00 1.4 C 5.17 g/m*3 1.4 C 0 km/h
2837 12-11-2013 04:55:00 1.4 C 5.17 g/m*3 1.4 C 0 km/h
2838 12-11-2013 05:00:00 1.4 C 5.17 g/m*3 1.4 C 0 km/h
2839 12-11-2013 05:05:00 1.4 C 5.17 g/m*3 1.4 C 0 km/h
2840 12-11-2013 05:10:00 1.5 C 5.21 g/m*3 1.5 C 0 km/h
2841 12-11-2013 05:15:00 1.5 C 5.21 g/m*3 1.5 C 0 km/h
2842 12-11-2013 05:20:00 1.5 C 5.21 g/m*3 1.5 C 0 km/h
2843 12-11-2013 05:25:00 1.5 C 5.21 g/m*3 1.5 C 0 km/h
2844 12-11-2013 05:30:00 1.5 C 5.21 g/m*3 1.5 C 0 km/h
2845 12-11-2013 05:35:00 1.6 C 5.25 g/m*3 1.6 C 0 km/h
2846 12-11-2013 05:40:00 1.6 C 5.25 g/m*3 1.6 C 0 km/h
2847 12-11-2013 05:45:00 1.6 C 5.25 g/m*3 1.6 C 0 km/h
2848 12-11-2013 05:50:00 1.5 C 5.21 g/m*3 1.5 C 0 km/h
2849 12-11-2013 05:55:00 1.6 C 5.25 g/m*3 1.6 C 0 km/h
2850 12-11-2013 06:00:00 1.5 C 5.21 g/m*3 1.5 C 0 km/h
Sensor: Nr:Datum:Temp:Abs-Feuchte:Windchill:Wind:
Aussen-T/F 2851 12-11-2013 06:05:00 1.5 C 5.21 g/m*3 1.5 C 0 km/h
2852 12-11-2013 06:10:00 1.5 C 5.21 g/m*3 1.5 C 0 km/h
2853 12-11-2013 06:15:00 1.5 C 5.21 g/m*3 1.5 C 0 km/h
2854 12-11-2013 06:20:00 1.4 C 5.17 g/m*3 1.4 C 0 km/h
2855 12-11-2013 06:25:00 1.4 C 5.17 g/m*3 1.4 C 0 km/h
2856 12-11-2013 06:30:00 1.4 C 5.17 g/m*3 1.4 C 0 km/h
2857 12-11-2013 06:35:00 1.3 C 5.14 g/m*3 1.3 C 0 km/h
2858 12-11-2013 06:40:00 1.2 C 5.1 g/m*3 1.2 C 0 km/h
2859 12-11-2013 06:45:00 1.1 C 5.07 g/m*3 1.1 C 0 km/h
2860 12-11-2013 06:50:00 1.2 C 5.1 g/m*3 1.2 C 0 km/h
2861 12-11-2013 06:55:00 1.2 C 5.1 g/m*3 1.2 C 0 km/h
2862 12-11-2013 07:00:00 1.2 C 5.1 g/m*3 1.2 C 0 km/h
2863 12-11-2013 07:05:00 1.2 C 5.1 g/m*3 1.2 C 0 km/h
2864 12-11-2013 07:10:00 1.2 C 5.1 g/m*3 1.2 C 0 km/h
2865 12-11-2013 07:15:00 1.2 C 5.1 g/m*3 1.2 C 0 km/h
2866 12-11-2013 07:20:00 1.1 C 5.07 g/m*3 1.1 C 0 km/h
2867 12-11-2013 07:25:00 1 C 5.03 g/m*3 1 C 0 km/h
2868 12-11-2013 07:30:00 0.9 C 5 g/m*3 0.9 C 0 km/h
2869 12-11-2013 07:35:00 0.9 C 5 g/m*3 0.9 C 0 km/h
2870 12-11-2013 07:40:00 0.9 C 5 g/m*3 0.9 C 0 km/h
2871 12-11-2013 07:45:00 0.9 C 5 g/m*3 0.9 C 0 km/h
2872 12-11-2013 07:50:00 0.9 C 5 g/m*3 0.9 C 0 km/h
2873 12-11-2013 07:55:00 0.9 C 5 g/m*3 0.9 C 0 km/h
2874 12-11-2013 08:00:00 0.8 C 4.97 g/m*3 0.8 C 0 km/h
2875 12-11-2013 08:05:00 0.7 C 4.93 g/m*3 0.7 C 0 km/h
Sensor: Nr:Datum:Temp:Abs-Feuchte:Windchill:Wind:
Aussen-T/F 2876 12-11-2013 08:10:00 0.7 C 4.93 g/m*3 0.7 C 0 km/h
2877 12-11-2013 08:15:00 0.7 C 4.93 g/m*3 0.7 C 0 km/h
2878 12-11-2013 08:20:00 0.8 C 4.97 g/m*3 0.8 C 0 km/h
2879 12-11-2013 08:25:00 0.9 C 5 g/m*3 0.9 C 0 km/h
2880 12-11-2013 08:30:00 1 C 5.03 g/m*3 1 C 0 km/h
2881 12-11-2013 08:35:00 1.1 C 5.07 g/m*3 1.1 C 0 km/h
2882 12-11-2013 08:40:00 1 C 5.03 g/m*3 1 C 0 km/h
2883 12-11-2013 08:45:00 1.1 C 5.07 g/m*3 1.1 C 0 km/h
2884 12-11-2013 08:50:00 1.1 C 5.07 g/m*3 1.1 C 0 km/h
2885 12-11-2013 08:55:00 1.1 C 5.07 g/m*3 1.1 C 0 km/h
2886 12-11-2013 09:00:00 1.1 C 5.07 g/m*3 1.1 C 0 km/h
2887 12-11-2013 09:05:00 1.1 C 5.07 g/m*3 1.1 C 0 km/h
2888 12-11-2013 09:10:00 1.1 C 5.07 g/m*3 1.1 C 0 km/h
2889 12-11-2013 09:15:00 1.1 C 5.07 g/m*3 1.1 C 0 km/h
2890 12-11-2013 09:20:00 1.1 C 5.07 g/m*3 1.1 C 0 km/h
2891 12-11-2013 09:25:00 1.2 C 5.1 g/m*3 1.2 C 0 km/h
2892 12-11-2013 09:30:00 1.2 C 5.1 g/m*3 1.2 C 0 km/h
2893 12-11-2013 09:35:00 1.3 C 5.14 g/m*3 1.3 C 0 km/h
2894 12-11-2013 09:40:00 1.4 C 5.17 g/m*3 1.4 C 0 km/h
2895 12-11-2013 09:45:00 1.5 C 5.21 g/m*3 1.5 C 0 km/h
2896 12-11-2013 09:50:00 1.6 C 5.3 g/m*3 1.6 C 0 km/h
2897 12-11-2013 09:55:00 1.7 C 5.34 g/m*3 1.7 C 0 km/h
2898 12-11-2013 10:00:00 1.8 C 5.37 g/m*3 1.8 C 0 km/h
2899 12-11-2013 10:05:00 2.1 C 5.48 g/m*3 2.1 C 0 km/h
2900 12-11-2013 10:10:00 2.1 C 5.48 g/m*3 2.1 C 0 km/h
Sensor: Nr:Datum:Temp:Abs-Feuchte:Windchill:Wind:
Aussen-T/F 2901 12-11-2013 10:15:00 2.2 C 5.52 g/m*3 2.2 C 0 km/h
2902 12-11-2013 10:20:00 2.2 C 5.52 g/m*3 2.2 C 0 km/h
2903 12-11-2013 10:25:00 2.3 C 5.56 g/m*3 2.3 C 1.6 km/h
2904 12-11-2013 10:30:00 2.3 C 5.56 g/m*3 2.3 C 0 km/h
2905 12-11-2013 10:35:00 2.3 C 5.56 g/m*3 2.3 C 0 km/h
2906 12-11-2013 10:40:00 2.4 C 5.54 g/m*3 2.4 C 0 km/h
2907 12-11-2013 10:45:00 2.4 C 5.54 g/m*3 2.4 C 0 km/h
2908 12-11-2013 10:50:00 2.4 C 5.6 g/m*3 2.4 C 0 km/h
2909 12-11-2013 10:55:00 2.6 C 5.67 g/m*3 2.6 C 0 km/h
2910 12-11-2013 11:00:00 2.6 C 5.67 g/m*3 2.6 C 0 km/h
2911 12-11-2013 11:05:00 2.7 C 5.65 g/m*3 2.7 C 0 km/h
2912 12-11-2013 11:10:00 2.7 C 5.65 g/m*3 2.7 C 0 km/h
2913 12-11-2013 11:15:00 2.8 C 5.69 g/m*3 2.8 C 0 km/h
2914 12-11-2013 11:20:00 2.8 C 5.75 g/m*3 2.8 C 0 km/h
2915 12-11-2013 11:25:00 2.9 C 5.73 g/m*3 2.9 C 0 km/h
2916 12-11-2013 11:30:00 3 C 5.77 g/m*3 3 C 0 km/h
2917 12-11-2013 11:35:00 3.1 C 5.87 g/m*3 3.1 C 0 km/h
2918 12-11-2013 11:40:00 3.3 C 5.95 g/m*3 3.3 C 0 km/h
2919 12-11-2013 11:45:00 3.5 C 6.03 g/m*3 3.5 C 0 km/h
2920 12-11-2013 11:50:00 3.8 C 6.15 g/m*3 3.8 C 0 km/h
2921 12-11-2013 11:55:00 4.2 C 6.31 g/m*3 4.2 C 3.2 km/h
2922 12-11-2013 12:00:00 4.4 C 6.4 g/m*3 4.4 C 1.6 km/h
2923 12-11-2013 12:05:00 4.7 C 6.53 g/m*3 4.7 C 1.6 km/h
2924 12-11-2013 12:10:00 4.9 C 6.62 g/m*3 4.9 C 0 km/h
2925 12-11-2013 12:15:00 5.2 C 6.61 g/m*3 5.2 C 1.6 km/h
Sensor: Nr:Datum:Temp:Abs-Feuchte:Windchill:Wind:
Aussen-T/F 2926 12-11-2013 12:20:00 5.4 C 6.63 g/m*3 5.4 C 0 km/h
2927 12-11-2013 12:25:00 5.7 C 6.62 g/m*3 5.7 C 0 km/h
2928 12-11-2013 12:30:00 5.9 C 6.71 g/m*3 5.9 C 1.6 km/h
2929 12-11-2013 12:35:00 6.2 C 6.77 g/m*3 6.2 C 3.2 km/h
2930 12-11-2013 12:40:00 6.4 C 6.71 g/m*3 6.4 C 3.2 km/h
2931 12-11-2013 12:45:00 6.6 C 6.72 g/m*3 6.6 C 3.2 km/h
2932 12-11-2013 12:50:00 6.7 C 6.69 g/m*3 6.7 C 3.2 km/h
2933 12-11-2013 12:55:00 6.8 C 6.65 g/m*3 6.8 C 3.2 km/h
2934 12-11-2013 13:00:00 6.9 C 6.62 g/m*3 6.9 C 3.2 km/h
2935 12-11-2013 13:05:00 6.9 C 6.7 g/m*3 6.9 C 1.6 km/h
2936 12-11-2013 13:10:00 7.1 C 6.71 g/m*3 7.1 C 1.6 km/h
2937 12-11-2013 13:15:00 7.2 C 6.75 g/m*3 7.2 C 3.2 km/h
2938 12-11-2013 13:20:00 7.3 C 6.79 g/m*3 7.3 C 1.6 km/h
2939 12-11-2013 13:25:00 7.4 C 6.84 g/m*3 7.4 C 3.2 km/h
2940 12-11-2013 13:30:00 7.6 C 6.93 g/m*3 7.6 C 3.2 km/h
2941 12-11-2013 13:35:00 7.7 C 6.89 g/m*3 7.7 C 3.2 km/h
2942 12-11-2013 13:40:00 7.7 C 6.89 g/m*3 7.7 C 3.2 km/h
2943 12-11-2013 13:45:00 7.8 C 6.86 g/m*3 7.8 C 4.8 km/h
2944 12-11-2013 13:50:00 7.9 C 6.98 g/m*3 7.9 C 3.2 km/h
2945 12-11-2013 13:55:00 7.9 C 6.9 g/m*3 7.9 C 3.2 km/h
2946 12-11-2013 14:00:00 8.1 C 6.99 g/m*3 8.1 C 3.2 km/h
2947 12-11-2013 14:05:00 8.1 C 6.99 g/m*3 8.1 C 0 km/h
2948 12-11-2013 14:10:00 8.1 C 6.99 g/m*3 8.1 C 0 km/h
2949 12-11-2013 14:15:00 8.1 C 6.91 g/m*3 8.1 C 4.8 km/h
2950 12-11-2013 14:20:00 8.1 C 6.91 g/m*3 8.1 C 4.8 km/h
Sensor: Nr:Datum:Temp:Abs-Feuchte:Windchill:Wind:
Aussen-T/F 2951 12-11-2013 14:25:00 8.1 C 6.82 g/m*3 7.17 C 6.4 km/h
2952 12-11-2013 14:30:00 8.2 C 6.95 g/m*3 8.2 C 4.8 km/h
2953 12-11-2013 14:35:00 8.2 C 6.95 g/m*3 6.54 C 9.7 km/h
2954 12-11-2013 14:40:00 8.2 C 6.95 g/m*3 6.54 C 9.7 km/h
2955 12-11-2013 14:45:00 8.2 C 6.87 g/m*3 7.29 C 6.4 km/h
2956 12-11-2013 14:50:00 8.2 C 6.87 g/m*3 8.2 C 3.2 km/h
2957 12-11-2013 14:55:00 8.3 C 6.83 g/m*3 7.41 C 6.4 km/h
2958 12-11-2013 15:00:00 8.3 C 6.83 g/m*3 7.41 C 6.4 km/h
2959 12-11-2013 15:05:00 8.3 C 6.83 g/m*3 8.3 C 4.8 km/h
2960 12-11-2013 15:10:00 8.3 C 6.83 g/m*3 8.3 C 3.2 km/h
2961 12-11-2013 15:15:00 8.3 C 7 g/m*3 8.3 C 1.6 km/h
2962 12-11-2013 15:20:00 8.3 C 7 g/m*3 8.3 C 1.6 km/h
2963 12-11-2013 15:25:00 8.3 C 7.08 g/m*3 8.3 C 0 km/h
2964 12-11-2013 15:30:00 8.4 C 7.38 g/m*3 8.4 C 0 km/h
2965 12-11-2013 15:35:00 8.4 C 7.38 g/m*3 8.4 C 0 km/h
2966 12-11-2013 15:40:00 8.3 C 7.42 g/m*3 8.3 C 0 km/h
2967 12-11-2013 15:45:00 8.3 C 7.5 g/m*3 8.3 C 0 km/h
2968 12-11-2013 15:50:00 8.3 C 7.5 g/m*3 8.3 C 0 km/h
2969 12-11-2013 15:55:00 8.2 C 7.29 g/m*3 8.2 C 0 km/h
2970 12-11-2013 16:00:00 8.2 C 7.2 g/m*3 8.2 C 0 km/h
2971 12-11-2013 16:05:00 8.2 C 7.29 g/m*3 8.2 C 0 km/h
2972 12-11-2013 16:10:00 8.2 C 7.37 g/m*3 8.2 C 1.6 km/h
2973 12-11-2013 16:15:00 8.1 C 7.32 g/m*3 8.1 C 0 km/h
2974 12-11-2013 16:20:00 7.9 C 7.23 g/m*3 7.9 C 0 km/h
2975 12-11-2013 16:25:00 7.8 C 7.26 g/m*3 7.8 C 0 km/h
Sensor: Nr:Datum:Temp:Abs-Feuchte:Windchill:Wind:
Aussen-T/F 2976 12-11-2013 16:30:00 7.6 C 7.09 g/m*3 7.6 C 0 km/h
2977 12-11-2013 16:35:00 7.6 C 7.17 g/m*3 7.6 C 0 km/h
2978 12-11-2013 16:40:00 7.6 C 7.25 g/m*3 7.6 C 0 km/h
2979 12-11-2013 16:45:00 7.5 C 7.2 g/m*3 7.5 C 0 km/h
2980 12-11-2013 16:50:00 7.4 C 7.08 g/m*3 7.4 C 0 km/h
2981 12-11-2013 16:55:00 7.3 C 7.03 g/m*3 7.3 C 0 km/h
2982 12-11-2013 17:00:00 7.3 C 7.03 g/m*3 7.3 C 0 km/h
2983 12-11-2013 17:05:00 7.2 C 6.99 g/m*3 7.2 C 0 km/h
2984 12-11-2013 17:10:00 7.2 C 7.06 g/m*3 7.2 C 0 km/h
2985 12-11-2013 17:15:00 7.1 C 7.02 g/m*3 7.1 C 0 km/h
2986 12-11-2013 17:20:00 7 C 6.74 g/m*3 7 C 0 km/h
2987 12-11-2013 17:25:00 7.1 C 6.94 g/m*3 7.1 C 0 km/h
2988 12-11-2013 17:30:00 7.1 C 6.86 g/m*3 7.1 C 1.6 km/h
2989 12-11-2013 17:35:00 7.1 C 7.02 g/m*3 7.1 C 1.6 km/h
2990 12-11-2013 17:40:00 7.1 C 6.94 g/m*3 7.1 C 0 km/h
2991 12-11-2013 17:45:00 7.1 C 6.79 g/m*3 7.1 C 0 km/h
2992 12-11-2013 17:50:00 7.2 C 6.83 g/m*3 7.2 C 1.6 km/h
2993 12-11-2013 17:55:00 7.2 C 6.75 g/m*3 7.2 C 1.6 km/h
2994 12-11-2013 18:00:00 7.3 C 6.79 g/m*3 7.3 C 1.6 km/h
2995 12-11-2013 18:05:00 7.3 C 6.79 g/m*3 7.3 C 3.2 km/h
2996 12-11-2013 18:10:00 7.3 C 6.95 g/m*3 7.3 C 1.6 km/h
2997 12-11-2013 18:15:00 7.2 C 6.99 g/m*3 7.2 C 3.2 km/h
2998 12-11-2013 18:20:00 7.1 C 7.02 g/m*3 7.1 C 1.6 km/h
2999 12-11-2013 18:25:00 6.9 C 6.93 g/m*3 6.9 C 1.6 km/h
3000 12-11-2013 18:30:00 6.9 C 7.08 g/m*3 6.9 C 1.6 km/h
Sensor: Nr:Datum:Temp:Abs-Feuchte:Windchill:Wind:
Aussen-T/F 3001 12-11-2013 18:35:00 6.8 C 7.04 g/m*3 6.8 C 0 km/h
3002 12-11-2013 18:40:00 6.8 C 7.04 g/m*3 6.8 C 3.2 km/h
3003 12-11-2013 18:45:00 6.7 C 6.99 g/m*3 6.7 C 3.2 km/h
3004 12-11-2013 18:50:00 6.7 C 6.99 g/m*3 6.7 C 1.6 km/h
3005 12-11-2013 18:55:00 6.7 C 7.07 g/m*3 6.7 C 1.6 km/h
3006 12-11-2013 19:00:00 6.7 C 7.07 g/m*3 6.7 C 1.6 km/h
3007 12-11-2013 19:05:00 6.6 C 7.02 g/m*3 6.6 C 0 km/h
3008 12-11-2013 19:10:00 6.6 C 6.95 g/m*3 6.6 C 3.2 km/h
3009 12-11-2013 19:15:00 6.6 C 6.95 g/m*3 6.6 C 1.6 km/h
3010 12-11-2013 19:20:00 6.7 C 7.07 g/m*3 6.7 C 1.6 km/h
3011 12-11-2013 19:25:00 6.6 C 7.02 g/m*3 6.6 C 0 km/h
3012 12-11-2013 19:30:00 6.6 C 7.02 g/m*3 6.6 C 0 km/h
3013 12-11-2013 19:35:00 6.6 C 7.02 g/m*3 6.6 C 0 km/h
3014 12-11-2013 19:40:00 6.6 C 7.02 g/m*3 6.6 C 1.6 km/h
3015 12-11-2013 19:45:00 6.6 C 7.02 g/m*3 6.6 C 1.6 km/h
3016 12-11-2013 19:50:00 6.6 C 7.02 g/m*3 6.6 C 0 km/h
3017 12-11-2013 19:55:00 6.6 C 6.95 g/m*3 6.6 C 4.8 km/h
3018 12-11-2013 20:00:00 6.6 C 6.95 g/m*3 6.6 C 0 km/h
3019 12-11-2013 20:05:00 6.7 C 7.07 g/m*3 6.7 C 3.2 km/h
3020 12-11-2013 20:10:00 6.6 C 6.95 g/m*3 6.6 C 1.6 km/h
3021 12-11-2013 20:15:00 6.6 C 6.95 g/m*3 6.6 C 0 km/h
3022 12-11-2013 20:20:00 6.6 C 6.95 g/m*3 6.6 C 0 km/h
3023 12-11-2013 20:25:00 6.6 C 7.02 g/m*3 6.6 C 0 km/h
3024 12-11-2013 20:30:00 6.6 C 7.02 g/m*3 6.6 C 1.6 km/h
3025 12-11-2013 20:35:00 6.6 C 7.02 g/m*3 6.6 C 1.6 km/h
Sensor: Nr:Datum:Temp:Abs-Feuchte:Windchill:Wind:
Aussen-T/F 3026 12-11-2013 20:40:00 6.6 C 7.02 g/m*3 6.6 C 1.6 km/h
3027 12-11-2013 20:45:00 6.6 C 6.95 g/m*3 6.6 C 3.2 km/h
3028 12-11-2013 20:50:00 6.6 C 6.95 g/m*3 6.6 C 3.2 km/h
3029 12-11-2013 20:55:00 6.7 C 7.07 g/m*3 6.7 C 1.6 km/h
3030 12-11-2013 21:00:00 6.6 C 7.02 g/m*3 6.6 C 3.2 km/h
3031 12-11-2013 21:05:00 6.6 C 7.02 g/m*3 6.6 C 3.2 km/h
3032 12-11-2013 21:10:00 6.5 C 6.97 g/m*3 6.5 C 1.6 km/h
3033 12-11-2013 21:15:00 6.5 C 7.05 g/m*3 6.5 C 4.8 km/h
3034 12-11-2013 21:20:00 6.4 C 7 g/m*3 6.4 C 3.2 km/h
3035 12-11-2013 21:25:00 6.4 C 7 g/m*3 6.4 C 0 km/h
3036 12-11-2013 21:30:00 6.4 C 7 g/m*3 6.4 C 3.2 km/h
3037 12-11-2013 21:35:00 6.4 C 7.08 g/m*3 6.4 C 0 km/h
3038 12-11-2013 21:40:00 6.4 C 7.08 g/m*3 6.4 C 3.2 km/h
3039 12-11-2013 21:45:00 6.4 C 7.08 g/m*3 6.4 C 0 km/h
3040 12-11-2013 21:50:00 6.4 C 7.08 g/m*3 6.4 C 3.2 km/h
3041 12-11-2013 21:55:00 6.4 C 7.08 g/m*3 6.4 C 3.2 km/h
3042 12-11-2013 22:00:00 6.4 C 7.08 g/m*3 6.4 C 0 km/h
3043 12-11-2013 22:05:00 6.4 C 7.15 g/m*3 6.4 C 0 km/h
3044 12-11-2013 22:10:00 6.4 C 7.15 g/m*3 6.4 C 0 km/h
3045 12-11-2013 22:15:00 6.4 C 7.15 g/m*3 6.4 C 0 km/h
3046 12-11-2013 22:20:00 6.3 C 7.11 g/m*3 6.3 C 0 km/h
3047 12-11-2013 22:25:00 6.4 C 7.15 g/m*3 6.4 C 1.6 km/h
3048 12-11-2013 22:30:00 6.4 C 7.15 g/m*3 6.4 C 1.6 km/h
3049 12-11-2013 22:35:00 6.3 C 7.11 g/m*3 6.3 C 1.6 km/h
3050 12-11-2013 22:40:00 6.4 C 7.15 g/m*3 6.4 C 0 km/h
Sensor: Nr:Datum:Temp:Abs-Feuchte:Windchill:Wind:
Aussen-T/F 3051 12-11-2013 22:45:00 6.4 C 7.15 g/m*3 6.4 C 0 km/h
3052 12-11-2013 22:50:00 6.4 C 7.15 g/m*3 6.4 C 0 km/h
3053 12-11-2013 22:55:00 6.4 C 7.15 g/m*3 6.4 C 0 km/h
3054 12-11-2013 23:00:00 6.4 C 7.15 g/m*3 6.4 C 0 km/h
3055 12-11-2013 23:05:00 6.4 C 7.15 g/m*3 6.4 C 0 km/h
3056 12-11-2013 23:10:00 6.4 C 7.15 g/m*3 6.4 C 0 km/h
3057 12-11-2013 23:15:00 6.4 C 7.23 g/m*3 6.4 C 0 km/h
3058 12-11-2013 23:20:00 6.4 C 7.23 g/m*3 6.4 C 0 km/h
3059 12-11-2013 23:25:00 6.4 C 7.23 g/m*3 6.4 C 0 km/h
3060 12-11-2013 23:30:00 6.4 C 7.23 g/m*3 6.4 C 0 km/h
3061 12-11-2013 23:35:00 6.4 C 7.23 g/m*3 6.4 C 0 km/h
3062 12-11-2013 23:40:00 6.4 C 7.23 g/m*3 6.4 C 0 km/h
3063 12-11-2013 23:45:00 6.5 C 7.27 g/m*3 6.5 C 0 km/h
3064 12-11-2013 23:50:00 6.5 C 7.27 g/m*3 6.5 C 0 km/h
3065 12-11-2013 23:55:00 6.5 C 7.27 g/m*3 6.5 C 0 km/h
3066 13-11-2013 00:00:00 6.5 C 7.27 g/m*3 6.5 C 0 km/h
3067 13-11-2013 00:05:00 6.6 C 7.32 g/m*3 6.6 C 0 km/h
3068 13-11-2013 00:10:00 6.6 C 7.32 g/m*3 6.6 C 0 km/h
3069 13-11-2013 00:15:00 6.6 C 7.32 g/m*3 6.6 C 0 km/h
3070 13-11-2013 00:20:00 6.6 C 7.32 g/m*3 6.6 C 0 km/h
3071 13-11-2013 00:25:00 6.7 C 7.37 g/m*3 6.7 C 0 km/h
3072 13-11-2013 00:30:00 6.7 C 7.37 g/m*3 6.7 C 0 km/h
3073 13-11-2013 00:35:00 6.7 C 7.37 g/m*3 6.7 C 0 km/h
3074 13-11-2013 00:40:00 6.7 C 7.37 g/m*3 6.7 C 0 km/h
3075 13-11-2013 00:45:00 6.8 C 7.42 g/m*3 6.8 C 0 km/h
Sensor: Nr:Datum:Temp:Abs-Feuchte:Windchill:Wind:
Aussen-T/F 3076 13-11-2013 00:50:00 6.8 C 7.42 g/m*3 6.8 C 0 km/h
3077 13-11-2013 00:55:00 6.8 C 7.42 g/m*3 6.8 C 0 km/h
3078 13-11-2013 01:00:00 6.8 C 7.42 g/m*3 6.8 C 0 km/h
3079 13-11-2013 01:05:00 6.8 C 7.42 g/m*3 6.8 C 0 km/h
3080 13-11-2013 01:10:00 6.8 C 7.42 g/m*3 6.8 C 0 km/h
3081 13-11-2013 01:15:00 6.8 C 7.42 g/m*3 6.8 C 0 km/h
3082 13-11-2013 01:20:00 6.8 C 7.42 g/m*3 6.8 C 0 km/h
3083 13-11-2013 01:25:00 6.8 C 7.42 g/m*3 6.8 C 0 km/h
3084 13-11-2013 01:30:00 6.8 C 7.42 g/m*3 6.8 C 0 km/h
3085 13-11-2013 01:35:00 6.8 C 7.42 g/m*3 6.8 C 0 km/h
3086 13-11-2013 01:40:00 6.9 C 7.47 g/m*3 6.9 C 0 km/h
3087 13-11-2013 01:45:00 6.9 C 7.47 g/m*3 6.9 C 0 km/h
3088 13-11-2013 01:50:00 6.9 C 7.47 g/m*3 6.9 C 0 km/h
3089 13-11-2013 01:55:00 7 C 7.52 g/m*3 7 C 1.6 km/h
3090 13-11-2013 02:00:00 7 C 7.52 g/m*3 7 C 1.6 km/h
3091 13-11-2013 02:05:00 7 C 7.52 g/m*3 7 C 0 km/h
3092 13-11-2013 02:10:00 7.1 C 7.57 g/m*3 7.1 C 0 km/h
3093 13-11-2013 02:15:00 7.1 C 7.57 g/m*3 7.1 C 0 km/h
3094 13-11-2013 02:20:00 7.2 C 7.61 g/m*3 7.2 C 0 km/h
3095 13-11-2013 02:25:00 7.2 C 7.69 g/m*3 7.2 C 0 km/h
3096 13-11-2013 02:30:00 7.3 C 7.74 g/m*3 7.3 C 0 km/h
3097 13-11-2013 02:35:00 7.4 C 7.79 g/m*3 7.4 C 1.6 km/h
3098 13-11-2013 02:40:00 7.4 C 7.71 g/m*3 7.4 C 0 km/h
3099 13-11-2013 02:45:00 7.5 C 7.76 g/m*3 7.5 C 0 km/h
3100 13-11-2013 02:50:00 7.5 C 7.76 g/m*3 7.5 C 1.6 km/h
Sensor: Nr:Datum:Temp:Abs-Feuchte:Windchill:Wind:
Aussen-T/F 3101 13-11-2013 02:55:00 7.6 C 7.9 g/m*3 7.6 C 0 km/h
3102 13-11-2013 03:00:00 7.6 C 7.9 g/m*3 7.6 C 0 km/h
3103 13-11-2013 03:05:00 7.6 C 7.9 g/m*3 7.6 C 1.6 km/h
3104 13-11-2013 03:10:00 7.6 C 7.9 g/m*3 7.6 C 4.8 km/h
3105 13-11-2013 03:15:00 7.6 C 7.9 g/m*3 7.6 C 3.2 km/h
3106 13-11-2013 03:20:00 7.6 C 7.81 g/m*3 7.6 C 1.6 km/h
3107 13-11-2013 03:25:00 7.6 C 7.81 g/m*3 7.6 C 3.2 km/h
3108 13-11-2013 03:30:00 7.6 C 7.81 g/m*3 7.6 C 3.2 km/h
3109 13-11-2013 03:35:00 7.6 C 7.81 g/m*3 7.6 C 0 km/h
3110 13-11-2013 03:40:00 7.6 C 7.81 g/m*3 7.6 C 3.2 km/h
3111 13-11-2013 03:45:00 7.6 C 7.81 g/m*3 7.6 C 4.8 km/h
3112 13-11-2013 03:50:00 7.6 C 7.81 g/m*3 7.6 C 0 km/h
3113 13-11-2013 03:55:00 7.5 C 7.76 g/m*3 7.5 C 0 km/h
3114 13-11-2013 04:00:00 7.5 C 7.76 g/m*3 7.5 C 0 km/h
3115 13-11-2013 04:05:00 7.5 C 7.76 g/m*3 7.5 C 0 km/h
3116 13-11-2013 04:10:00 7.6 C 7.81 g/m*3 7.6 C 3.2 km/h
3117 13-11-2013 04:15:00 7.6 C 7.81 g/m*3 7.6 C 1.6 km/h
3118 13-11-2013 04:20:00 7.6 C 7.81 g/m*3 7.6 C 3.2 km/h
3119 13-11-2013 04:25:00 7.6 C 7.81 g/m*3 7.6 C 1.6 km/h
3120 13-11-2013 04:30:00 7.6 C 7.81 g/m*3 7.6 C 0 km/h
3121 13-11-2013 04:35:00 7.6 C 7.81 g/m*3 7.6 C 0 km/h
3122 13-11-2013 04:40:00 7.6 C 7.81 g/m*3 7.6 C 0 km/h
3123 13-11-2013 04:45:00 7.7 C 7.87 g/m*3 7.7 C 0 km/h
3124 13-11-2013 04:50:00 7.6 C 7.81 g/m*3 7.6 C 0 km/h
3125 13-11-2013 04:55:00 7.7 C 7.87 g/m*3 7.7 C 0 km/h
Sensor: Nr:Datum:Temp:Abs-Feuchte:Windchill:Wind:
Aussen-T/F 3126 13-11-2013 05:00:00 7.7 C 7.87 g/m*3 7.7 C 0 km/h
3127 13-11-2013 05:05:00 7.7 C 7.87 g/m*3 7.7 C 0 km/h
3128 13-11-2013 05:10:00 7.7 C 7.87 g/m*3 7.7 C 0 km/h
3129 13-11-2013 05:15:00 7.7 C 7.87 g/m*3 7.7 C 3.2 km/h
3130 13-11-2013 05:20:00 7.6 C 7.81 g/m*3 7.6 C 0 km/h
3131 13-11-2013 05:25:00 7.5 C 7.76 g/m*3 7.5 C 0 km/h
3132 13-11-2013 05:30:00 7.4 C 7.71 g/m*3 7.4 C 1.6 km/h
3133 13-11-2013 05:35:00 7.3 C 7.66 g/m*3 7.3 C 1.6 km/h
3134 13-11-2013 05:40:00 7.2 C 7.61 g/m*3 7.2 C 1.6 km/h
3135 13-11-2013 05:45:00 7.1 C 7.57 g/m*3 7.1 C 1.6 km/h
3136 13-11-2013 05:50:00 7.1 C 7.57 g/m*3 7.1 C 0 km/h
3137 13-11-2013 05:55:00 7 C 7.52 g/m*3 7 C 0 km/h
3138 13-11-2013 06:00:00 7 C 7.52 g/m*3 7 C 1.6 km/h
3139 13-11-2013 06:05:00 7.1 C 7.57 g/m*3 7.1 C 1.6 km/h
3140 13-11-2013 06:10:00 7 C 7.52 g/m*3 7 C 1.6 km/h
3141 13-11-2013 06:15:00 6.9 C 7.47 g/m*3 6.9 C 1.6 km/h
3142 13-11-2013 06:20:00 6.8 C 7.42 g/m*3 6.8 C 0 km/h
3143 13-11-2013 06:25:00 6.9 C 7.47 g/m*3 6.9 C 1.6 km/h
3144 13-11-2013 06:30:00 7 C 7.52 g/m*3 7 C 3.2 km/h
3145 13-11-2013 06:35:00 7.1 C 7.57 g/m*3 6.02 C 6.4 km/h
3146 13-11-2013 06:40:00 7.2 C 7.61 g/m*3 7.2 C 1.6 km/h
3147 13-11-2013 06:45:00 7.2 C 7.61 g/m*3 7.2 C 3.2 km/h
3148 13-11-2013 06:50:00 7.2 C 7.61 g/m*3 7.2 C 0 km/h
3149 13-11-2013 06:55:00 7.1 C 7.57 g/m*3 7.1 C 0 km/h
3150 13-11-2013 07:00:00 7.1 C 7.57 g/m*3 7.1 C 0 km/h
Sensor: Nr:Datum:Temp:Abs-Feuchte:Windchill:Wind:
Aussen-T/F 3151 13-11-2013 07:05:00 7.1 C 7.57 g/m*3 7.1 C 0 km/h
3152 13-11-2013 07:10:00 7.1 C 7.57 g/m*3 7.1 C 3.2 km/h
3153 13-11-2013 07:15:00 7.1 C 7.57 g/m*3 7.1 C 3.2 km/h
3154 13-11-2013 07:20:00 7.1 C 7.57 g/m*3 7.1 C 1.6 km/h
3155 13-11-2013 07:25:00 7.1 C 7.49 g/m*3 7.1 C 0 km/h
3156 13-11-2013 07:30:00 7.1 C 7.49 g/m*3 7.1 C 3.2 km/h
3157 13-11-2013 07:35:00 7.1 C 7.49 g/m*3 7.1 C 3.2 km/h
3158 13-11-2013 07:40:00 7.1 C 7.41 g/m*3 7.1 C 3.2 km/h
3159 13-11-2013 07:45:00 7 C 7.36 g/m*3 7 C 0 km/h
3160 13-11-2013 07:50:00 6.9 C 7.31 g/m*3 6.9 C 0 km/h
3161 13-11-2013 07:55:00 6.8 C 7.27 g/m*3 6.8 C 0 km/h
3162 13-11-2013 08:00:00 6.8 C 7.27 g/m*3 6.8 C 0 km/h
3163 13-11-2013 08:05:00 6.7 C 7.29 g/m*3 6.7 C 0 km/h
3164 13-11-2013 08:10:00 6.7 C 7.29 g/m*3 6.7 C 0 km/h
3165 13-11-2013 08:15:00 6.7 C 7.29 g/m*3 6.7 C 0 km/h
3166 13-11-2013 08:20:00 6.6 C 7.25 g/m*3 6.6 C 0 km/h
3167 13-11-2013 08:25:00 6.7 C 7.29 g/m*3 6.7 C 0 km/h
3168 13-11-2013 08:30:00 6.7 C 7.29 g/m*3 6.7 C 0 km/h
3169 13-11-2013 08:35:00 6.7 C 7.29 g/m*3 6.7 C 0 km/h
3170 13-11-2013 08:40:00 6.8 C 7.42 g/m*3 6.8 C 0 km/h
3171 13-11-2013 08:45:00 6.8 C 7.34 g/m*3 6.8 C 0 km/h
3172 13-11-2013 08:50:00 6.8 C 7.34 g/m*3 6.8 C 0 km/h
3173 13-11-2013 08:55:00 6.7 C 7.29 g/m*3 6.7 C 0 km/h
3174 13-11-2013 09:00:00 6.7 C 7.29 g/m*3 6.7 C 0 km/h
3175 13-11-2013 09:05:00 6.6 C 7.25 g/m*3 6.6 C 0 km/h
Sensor: Nr:Datum:Temp:Abs-Feuchte:Windchill:Wind:
Aussen-T/F 3176 13-11-2013 09:10:00 6.5 C 7.2 g/m*3 6.5 C 0 km/h
3177 13-11-2013 09:15:00 6.5 C 7.2 g/m*3 6.5 C 0 km/h
3178 13-11-2013 09:20:00 6.4 C 7.15 g/m*3 6.4 C 0 km/h
3179 13-11-2013 09:25:00 6.3 C 7.11 g/m*3 6.3 C 0 km/h
3180 13-11-2013 09:30:00 6.3 C 7.11 g/m*3 6.3 C 0 km/h
3181 13-11-2013 09:35:00 6.2 C 7.06 g/m*3 6.2 C 0 km/h
3182 13-11-2013 09:40:00 6.2 C 7.06 g/m*3 6.2 C 0 km/h
3183 13-11-2013 09:45:00 6.2 C 7.06 g/m*3 6.2 C 3.2 km/h
3184 13-11-2013 09:50:00 6.2 C 7.06 g/m*3 6.2 C 0 km/h
3185 13-11-2013 09:55:00 6.4 C 7.23 g/m*3 6.4 C 0 km/h
3186 13-11-2013 10:00:00 6.6 C 7.32 g/m*3 6.6 C 0 km/h
3187 13-11-2013 10:05:00 6.7 C 7.37 g/m*3 6.7 C 0 km/h
3188 13-11-2013 10:10:00 6.8 C 7.42 g/m*3 6.8 C 3.2 km/h
3189 13-11-2013 10:15:00 6.9 C 7.39 g/m*3 6.9 C 1.6 km/h
3190 13-11-2013 10:20:00 6.9 C 7.39 g/m*3 6.9 C 3.2 km/h
3191 13-11-2013 10:25:00 7 C 7.36 g/m*3 7 C 1.6 km/h
3192 13-11-2013 10:30:00 7.1 C 7.41 g/m*3 7.1 C 0 km/h
3193 13-11-2013 10:35:00 7.2 C 7.46 g/m*3 7.2 C 0 km/h
3194 13-11-2013 10:40:00 7.2 C 7.46 g/m*3 7.2 C 0 km/h
3195 13-11-2013 10:45:00 7.3 C 7.51 g/m*3 7.3 C 0 km/h
3196 13-11-2013 10:50:00 7.4 C 7.48 g/m*3 7.4 C 0 km/h
3197 13-11-2013 10:55:00 7.6 C 7.49 g/m*3 7.6 C 3.2 km/h
3198 13-11-2013 11:00:00 7.7 C 7.46 g/m*3 7.7 C 3.2 km/h
3199 13-11-2013 11:05:00 7.8 C 7.51 g/m*3 7.8 C 4.8 km/h
3200 13-11-2013 11:10:00 7.8 C 7.43 g/m*3 7.8 C 4.8 km/h
Sensor: Nr:Datum:Temp:Abs-Feuchte:Windchill:Wind:
Aussen-T/F 3201 13-11-2013 11:15:00 8 C 7.52 g/m*3 8 C 3.2 km/h
3202 13-11-2013 11:20:00 8.1 C 7.57 g/m*3 8.1 C 4.8 km/h
3203 13-11-2013 11:25:00 8.1 C 7.49 g/m*3 8.1 C 3.2 km/h
3204 13-11-2013 11:30:00 8.2 C 7.54 g/m*3 8.2 C 1.6 km/h
3205 13-11-2013 11:35:00 8.2 C 7.54 g/m*3 8.2 C 4.8 km/h
3206 13-11-2013 11:40:00 8.2 C 7.54 g/m*3 8.2 C 3.2 km/h
3207 13-11-2013 11:45:00 8.2 C 7.54 g/m*3 8.2 C 4.8 km/h
3208 13-11-2013 11:50:00 8.3 C 7.59 g/m*3 8.3 C 3.2 km/h
3209 13-11-2013 11:55:00 8.4 C 7.63 g/m*3 8.4 C 4.8 km/h
3210 13-11-2013 12:00:00 8.4 C 7.55 g/m*3 8.4 C 4.8 km/h
3211 13-11-2013 12:05:00 8.4 C 7.47 g/m*3 8.4 C 3.2 km/h
3212 13-11-2013 12:10:00 8.4 C 7.47 g/m*3 8.4 C 0 km/h
3213 13-11-2013 12:15:00 8.4 C 7.55 g/m*3 8.4 C 3.2 km/h
3214 13-11-2013 12:20:00 8.5 C 7.51 g/m*3 8.5 C 4.8 km/h
3215 13-11-2013 12:25:00 8.5 C 7.51 g/m*3 8.5 C 1.6 km/h
3216 13-11-2013 12:30:00 8.4 C 7.47 g/m*3 8.4 C 4.8 km/h
3217 13-11-2013 12:35:00 8.4 C 7.47 g/m*3 8.4 C 4.8 km/h
3218 13-11-2013 12:40:00 8.4 C 7.38 g/m*3 8.4 C 0 km/h
3219 13-11-2013 12:45:00 8.4 C 7.38 g/m*3 8.4 C 0 km/h
3220 13-11-2013 12:50:00 8.4 C 7.38 g/m*3 8.4 C 1.6 km/h
3221 13-11-2013 12:55:00 8.6 C 7.56 g/m*3 8.6 C 0 km/h
3222 13-11-2013 13:00:00